Provisional Data: Susquehanna River at Kirkwood, NY


Please select a monitoring station.
Please select start date.
Please select start date.

Toggle Unit: C/F Toggle Unit: C/F
Sample Time Temperature (C) Temperature (F) Specific Conductivity (mS/cm) pH   Turbidity (NTU+) DO (mg/L)
3/23/2021 12:00:00 AM 4.89 40.802 0.307 6.83 73.16 0.23
3/23/2021 12:15:00 AM 4.88 40.784 0.311 6.82 72.91 0.23
3/23/2021 12:30:00 AM 4.87 40.766 0.309 6.82 72.84 0.23
3/23/2021 12:45:00 AM 4.86 40.748 0.309 6.83 73.17 0.23
3/23/2021 1:00:00 AM 4.84 40.712 0.31 6.83 73.41 0.23
3/23/2021 1:15:00 AM 4.82 40.676 0.309 6.83 73.39 0.23
3/23/2021 1:30:00 AM 4.8 40.64 0.31 6.83 73.29 0.23
3/23/2021 1:45:00 AM 4.78 40.604 0.31 6.83 73.29 0.23
3/23/2021 2:00:00 AM 4.76 40.568 0.311 6.83 73.32 0.23
3/23/2021 2:15:00 AM 4.74 40.532 0.311 6.83 73.48 0.23
3/23/2021 2:30:00 AM 4.71 40.478 0.312 6.83 73.57 0.23
3/23/2021 2:45:00 AM 4.69 40.442 0.312 6.83 73.7 0.23
3/23/2021 3:00:00 AM 4.66 40.388 0.314 6.83 73.54 0.23
3/23/2021 3:15:00 AM 4.64 40.352 0.313 6.83 73.75 0.23
3/23/2021 3:30:00 AM 4.61 40.298 0.312 6.83 73.73 0.23
3/23/2021 3:45:00 AM 4.59 40.262 0.317 6.83 73.57 0.23
3/23/2021 4:00:00 AM 4.57 40.226 0.315 6.83 73.66 0.23
3/23/2021 4:15:00 AM 4.55 40.19 0.317 6.83 73.55 0.23
3/23/2021 4:30:00 AM 4.53 40.154 0.318 6.83 73.92 0.23
3/23/2021 4:45:00 AM 4.52 40.136 0.319 6.83 73.73 0.23
3/23/2021 5:00:00 AM 4.51 40.118 0.32 6.83 73.83 0.23
3/23/2021 5:15:00 AM 4.5 40.1 0.321 6.83 73.78 0.23
3/23/2021 5:30:00 AM 4.49 40.082 0.321 6.83 73.6 0.23
3/23/2021 5:45:00 AM 4.49 40.082 0.323 6.83 73.75 0.23
3/23/2021 6:00:00 AM 4.49 40.082 0.324 6.83 73.84 0.23
3/23/2021 6:15:00 AM 4.49 40.082 0.324 6.83 74.06 0.23
3/23/2021 6:30:00 AM 4.49 40.082 0.325 6.83 74.15 0.23
3/23/2021 6:45:00 AM 4.5 40.1 0.325 6.83 74.53 0.23
3/23/2021 7:00:00 AM 4.51 40.118 0.326 6.83 74.63 0.23
3/23/2021 7:15:00 AM 4.51 40.118 0.327 6.83 74.63 0.23
3/23/2021 7:30:00 AM 4.52 40.136 0.327 6.83 74.61 0.23
3/23/2021 7:45:00 AM 4.54 40.172 0.329 6.83 74.8 0.23
3/23/2021 8:00:00 AM 4.55 40.19 0.33 6.83 74.98 0.23
3/23/2021 8:15:00 AM 4.57 40.226 0.33 6.83 74.69 0.23
3/23/2021 8:30:00 AM 4.59 40.262 0.331 6.83 74.77 0.23
3/23/2021 8:45:00 AM 4.61 40.298 0.331 6.83 74.8 0.23
3/23/2021 9:00:00 AM 4.64 40.352 0.332 6.83 74.84 0.23
3/23/2021 9:15:00 AM 4.67 40.406 0.333 6.83 74.76 0.23
3/23/2021 9:30:00 AM 4.71 40.478 0.333 6.83 74.85 0.23
3/23/2021 9:45:00 AM 4.75 40.55 0.334 6.83 74.85 0.23
3/23/2021 10:00:00 AM 4.79 40.622 0.334 6.83 74.94 0.23
3/23/2021 10:15:00 AM 4.84 40.712 0.335 6.83 75.01 0.23
3/23/2021 10:30:00 AM 4.9 40.82 0.334 6.83 74.96 0.23
3/23/2021 10:45:00 AM 4.96 40.928 0.335 6.83 75.23 0.23
3/23/2021 11:00:00 AM 5.02 41.036 0.337 6.83 75.1 0.23
3/23/2021 11:15:00 AM 5.09 41.162 0.337 6.83 75.49 0.23
3/23/2021 11:30:00 AM 5.17 41.306 0.337 6.83 75.7 0.23
3/23/2021 11:45:00 AM 5.24 41.432 0.338 6.83 75.82 0.23
3/23/2021 12:00:00 PM 5.33 41.594 0.338 6.83 76.03 0.23
3/23/2021 12:15:00 PM 5.41 41.738 0.339 6.83 76.22 0.23
3/23/2021 12:30:00 PM 5.49 41.882 0.339 6.83 76.25 0.23
3/23/2021 12:45:00 PM 5.57 42.026 0.34 6.83 76.21 0.23
3/23/2021 1:00:00 PM 5.64 42.152 0.341 6.83 76.39 0.23
3/23/2021 1:15:00 PM 5.72 42.296 0.342 6.83 76.41 0.22
3/23/2021 1:30:00 PM 5.79 42.422 0.343 6.83 76.85 0.22
3/23/2021 1:45:00 PM 5.86 42.548 0.344 6.83 77.23 0.22
3/23/2021 2:00:00 PM 5.92 42.656 0.345 6.82 76.99 0.22
3/23/2021 2:15:00 PM 5.98 42.764 0.345 6.82 77.36 0.22
3/23/2021 2:30:00 PM 6.04 42.872 0.346 6.82 77.12 0.22
3/23/2021 2:45:00 PM 6.09 42.962 0.347 6.82 77.39 0.22
3/23/2021 3:00:00 PM 6.14 43.052 0.347 6.82 77.11 0.22
3/23/2021 3:15:00 PM 6.17 43.106 0.349 6.82 77.33 0.22
3/23/2021 3:30:00 PM 6.2 43.16 0.35 6.81 77.43 0.22
3/23/2021 3:45:00 PM 6.22 43.196 0.35 6.82 77.33 0.22
3/23/2021 4:00:00 PM 6.22 43.196 0.352 6.81 77.58 0.22
3/23/2021 4:15:00 PM 6.23 43.214 0.352 6.81 78 0.22
3/23/2021 4:30:00 PM 6.22 43.196 0.352 6.81 78.27 0.22
3/23/2021 4:45:00 PM 6.21 43.178 0.353 6.81 78.54 0.22
3/23/2021 5:00:00 PM 6.19 43.142 0.352 6.81 78.52 0.22
3/23/2021 5:15:00 PM 6.17 43.106 0.353 6.8 78.72 0.22
3/23/2021 5:30:00 PM 6.15 43.07 0.354 6.8 78.6 0.22
3/23/2021 5:45:00 PM 6.12 43.016 0.355 6.8 78.78 0.22
3/23/2021 6:00:00 PM 6.09 42.962 0.356 6.8 78.91 0.22
3/23/2021 6:15:00 PM 6.06 42.908 0.356 6.8 78.66 0.22
3/23/2021 6:30:00 PM 6.03 42.854 0.356 6.8 79.09 0.22
3/23/2021 6:45:00 PM 6 42.8 0.357 6.8 79.08 0.22
3/23/2021 7:00:00 PM 5.97 42.746 0.356 6.8 79.37 0.22
3/23/2021 7:15:00 PM 5.95 42.71 0.357 6.8 79.38 0.22
3/23/2021 7:30:00 PM 5.93 42.674 0.358 6.8 79.21 0.22
3/23/2021 7:45:00 PM 5.91 42.638 0.358 6.8 79.65 0.22
3/23/2021 8:00:00 PM 5.89 42.602 0.359 6.8 79.63 0.22
3/23/2021 8:15:00 PM 5.88 42.584 0.36 6.8 79.55 0.22
3/23/2021 8:30:00 PM 5.87 42.566 0.36 6.8 79.49 0.22
3/23/2021 8:45:00 PM 5.86 42.548 0.36 6.8 79.79 0.22
3/23/2021 9:00:00 PM 5.85 42.53 0.362 6.8 80.02 0.22
3/23/2021 9:15:00 PM 5.84 42.512 0.362 6.8 80.14 0.22
3/23/2021 9:30:00 PM 5.83 42.494 0.363 6.8 80.25 0.22
3/23/2021 9:45:00 PM 5.83 42.494 0.363 6.8 80.54 0.22
3/23/2021 10:00:00 PM 5.83 42.494 0.363 6.8 80.29 0.22
3/23/2021 10:15:00 PM 5.83 42.494 0.362 6.8 80.13 0.22
3/23/2021 10:30:00 PM 5.83 42.494 0.362 6.8 80.25 0.22
3/23/2021 10:45:00 PM 5.82 42.476 0.364 6.8 80.31 0.22
3/23/2021 11:00:00 PM 5.82 42.476 0.364 6.8 80.59 0.22
3/23/2021 11:15:00 PM 5.82 42.476 0.365 6.8 80.51 0.22
3/23/2021 11:30:00 PM 5.82 42.476 0.365 6.8 80.27 0.22
3/23/2021 11:45:00 PM 5.82 42.476 0.366 6.8 80.47 0.22
3/24/2021 12:00:00 AM 5.81 42.458 0.365 6.8 80.56 0.22
3/24/2021 12:15:00 AM 5.81 42.458 0.365 6.8 80.26 0.22
3/24/2021 12:30:00 AM 5.8 42.44 0.365 6.8 80.64 0.22
3/24/2021 12:45:00 AM 5.79 42.422 0.365 6.8 80.52 0.22
3/24/2021 1:00:00 AM 5.78 42.404 0.366 6.8 80.67 0.22
3/24/2021 1:15:00 AM 5.77 42.386 0.366 6.8 80.75 0.22
3/24/2021 1:30:00 AM 5.75 42.35 0.367 6.8 81.04 0.22
3/24/2021 1:45:00 AM 5.74 42.332 0.367 6.8 80.57 0.22
3/24/2021 2:00:00 AM 5.73 42.314 0.367 6.8 80.45 0.22
3/24/2021 2:15:00 AM 5.72 42.296 0.367 6.8 81.04 0.22
3/24/2021 2:30:00 AM 5.7 42.26 0.366 6.8 81.19 0.22
3/24/2021 2:45:00 AM 5.69 42.242 0.368 6.8 81.49 0.22
3/24/2021 3:00:00 AM 5.68 42.224 0.367 6.8 81.51 0.22
3/24/2021 3:15:00 AM 5.67 42.206 0.368 6.8 81.65 0.22
3/24/2021 3:30:00 AM 5.66 42.188 0.368 6.8 81.98 0.22
3/24/2021 3:45:00 AM 5.65 42.17 0.366 6.8 81.73 0.22
3/24/2021 4:00:00 AM 5.65 42.17 0.367 6.8 81.93 0.22
3/24/2021 4:15:00 AM 5.64 42.152 0.366 6.8 82.14 0.22
3/24/2021 4:30:00 AM 5.64 42.152 0.366 6.8 82.43 0.22
3/24/2021 4:45:00 AM 5.65 42.17 0.367 6.8 82.54 0.23
3/24/2021 5:00:00 AM 5.65 42.17 0.366 6.8 83.02 0.22
3/24/2021 5:15:00 AM 5.65 42.17 0.368 6.8 82.53 0.22
3/24/2021 5:30:00 AM 5.66 42.188 0.366 6.8 82.82 0.22
3/24/2021 5:45:00 AM 5.67 42.206 0.369 6.8 82.82 0.22
3/24/2021 6:00:00 AM 5.68 42.224 0.367 6.8 82.98 0.22
3/24/2021 6:15:00 AM 5.69 42.242 0.368 6.8 83.09 0.22
3/24/2021 6:30:00 AM 5.71 42.278 0.367 6.8 83.17 0.22
3/24/2021 6:45:00 AM 5.73 42.314 0.368 6.8 83.23 0.22
3/24/2021 7:00:00 AM 5.75 42.35 0.367 6.8 83.39 0.22
3/24/2021 7:15:00 AM 5.78 42.404 0.367 6.8 83.69 0.22
3/24/2021 7:30:00 AM 5.8 42.44 0.368 6.8 83.56 0.22
3/24/2021 7:45:00 AM 5.83 42.494 0.367 6.8 83.34 0.22
3/24/2021 8:00:00 AM 5.86 42.548 0.368 6.8 83.41 0.22
3/24/2021 8:15:00 AM 5.89 42.602 0.367 6.8 83.56 0.22
3/24/2021 8:30:00 AM 5.93 42.674 0.368 6.8 83.78 0.22
3/24/2021 8:45:00 AM 5.96 42.728 0.367 6.8 83.28 0.22
3/24/2021 9:00:00 AM 5.99 42.782 0.366 6.8 83.42 0.22
3/24/2021 9:15:00 AM 6.01 42.818 0.365 6.8 83.43 0.22
3/24/2021 9:30:00 AM 6.04 42.872 0.365 6.79 83.14 0.22
3/24/2021 9:45:00 AM 6.07 42.926 0.364 6.79 83.33 0.22
3/24/2021 10:00:00 AM 6.1 42.98 0.364 6.79 83.19 0.22
3/24/2021 10:15:00 AM 6.13 43.034 0.365 6.79 83.72 0.22
3/24/2021 10:30:00 AM 6.15 43.07 0.364 6.79 83.74 0.22
3/24/2021 10:45:00 AM 6.18 43.124 0.365 6.79 84.08 0.22
3/24/2021 11:00:00 AM 6.2 43.16 0.365 6.79 83.95 0.22
3/24/2021 11:15:00 AM 6.22 43.196 0.364 6.79 84.26 0.22
3/24/2021 11:30:00 AM 6.23 43.214 0.365 6.79 84.49 0.22
3/24/2021 11:45:00 AM 6.25 43.25 0.365 6.79 84.61 0.22
3/24/2021 12:00:00 PM 6.27 43.286 0.364 6.79 84.63 0.22
3/24/2021 12:15:00 PM 6.28 43.304 0.366 6.79 84.71 0.22
3/24/2021 12:30:00 PM 6.3 43.34 0.366 6.8 84.42 0.22
3/24/2021 12:45:00 PM 6.31 43.358 0.366 6.8 84.57 0.22
3/24/2021 1:00:00 PM 6.33 43.394 0.366 6.8 84.47 0.22
3/24/2021 1:15:00 PM 6.35 43.43 0.367 6.8 84.65 0.22
3/24/2021 1:30:00 PM 6.36 43.448 0.367 6.8 84.25 0.22
3/24/2021 1:45:00 PM 6.37 43.466 0.368 6.8 84.31 0.22
3/24/2021 2:00:00 PM 6.39 43.502 0.368 6.8 84.27 0.22
3/24/2021 2:15:00 PM 6.39 43.502 0.368 6.8 84.33 0.22
3/24/2021 2:30:00 PM 6.4 43.52 0.368 6.8 84.1 0.22
3/24/2021 2:45:00 PM 6.4 43.52 0.369 6.81 84.11 0.22
3/24/2021 3:00:00 PM 6.39 43.502 0.369 6.81 84.18 0.22
3/24/2021 3:15:00 PM 6.38 43.484 0.37 6.81 84.24 0.22
3/24/2021 3:30:00 PM 6.37 43.466 0.369 6.81 84.31 0.22
3/24/2021 3:45:00 PM 6.36 43.448 0.369 6.81 84.2 0.22
3/24/2021 4:00:00 PM 6.35 43.43 0.371 6.8 84.65 0.22
3/24/2021 4:15:00 PM 6.33 43.394 0.371 6.8 84.57 0.22
3/24/2021 4:30:00 PM 6.31 43.358 0.37 6.8 84.57 0.22
3/24/2021 4:45:00 PM 6.28 43.304 0.371 6.8 85.05 0.22
3/24/2021 5:00:00 PM 6.26 43.268 0.373 6.8 84.85 0.22
3/24/2021 5:15:00 PM 6.24 43.232 0.372 6.8 84.77 0.22
3/24/2021 5:30:00 PM 6.21 43.178 0.372 6.8 84.35 0.22
3/24/2021 5:45:00 PM 6.2 43.16 0.372 6.8 84.49 0.22
3/24/2021 6:00:00 PM 6.18 43.124 0.371 6.8 84.42 0.22
3/24/2021 6:15:00 PM 6.17 43.106 0.372 6.81 84.77 0.22
3/24/2021 6:30:00 PM 6.17 43.106 0.372 6.8 84.44 0.22
3/24/2021 6:45:00 PM 6.16 43.088 0.372 6.8 84.68 0.22
3/24/2021 7:00:00 PM 6.16 43.088 0.371 6.81 84.68 0.22
3/24/2021 7:15:00 PM 6.15 43.07 0.37 6.81 84.82 0.22
3/24/2021 7:30:00 PM 6.14 43.052 0.371 6.81 84.79 0.22
3/24/2021 7:45:00 PM 6.14 43.052 0.37 6.81 84.87 0.22
3/24/2021 8:00:00 PM 6.13 43.034 0.369 6.81 84.84 0.22
3/24/2021 8:15:00 PM 6.13 43.034 0.369 6.82 84.74 0.22
3/24/2021 8:30:00 PM 6.13 43.034 0.366 6.82 84.69 0.22
3/24/2021 8:45:00 PM 6.13 43.034 0.367 6.83 84.74 0.22
3/24/2021 9:00:00 PM 6.13 43.034 0.365 6.83 84.65 0.22
3/24/2021 9:15:00 PM 6.14 43.052 0.364 6.83 85.19 0.22
3/24/2021 9:30:00 PM 6.14 43.052 0.365 6.83 85.12 0.22
3/24/2021 9:45:00 PM 6.15 43.07 0.365 6.83 84.41 0.22
3/24/2021 10:00:00 PM 6.16 43.088 0.366 6.83 84.45 0.22
3/24/2021 10:15:00 PM 6.17 43.106 0.367 6.83 84.45 0.22
3/24/2021 10:30:00 PM 6.18 43.124 0.368 6.83 84.63 0.22
3/24/2021 10:45:00 PM 6.18 43.124 0.369 6.83 84.39 0.22
3/24/2021 11:00:00 PM 6.2 43.16 0.37 6.83 84.33 0.22
3/24/2021 11:15:00 PM 6.21 43.178 0.369 6.83 84.42 0.22
3/24/2021 11:30:00 PM 6.22 43.196 0.37 6.83 84.5 0.22
3/24/2021 11:45:00 PM 6.23 43.214 0.371 6.83 84.46 0.22
3/25/2021 12:00:00 AM 6.23 43.214 0.371 6.83 84.43 0.22
3/25/2021 12:15:00 AM 6.24 43.232 0.371 6.83 84.49 0.22
3/25/2021 12:30:00 AM 6.25 43.25 0.37 6.83 84.63 0.22
3/25/2021 12:45:00 AM 6.25 43.25 0.371 6.83 84.72 0.22
3/25/2021 1:00:00 AM 6.26 43.268 0.372 6.83 84.45 0.22
3/25/2021 1:15:00 AM 6.26 43.268 0.372 6.83 84.14 0.22
3/25/2021 1:30:00 AM 6.27 43.286 0.372 6.83 83.99 0.22
3/25/2021 1:45:00 AM 6.28 43.304 0.373 6.83 84.39 0.22
3/25/2021 2:00:00 AM 6.29 43.322 0.374 6.84 84.57 0.22
3/25/2021 2:15:00 AM 6.3 43.34 0.374 6.84 84.47 0.22
3/25/2021 2:30:00 AM 6.3 43.34 0.373 6.84 83.92 0.22
3/25/2021 2:45:00 AM 6.31 43.358 0.374 6.84 84.16 0.22
3/25/2021 3:00:00 AM 6.32 43.376 0.374 6.84 84.4 0.22
3/25/2021 3:15:00 AM 6.33 43.394 0.375 6.85 84.37 0.22
3/25/2021 3:30:00 AM 6.35 43.43 0.377 6.85 84.48 0.22
3/25/2021 3:45:00 AM 6.36 43.448 0.378 6.85 84.57 0.22
3/25/2021 4:00:00 AM 6.37 43.466 0.379 6.85 84.81 0.22
3/25/2021 4:15:00 AM 6.39 43.502 0.379 6.85 84.55 0.22
3/25/2021 4:30:00 AM 6.4 43.52 0.381 6.86 85.04 0.22
3/25/2021 4:45:00 AM 6.42 43.556 0.382 6.86 85.19 0.22
3/25/2021 5:00:00 AM 6.43 43.574 0.382 6.86 84.85 0.22
3/25/2021 5:15:00 AM -99999.99 -179968 -99999.99 -99999.99 -99999.99 -99999.99
3/25/2021 5:30:00 AM -99999.99 -179968 -99999.99 -99999.99 -99999.99 -99999.99
3/25/2021 5:45:00 AM -99999.99 -179968 -99999.99 -99999.99 -99999.99 -99999.99
3/25/2021 6:00:00 AM -99999.99 -179968 -99999.99 -99999.99 -99999.99 -99999.99
3/25/2021 6:15:00 AM -99999.99 -179968 -99999.99 -99999.99 -99999.99 -99999.99
3/25/2021 6:30:00 AM -99999.99 -179968 -99999.99 -99999.99 -99999.99 -99999.99
3/25/2021 6:45:00 AM -99999.99 -179968 -99999.99 -99999.99 -99999.99 -99999.99
3/25/2021 7:00:00 AM 6.56 43.808 0.391 6.87 84.5 0.22
3/25/2021 7:15:00 AM 6.57 43.826 0.39 6.86 84.8 0.22
3/25/2021 7:30:00 AM 6.58 43.844 0.39 6.86 84.99 0.22
3/25/2021 7:45:00 AM 6.59 43.862 0.391 6.87 84.97 0.22
3/25/2021 8:00:00 AM 6.61 43.898 0.39 6.87 85.22 0.22
3/25/2021 8:15:00 AM 6.62 43.916 0.392 6.87 84.97 0.22
3/25/2021 8:30:00 AM 6.63 43.934 0.392 6.87 85.07 0.22
3/25/2021 8:45:00 AM 6.65 43.97 0.394 6.87 84.98 0.22
3/25/2021 9:00:00 AM 6.66 43.988 0.394 6.87 84.73 0.22
3/25/2021 9:15:00 AM 6.68 44.024 0.396 6.87 85.08 0.22
3/25/2021 9:30:00 AM 6.69 44.042 0.396 6.87 85.68 0.22
3/25/2021 9:45:00 AM 6.71 44.078 0.398 6.87 85.43 0.22
3/25/2021 10:00:00 AM 6.73 44.114 0.4 6.87 85.23 0.22
3/25/2021 10:15:00 AM 6.75 44.15 0.402 6.87 85.02 0.22
3/25/2021 10:30:00 AM 6.77 44.186 0.403 6.87 85 0.22
3/25/2021 10:45:00 AM 6.8 44.24 0.405 6.87 84.72 0.22
3/25/2021 11:00:00 AM 6.83 44.294 0.406 6.88 85.04 0.22
3/25/2021 11:15:00 AM 6.88 44.384 0.408 6.88 84.89 0.22
3/25/2021 11:30:00 AM 6.92 44.456 0.41 6.88 85.11 0.22
3/25/2021 11:45:00 AM 6.97 44.546 0.412 6.88 84.91 0.22
3/25/2021 12:00:00 PM 7.01 44.618 0.413 6.88 84.65 0.22
3/25/2021 12:15:00 PM 7.07 44.726 0.414 6.88 84.85 0.22
3/25/2021 12:30:00 PM 7.12 44.816 0.415 6.88 85.32 0.22
3/25/2021 12:45:00 PM 7.18 44.924 0.417 6.88 84.98 0.22
3/25/2021 1:00:00 PM 7.25 45.05 0.417 6.88 84.68 0.22
3/25/2021 1:15:00 PM 7.31 45.158 0.418 6.88 84.62 0.22
3/25/2021 1:30:00 PM 7.38 45.284 0.419 6.88 84.9 0.22
3/25/2021 1:45:00 PM 7.44 45.392 0.42 6.88 84.69 0.22
3/25/2021 2:00:00 PM 7.51 45.518 0.42 6.88 84.83 0.21
3/25/2021 2:15:00 PM 7.57 45.626 0.421 6.88 85.03 0.22
3/25/2021 2:30:00 PM 7.63 45.734 0.421 6.88 85.49 0.21
3/25/2021 2:45:00 PM 7.68 45.824 0.422 6.88 85.1 0.21
3/25/2021 3:00:00 PM 7.73 45.914 0.422 6.88 85.23 0.21
3/25/2021 3:15:00 PM 7.77 45.986 0.422 6.88 85.34 0.21
3/25/2021 3:30:00 PM 7.82 46.076 0.423 6.89 85.46 0.21
3/25/2021 3:45:00 PM 7.85 46.13 0.423 6.89 84.96 0.21
3/25/2021 4:00:00 PM 7.88 46.184 0.425 6.89 85.24 0.21
3/25/2021 4:15:00 PM 7.91 46.238 0.427 6.89 85.02 0.21
3/25/2021 4:30:00 PM 7.92 46.256 0.429 6.89 85.06 0.21
3/25/2021 4:45:00 PM 7.93 46.274 0.431 6.89 85.38 0.21
3/25/2021 5:00:00 PM 7.94 46.292 0.433 6.89 85.35 0.21
3/25/2021 5:15:00 PM 7.94 46.292 0.436 6.89 84.97 0.21
3/25/2021 5:30:00 PM 7.94 46.292 0.438 6.89 84.94 0.21
3/25/2021 5:45:00 PM 7.94 46.292 0.44 6.89 84.82 0.21
3/25/2021 6:00:00 PM 7.94 46.292 0.442 6.89 84.96 0.21
3/25/2021 6:15:00 PM 7.95 46.31 0.444 6.89 85.36 0.21
3/25/2021 6:30:00 PM 7.95 46.31 0.446 6.89 85.28 0.21
3/25/2021 6:45:00 PM 7.95 46.31 0.449 6.89 85.34 0.21
3/25/2021 7:00:00 PM 7.96 46.328 0.451 6.89 84.91 0.21
3/25/2021 7:15:00 PM 7.96 46.328 0.451 6.89 85.41 0.21
3/25/2021 7:30:00 PM 7.96 46.328 0.452 6.89 85.32 0.21
3/25/2021 7:45:00 PM 7.97 46.346 0.453 6.89 85.56 0.21
3/25/2021 8:00:00 PM 7.98 46.364 0.454 6.9 85.26 0.21
3/25/2021 8:15:00 PM 7.98 46.364 0.455 6.9 85.12 0.21
3/25/2021 8:30:00 PM 7.99 46.382 0.455 6.9 85.24 0.21
3/25/2021 8:45:00 PM 8 46.4 0.456 6.9 85.4 0.21
3/25/2021 9:00:00 PM 8.01 46.418 0.457 6.9 85.51 0.21
3/25/2021 9:15:00 PM 8.02 46.436 0.458 6.9 85.4 0.21
3/25/2021 9:30:00 PM 8.03 46.454 0.46 6.89 85.17 0.21
3/25/2021 9:45:00 PM 8.04 46.472 0.461 6.9 85.12 0.21
3/25/2021 10:00:00 PM 8.05 46.49 0.463 6.9 85.69 0.21
3/25/2021 10:15:00 PM 8.06 46.508 0.463 6.9 85.61 0.21
3/25/2021 10:30:00 PM 8.07 46.526 0.465 6.91 85.7 0.21
3/25/2021 10:45:00 PM 8.08 46.544 0.465 6.91 85.55 0.21
3/25/2021 11:00:00 PM 8.09 46.562 0.466 6.91 85.58 0.21
3/25/2021 11:15:00 PM 8.09 46.562 0.467 6.91 85.49 0.21
3/25/2021 11:30:00 PM 8.1 46.58 0.469 6.91 85.88 0.21
3/25/2021 11:45:00 PM 8.11 46.598 0.47 6.91 85.73 0.21
3/26/2021 12:00:00 AM 8.11 46.598 0.472 6.91 85.96 0.21
3/26/2021 12:15:00 AM 8.11 46.598 0.472 6.91 86.08 0.21
3/26/2021 12:30:00 AM 8.11 46.598 0.474 6.91 85.85 0.21
3/26/2021 12:45:00 AM 8.11 46.598 0.476 6.91 85.52 0.21
3/26/2021 1:00:00 AM 8.1 46.58 0.478 6.91 86.11 0.21
3/26/2021 1:15:00 AM 8.09 46.562 0.479 6.91 86.06 0.21
3/26/2021 1:30:00 AM 8.09 46.562 0.48 6.91 86.02 0.21
3/26/2021 1:45:00 AM 8.08 46.544 0.482 6.91 85.97 0.21
3/26/2021 2:00:00 AM 8.07 46.526 0.484 6.91 85.96 0.21
3/26/2021 2:15:00 AM 8.06 46.508 0.486 6.91 85.92 0.21
3/26/2021 2:30:00 AM 8.05 46.49 0.488 6.91 85.9 0.21
3/26/2021 2:45:00 AM 8.04 46.472 0.489 6.91 86.18 0.21
3/26/2021 3:00:00 AM 8.04 46.472 0.49 6.92 85.91 0.21
3/26/2021 3:15:00 AM 8.03 46.454 0.491 6.92 85.78 0.21
3/26/2021 3:30:00 AM 8.03 46.454 0.493 6.91 85.51 0.21
3/26/2021 3:45:00 AM 8.03 46.454 0.494 6.92 85.56 0.21
3/26/2021 4:00:00 AM 8.03 46.454 0.496 6.92 85.53 0.21
3/26/2021 4:15:00 AM 8.03 46.454 0.497 6.92 85.33 0.21
3/26/2021 4:30:00 AM 8.04 46.472 0.498 6.91 85.79 0.21
3/26/2021 4:45:00 AM 8.05 46.49 0.499 6.91 85.52 0.21
3/26/2021 5:00:00 AM 8.06 46.508 0.5 6.91 85.8 0.21
3/26/2021 5:15:00 AM 8.07 46.526 0.501 6.91 85.95 0.21
3/26/2021 5:30:00 AM 8.08 46.544 0.503 6.92 86.31 0.21
3/26/2021 5:45:00 AM 8.1 46.58 0.503 6.92 86.21 0.21
3/26/2021 6:00:00 AM 8.11 46.598 0.503 6.92 86.19 0.21
3/26/2021 6:15:00 AM 8.13 46.634 0.504 6.92 86 0.21
3/26/2021 6:30:00 AM 8.15 46.67 0.504 6.92 86.15 0.21
3/26/2021 6:45:00 AM 8.17 46.706 0.505 6.92 86.63 0.21
3/26/2021 7:00:00 AM 8.19 46.742 0.505 6.92 86.36 0.21
3/26/2021 7:15:00 AM 8.21 46.778 0.505 6.92 86.32 0.21
3/26/2021 7:30:00 AM 8.24 46.832 0.505 6.92 86.13 0.21
3/26/2021 7:45:00 AM 8.26 46.868 0.506 6.92 86.52 0.21
3/26/2021 8:00:00 AM 8.29 46.922 0.506 6.92 86.5 0.21
3/26/2021 8:15:00 AM 8.32 46.976 0.506 6.92 86.42 0.21
3/26/2021 8:30:00 AM 8.34 47.012 0.507 6.92 86.27 0.21
3/26/2021 8:45:00 AM 8.37 47.066 0.507 6.92 86.56 0.21
3/26/2021 9:00:00 AM 8.41 47.138 0.508 6.92 86.37 0.21
3/26/2021 9:15:00 AM 8.44 47.192 0.508 6.92 86.47 0.21
3/26/2021 9:30:00 AM 8.47 47.246 0.509 6.92 86.46 0.21
3/26/2021 9:45:00 AM 8.52 47.336 0.51 6.92 86.13 0.21
3/26/2021 10:00:00 AM 8.57 47.426 0.51 6.93 85.97 0.21
3/26/2021 10:15:00 AM 8.63 47.534 0.51 6.93 86.25 0.21
3/26/2021 10:30:00 AM 8.69 47.642 0.511 6.93 86.4 0.21
3/26/2021 10:45:00 AM 8.75 47.75 0.511 6.93 86.14 0.21
3/26/2021 11:00:00 AM 8.78 47.804 0.511 6.93 86.47 0.21
3/26/2021 11:15:00 AM 8.83 47.894 0.511 6.93 86.46 0.21
3/26/2021 11:30:00 AM 8.89 48.002 0.511 6.93 86.51 0.21
3/26/2021 11:45:00 AM 8.94 48.092 0.512 6.93 86.37 0.21
3/26/2021 12:00:00 PM 8.98 48.164 0.513 6.93 86.39 0.21
3/26/2021 12:15:00 PM 8.99 48.182 0.513 6.92 86.83 0.21
3/26/2021 12:30:00 PM 8.99 48.182 0.513 6.92 86.72 0.21
3/26/2021 12:45:00 PM 9 48.2 0.513 6.92 86.84 0.21
3/26/2021 1:00:00 PM 9.01 48.218 0.513 6.92 86.63 0.21
3/26/2021 1:15:00 PM 9.02 48.236 0.513 6.92 86.81 0.21
3/26/2021 1:30:00 PM 9.03 48.254 0.514 6.92 86.72 0.21
3/26/2021 1:45:00 PM 9.04 48.272 0.515 6.93 86.85 0.21
3/26/2021 2:00:00 PM 9.06 48.308 0.515 6.93 87.01 0.21
3/26/2021 2:15:00 PM 9.09 48.362 0.515 6.93 86.88 0.21
3/26/2021 2:30:00 PM 9.12 48.416 0.515 6.93 87.16 0.21
3/26/2021 2:45:00 PM 9.15 48.47 0.514 6.93 87.61 0.21
3/26/2021 3:00:00 PM 9.18 48.524 0.511 6.93 87.78 0.21
3/26/2021 3:15:00 PM 9.18 48.524 0.509 6.94 87.84 0.21
3/26/2021 3:30:00 PM 9.18 48.524 0.504 6.94 88.06 0.21
3/26/2021 3:45:00 PM 9.19 48.542 0.521 6.97 86.3 0.21
3/26/2021 4:00:00 PM 9.2 48.56 0.541 6.98 81.16 0.21
3/26/2021 4:15:00 PM 9.21 48.578 0.55 6.98 80.89 0.21
3/26/2021 4:30:00 PM 9.22 48.596 0.557 6.97 80.69 0.21
3/26/2021 4:45:00 PM 9.21 48.578 0.562 6.96 80.33 0.2
3/26/2021 5:00:00 PM 9.21 48.578 0.566 6.95 80.19 0.21
3/26/2021 5:15:00 PM 9.2 48.56 0.57 6.95 80.52 0.24
3/26/2021 5:30:00 PM 9.2 48.56 0.573 6.95 80.41 0.23
3/26/2021 5:45:00 PM 9.19 48.542 0.576 6.94 81.19 0.28
3/26/2021 6:00:00 PM 9.19 48.542 0.579 6.94 81.56 0.29
3/26/2021 6:15:00 PM 9.18 48.524 0.579 6.94 81.61 0.26
3/26/2021 6:30:00 PM 9.18 48.524 0.582 6.94 82.16 0.3
3/26/2021 6:45:00 PM 9.18 48.524 0.585 6.94 82.69 0.36
3/26/2021 7:00:00 PM 9.18 48.524 0.587 6.94 82.64 0.35
3/26/2021 7:15:00 PM 9.18 48.524 0.588 6.94 82.48 0.36
3/26/2021 7:30:00 PM 9.18 48.524 0.59 6.94 82.59 0.42
3/26/2021 7:45:00 PM 9.18 48.524 0.59 6.94 82.79 0.32
3/26/2021 8:00:00 PM 9.18 48.524 0.592 6.94 82.49 0.35
3/26/2021 8:15:00 PM 9.18 48.524 0.593 6.94 82.15 0.4
3/26/2021 8:30:00 PM 9.18 48.524 0.594 6.94 82.76 0.31
3/26/2021 8:45:00 PM 9.18 48.524 0.595 6.93 82.58 0.27
3/26/2021 9:00:00 PM 9.18 48.524 0.596 6.93 83.16 0.27
3/26/2021 9:15:00 PM 9.18 48.524 0.596 6.93 82.91 0.22
3/26/2021 9:30:00 PM 9.18 48.524 0.597 6.93 82.83 0.21
3/26/2021 9:45:00 PM 9.18 48.524 0.597 6.93 83.16 0.21
3/26/2021 10:00:00 PM 9.19 48.542 0.597 6.93 82.85 0.22
3/26/2021 10:15:00 PM 9.19 48.542 0.597 6.93 83.61 0.21
3/26/2021 10:30:00 PM 9.2 48.56 0.596 6.93 83.33 0.21
3/26/2021 10:45:00 PM 9.2 48.56 0.598 6.93 83.07 0.21
3/26/2021 11:00:00 PM 9.2 48.56 0.597 6.93 83.29 0.21
3/26/2021 11:15:00 PM 9.2 48.56 0.597 6.93 83.1 0.21
3/26/2021 11:30:00 PM 9.19 48.542 0.596 6.93 83.36 0.21
3/26/2021 11:45:00 PM 9.19 48.542 0.597 6.93 83.73 0.21
3/27/2021 12:00:00 AM 9.18 48.524 0.597 6.93 83.86 0.21
3/27/2021 12:15:00 AM 9.17 48.506 0.598 6.93 83.35 0.21
3/27/2021 12:30:00 AM 9.16 48.488 0.597 6.93 83.72 0.21
3/27/2021 12:45:00 AM 9.15 48.47 0.597 6.93 84.09 0.21
3/27/2021 1:00:00 AM 9.14 48.452 0.597 6.93 83.63 0.21
3/27/2021 1:15:00 AM 9.13 48.434 0.598 6.93 83.83 0.21
3/27/2021 1:30:00 AM 9.12 48.416 0.597 6.93 83.8 0.21
3/27/2021 1:45:00 AM 9.1 48.38 0.597 6.93 83.96 0.21
3/27/2021 2:00:00 AM 9.09 48.362 0.597 6.93 83.89 0.22
3/27/2021 2:15:00 AM 9.08 48.344 0.597 6.93 83.91 0.21
3/27/2021 2:30:00 AM 9.07 48.326 0.596 6.93 84.07 0.21
3/27/2021 2:45:00 AM 9.05 48.29 0.595 6.93 84.43 0.21
3/27/2021 3:00:00 AM 9.04 48.272 0.595 6.93 84.93 0.22
3/27/2021 3:15:00 AM 9.04 48.272 0.594 6.93 84.45 0.21
3/27/2021 3:30:00 AM 9.04 48.272 0.594 6.93 84.72 0.22
3/27/2021 3:45:00 AM 9.04 48.272 0.594 6.93 84.78 0.21
3/27/2021 4:00:00 AM 9.04 48.272 0.594 6.93 84.74 0.21
3/27/2021 4:15:00 AM 9.04 48.272 0.594 6.93 84.42 0.21
3/27/2021 4:30:00 AM 9.03 48.254 0.595 6.93 84.7 0.21
3/27/2021 4:45:00 AM 9.03 48.254 0.595 6.93 84.25 0.22
3/27/2021 5:00:00 AM 9.03 48.254 0.594 6.93 84.42 0.21
3/27/2021 5:15:00 AM 9.03 48.254 0.593 6.93 84.71 0.21
3/27/2021 5:30:00 AM 9.02 48.236 0.593 6.93 84.38 0.21
3/27/2021 5:45:00 AM 9.02 48.236 0.591 6.93 84.84 0.21
3/27/2021 6:00:00 AM 9.02 48.236 0.591 6.93 84.93 0.21
3/27/2021 6:15:00 AM 9.01 48.218 0.59 6.93 84.61 0.21
3/27/2021 6:30:00 AM 9.01 48.218 0.59 6.94 84.13 0.25
3/27/2021 6:45:00 AM 9 48.2 0.59 6.93 84.37 0.23
3/27/2021 7:00:00 AM 9 48.2 0.591 6.93 83.85 0.5
3/27/2021 7:15:00 AM 8.99 48.182 0.592 6.93 84.38 0.52
3/27/2021 7:30:00 AM 8.98 48.164 0.591 6.93 84.2 0.56
3/27/2021 7:45:00 AM 8.97 48.146 0.592 6.93 84.26 0.58
3/27/2021 8:00:00 AM 8.96 48.128 0.593 6.93 83.68 0.58
3/27/2021 8:15:00 AM 8.95 48.11 0.593 6.93 83.73 0.65
3/27/2021 8:30:00 AM 8.94 48.092 0.593 6.93 83.94 0.64
3/27/2021 8:45:00 AM 8.94 48.092 0.594 6.93 83.85 0.68
3/27/2021 9:00:00 AM 8.93 48.074 0.594 6.93 83.82 0.65
3/27/2021 9:15:00 AM 8.93 48.074 0.594 6.92 84.2 0.73
3/27/2021 9:30:00 AM 8.92 48.056 0.594 6.92 84.46 0.77
3/27/2021 9:45:00 AM 8.92 48.056 0.595 6.93 84.38 0.79
3/27/2021 10:00:00 AM 8.91 48.038 0.594 6.92 84.18 0.96
3/27/2021 10:15:00 AM 8.91 48.038 0.595 6.92 84.65 0.99
3/27/2021 10:30:00 AM 8.9 48.02 0.595 6.93 84.45 1.02
3/27/2021 10:45:00 AM 8.9 48.02 0.595 6.93 84.33 1.08
3/27/2021 11:00:00 AM 8.91 48.038 0.595 6.93 84.38 1.08
3/27/2021 11:15:00 AM 8.91 48.038 0.597 6.92 84.63 1.11
3/27/2021 11:30:00 AM 8.91 48.038 0.597 6.92 84.02 1.19
3/27/2021 11:45:00 AM 8.91 48.038 0.596 6.93 84.12 1.11
3/27/2021 12:00:00 PM 8.93 48.074 0.596 6.92 84.34 1.08
3/27/2021 12:15:00 PM 8.96 48.128 0.595 6.93 84.27 1.08
3/27/2021 12:30:00 PM 9 48.2 0.595 6.92 83.81 1.12
3/27/2021 12:45:00 PM 9.05 48.29 0.594 6.93 83.93 1.11
3/27/2021 1:00:00 PM 9.13 48.434 0.594 6.93 83.88 1.17
3/27/2021 1:15:00 PM 9.21 48.578 0.593 6.93 84.19 1.11
3/27/2021 1:30:00 PM 9.29 48.722 0.592 6.93 83.68 1.06
3/27/2021 1:45:00 PM 9.37 48.866 0.591 6.93 83.9 1.01
3/27/2021 2:00:00 PM 9.42 48.956 0.592 6.93 83.32 1.19
3/27/2021 2:15:00 PM 9.48 49.064 0.594 6.92 83.79 1.27
3/27/2021 2:30:00 PM 9.54 49.172 0.594 6.93 83.55 1.23
3/27/2021 2:45:00 PM 9.6 49.28 0.593 6.92 83.66 1.1
3/27/2021 3:00:00 PM 9.65 49.37 0.594 6.92 83.51 1.12
3/27/2021 3:15:00 PM 9.68 49.424 0.594 6.92 83.48 1.18
3/27/2021 3:30:00 PM 9.71 49.478 0.594 6.92 83.37 1.14
3/27/2021 3:45:00 PM 9.73 49.514 0.593 6.92 83.3 0.93
3/27/2021 4:00:00 PM 9.75 49.55 0.592 6.92 83.55 1
3/27/2021 4:15:00 PM 9.76 49.568 0.591 6.92 83.54 0.98
3/27/2021 4:30:00 PM 9.76 49.568 0.59 6.92 83.68 0.75
3/27/2021 4:45:00 PM 9.74 49.532 0.59 6.92 83.81 0.75
3/27/2021 5:00:00 PM 9.73 49.514 0.59 6.92 83.55 0.73
3/27/2021 5:15:00 PM 9.71 49.478 0.591 6.92 83.3 0.59
3/27/2021 5:30:00 PM 9.71 49.478 0.591 6.92 83.61 0.54
3/27/2021 5:45:00 PM 9.72 49.496 0.591 6.92 83.87 0.47
3/27/2021 6:00:00 PM 9.75 49.55 0.59 6.92 83.45 0.39
3/27/2021 6:15:00 PM 9.78 49.604 0.59 6.92 83.44 0.38
3/27/2021 6:30:00 PM 9.81 49.658 0.59 6.92 83.99 0.41
3/27/2021 6:45:00 PM 9.83 49.694 0.59 6.92 83.67 0.38
3/27/2021 7:00:00 PM 9.84 49.712 0.59 6.92 83.81 0.43
3/27/2021 7:15:00 PM 9.85 49.73 0.59 6.92 83.8 0.39
3/27/2021 7:30:00 PM 9.84 49.712 0.59 6.92 84.02 0.57
3/27/2021 7:45:00 PM 9.84 49.712 0.59 6.92 83.93 0.6
3/27/2021 8:00:00 PM 9.83 49.694 0.59 6.92 84.03 0.49
3/27/2021 8:15:00 PM 9.82 49.676 0.59 6.92 84.47 0.5
3/27/2021 8:30:00 PM 9.8 49.64 0.589 6.92 84.05 0.48
3/27/2021 8:45:00 PM 9.79 49.622 0.589 6.92 83.89 0.42
3/27/2021 9:00:00 PM 9.78 49.604 0.589 6.92 84.31 0.53
3/27/2021 9:15:00 PM 9.77 49.586 0.589 6.92 84.37 0.46
3/27/2021 9:30:00 PM 9.77 49.586 0.589 6.92 84.6 0.48
3/27/2021 9:45:00 PM 9.78 49.604 0.587 6.92 84.26 0.41
3/27/2021 10:00:00 PM 9.78 49.604 0.588 6.92 84.05 0.43
3/27/2021 10:15:00 PM 9.79 49.622 0.587 6.92 84.15 0.58
3/27/2021 10:30:00 PM 9.79 49.622 0.585 6.92 84.05 0.51
3/27/2021 10:45:00 PM 9.8 49.64 0.585 6.92 83.86 0.59
3/27/2021 11:00:00 PM 9.8 49.64 0.583 6.92 83.96 0.42
3/27/2021 11:15:00 PM 9.79 49.622 0.581 6.92 84.31 0.39
3/27/2021 11:30:00 PM 9.79 49.622 0.58 6.92 84.32 0.36
3/27/2021 11:45:00 PM 9.78 49.604 0.578 6.92 84.51 0.42
3/28/2021 12:00:00 AM 9.77 49.586 0.575 6.92 84.05 0.44
3/28/2021 12:15:00 AM 9.75 49.55 0.574 6.92 84.22 0.49
3/28/2021 12:30:00 AM 9.74 49.532 0.573 6.92 84.11 0.47
3/28/2021 12:45:00 AM 9.73 49.514 0.573 6.92 84.06 0.52
3/28/2021 1:00:00 AM 9.72 49.496 0.572 6.92 84.16 0.5
3/28/2021 1:15:00 AM 9.71 49.478 0.57 6.92 84.3 0.51
3/28/2021 1:30:00 AM 9.7 49.46 0.567 6.92 84.46 0.58
3/28/2021 1:45:00 AM 9.69 49.442 0.567 6.93 84.26 0.49
3/28/2021 2:00:00 AM 9.68 49.424 0.564 6.93 84.41 0.64
3/28/2021 2:15:00 AM 9.68 49.424 0.56 6.93 84.47 0.52
3/28/2021 2:30:00 AM 9.67 49.406 0.558 6.93 84.59 0.55
3/28/2021 2:45:00 AM 9.66 49.388 0.558 6.93 84.24 0.61
3/28/2021 3:00:00 AM 9.65 49.37 0.556 6.93 84.14 0.66
3/28/2021 3:15:00 AM 9.63 49.334 0.554 6.93 84.27 0.69
3/28/2021 3:30:00 AM 9.62 49.316 0.555 6.94 84.21 0.65
3/28/2021 3:45:00 AM 9.6 49.28 0.553 6.94 84.12 0.8
3/28/2021 4:00:00 AM 9.58 49.244 0.553 6.94 84.33 1.15
3/28/2021 4:15:00 AM 9.57 49.226 0.549 6.94 84.38 1.21
3/28/2021 4:30:00 AM 9.55 49.19 0.547 6.94 84.6 1.31
3/28/2021 4:45:00 AM 9.53 49.154 0.548 6.94 84.51 1.34
3/28/2021 5:00:00 AM 9.51 49.118 0.547 6.94 84.6 1.34
3/28/2021 5:15:00 AM 9.5 49.1 0.547 6.94 84.66 1.5
3/28/2021 5:30:00 AM 9.48 49.064 0.547 6.94 84.59 1.47
3/28/2021 5:45:00 AM 9.47 49.046 0.543 6.94 84.65 1.48
3/28/2021 6:00:00 AM 9.46 49.028 0.544 6.94 84.7 1.72
3/28/2021 6:15:00 AM 9.45 49.01 0.544 6.94 84.91 1.72
3/28/2021 6:30:00 AM 9.45 49.01 0.545 6.94 84.72 1.74
3/28/2021 6:45:00 AM 9.44 48.992 0.547 6.95 85.14 1.92
3/28/2021 7:00:00 AM 9.44 48.992 0.543 6.94 84.65 1.97
3/28/2021 7:15:00 AM 9.44 48.992 0.543 6.94 84.86 3.94
3/28/2021 7:30:00 AM 9.43 48.974 0.542 6.95 85.28 6.69
3/28/2021 7:45:00 AM 9.43 48.974 0.54 6.95 85.25 6.93
3/28/2021 8:00:00 AM 9.42 48.956 0.539 6.95 85 7.69
3/28/2021 8:15:00 AM 9.42 48.956 0.539 6.95 84.99 8.13
3/28/2021 8:30:00 AM 9.42 48.956 0.539 6.95 84.75 8.02
3/28/2021 8:45:00 AM 9.41 48.938 0.539 6.95 84.91 8.23
3/28/2021 9:00:00 AM 9.41 48.938 0.536 6.95 84.89 8.15
3/28/2021 9:15:00 AM 9.4 48.92 0.533 6.95 84.83 7.78
3/28/2021 9:30:00 AM 9.4 48.92 0.531 6.95 84.72 7.78
3/28/2021 9:45:00 AM 9.4 48.92 0.532 6.95 84.81 8
3/28/2021 10:00:00 AM 9.4 48.92 0.53 6.95 84.74 7.97
3/28/2021 10:15:00 AM 9.4 48.92 0.528 6.95 84.73 7.96
3/28/2021 10:30:00 AM 9.4 48.92 0.527 6.95 84.83 8.19
3/28/2021 10:45:00 AM 9.4 48.92 0.524 6.95 84.38 8.24
3/28/2021 11:00:00 AM 9.4 48.92 0.523 6.95 84.03 8.19
3/28/2021 11:15:00 AM 9.4 48.92 0.522 6.95 84.65 8.25
3/28/2021 11:30:00 AM 9.39 48.902 0.522 6.95 84.71 8.18
3/28/2021 11:45:00 AM 9.39 48.902 0.521 6.95 84.74 8.34
3/28/2021 12:00:00 PM 9.39 48.902 0.52 6.95 84.76 8.23
3/28/2021 12:15:00 PM 9.38 48.884 0.517 6.95 84.87 7.98
3/28/2021 12:30:00 PM 9.38 48.884 0.515 6.95 84.65 8.05
3/28/2021 12:45:00 PM 9.38 48.884 0.512 6.95 84.83 7.49
3/28/2021 1:00:00 PM 9.39 48.902 0.532 6.95 82.55 8.78
3/28/2021 1:15:00 PM 9.39 48.902 0.55 6.94 82.88 9.08
3/28/2021 1:30:00 PM 9.39 48.902 0.557 6.94 83.56 8.74
3/28/2021 1:45:00 PM 9.39 48.902 0.561 6.95 83.38 8.72
3/28/2021 2:00:00 PM 9.39 48.902 0.562 6.95 83.41 8.75
3/28/2021 2:15:00 PM 9.4 48.92 0.562 6.95 83.64 8.8
3/28/2021 2:30:00 PM 9.41 48.938 0.563 6.95 83.63 8.51
3/28/2021 2:45:00 PM 9.43 48.974 0.564 6.95 83.66 8.95
3/28/2021 3:00:00 PM 9.43 48.974 0.565 6.95 83.69 8.95
3/28/2021 3:15:00 PM 9.44 48.992 0.565 6.95 83.87 8.85
3/28/2021 3:30:00 PM 9.45 49.01 0.564 6.95 83.99 8.55
3/28/2021 3:45:00 PM 9.46 49.028 0.563 6.96 83.98 9.29
3/28/2021 4:00:00 PM 9.47 49.046 0.562 6.96 83.99 8.72
3/28/2021 4:15:00 PM 9.46 49.028 0.562 6.96 83.65 8.69
3/28/2021 4:30:00 PM 9.46 49.028 0.562 6.97 83.74 8.77
3/28/2021 4:45:00 PM 9.45 49.01 0.56 6.97 83.9 8.75
3/28/2021 5:00:00 PM 9.45 49.01 0.56 6.97 84.1 8.74
3/28/2021 5:15:00 PM 9.44 48.992 0.559 6.97 83.84 8.73
3/28/2021 5:30:00 PM 9.43 48.974 0.558 6.97 83.91 8.96
3/28/2021 5:45:00 PM 9.42 48.956 0.557 6.97 83.86 8.9
3/28/2021 6:00:00 PM 9.4 48.92 0.555 6.97 83.82 8.81
3/28/2021 6:15:00 PM 9.38 48.884 0.554 6.97 83.49 9.12
3/28/2021 6:30:00 PM 9.36 48.848 0.55 6.98 83.42 8.84
3/28/2021 6:45:00 PM 9.34 48.812 0.55 6.97 83.45 8.58
3/28/2021 7:00:00 PM 9.31 48.758 0.548 6.98 83.49 8.33
3/28/2021 7:15:00 PM 9.28 48.704 0.545 6.98 83.71 8.57
3/28/2021 7:30:00 PM 9.25 48.65 0.541 6.98 83.74 8.54
3/28/2021 7:45:00 PM 9.23 48.614 0.538 6.98 84.22 7.57
3/28/2021 8:00:00 PM 9.2 48.56 0.559 6.99 81.61 8.71
3/28/2021 8:15:00 PM 9.17 48.506 0.576 6.98 82.07 9.12
3/28/2021 8:30:00 PM 9.15 48.47 0.582 6.97 82.45 9.32
3/28/2021 8:45:00 PM 9.12 48.416 0.586 6.97 81.93 9.27
3/28/2021 9:00:00 PM 9.1 48.38 0.588 6.97 82.32 9.15
3/28/2021 9:15:00 PM 9.07 48.326 0.59 6.96 82.59 9.27
3/28/2021 9:30:00 PM 9.05 48.29 0.59 6.96 82.78 9.47
3/28/2021 9:45:00 PM 9.03 48.254 0.591 6.96 83.1 9.33
3/28/2021 10:00:00 PM 9.01 48.218 0.592 6.96 83.52 8.77
3/28/2021 10:15:00 PM 8.99 48.182 0.591 6.97 83.71 8.89
3/28/2021 10:30:00 PM 8.97 48.146 0.592 6.96 83.7 8.49
3/28/2021 10:45:00 PM 8.95 48.11 0.592 6.96 83.8 7.98
3/28/2021 11:00:00 PM 8.93 48.074 0.591 6.96 83.69 8.79
3/28/2021 11:15:00 PM 8.89 48.002 0.591 6.96 83.78 8.49
3/28/2021 11:30:00 PM 8.86 47.948 0.589 6.96 83.47 8.86
3/28/2021 11:45:00 PM 8.83 47.894 0.59 6.96 83.59 7.6
3/29/2021 12:00:00 AM 8.8 47.84 0.589 6.96 83.61 7.74
3/29/2021 12:15:00 AM 8.77 47.786 0.588 6.96 83.56 7.98
3/29/2021 12:30:00 AM 8.74 47.732 0.585 6.96 83.44 7.8
3/29/2021 12:45:00 AM 8.73 47.714 0.584 6.96 83.71 8.05
3/29/2021 1:00:00 AM 8.7 47.66 0.581 6.96 83.5 7.88
3/29/2021 1:15:00 AM 8.67 47.606 0.58 6.96 83.7 7.73
3/29/2021 1:30:00 AM 8.64 47.552 0.577 6.96 83.49 7.58
3/29/2021 1:45:00 AM 8.61 47.498 0.576 6.96 83.43 8.17
3/29/2021 2:00:00 AM 8.57 47.426 0.572 6.96 83.62 7.67
3/29/2021 2:15:00 AM 8.54 47.372 0.57 6.96 83.81 7.73
3/29/2021 2:30:00 AM 8.5 47.3 0.568 6.96 83.68 7.81
3/29/2021 2:45:00 AM 8.46 47.228 0.566 6.96 83.63 8.53
3/29/2021 3:00:00 AM 8.42 47.156 0.563 6.96 83.55 8.29
3/29/2021 3:15:00 AM 8.39 47.102 0.561 6.96 83.71 8.36
3/29/2021 3:30:00 AM 8.35 47.03 0.559 6.96 83.86 8.44
3/29/2021 3:45:00 AM 8.32 46.976 0.556 6.95 83.82 8.85
3/29/2021 4:00:00 AM 8.28 46.904 0.555 6.95 83.91 8.34
3/29/2021 4:15:00 AM 8.25 46.85 0.551 6.95 83.72 8.25
3/29/2021 4:30:00 AM 8.22 46.796 0.549 6.95 83.44 8.59
3/29/2021 4:45:00 AM 8.19 46.742 0.547 6.95 83.74 8.61
3/29/2021 5:00:00 AM 8.16 46.688 0.546 6.95 83.81 8.7
3/29/2021 5:15:00 AM 8.14 46.652 0.543 6.95 83.4 7.37
3/29/2021 5:30:00 AM 8.12 46.616 0.541 6.95 83.45 7.31
3/29/2021 5:45:00 AM 8.1 46.58 0.538 6.94 83.56 7.25
3/29/2021 6:00:00 AM 8.08 46.544 0.535 6.95 83.77 6.96
3/29/2021 6:15:00 AM 8.06 46.508 0.532 6.95 83.84 7.5
3/29/2021 6:30:00 AM 8.04 46.472 0.529 6.94 83.39 7.58
3/29/2021 6:45:00 AM 8.01 46.418 0.525 6.94 83.62 6.73
3/29/2021 7:00:00 AM 7.99 46.382 0.522 6.94 83.37 7.64
3/29/2021 7:15:00 AM 7.97 46.346 0.533 6.94 82.55 9.49
3/29/2021 7:30:00 AM 7.95 46.31 0.56 6.97 80.83 9.5
3/29/2021 7:45:00 AM 7.93 46.274 0.566 6.96 81.44 9.81
3/29/2021 8:00:00 AM 7.9 46.22 0.567 6.96 81.63 10.01
3/29/2021 8:15:00 AM 7.88 46.184 0.567 6.95 81.97 9.83
3/29/2021 8:30:00 AM 7.86 46.148 0.567 6.95 82.3 9.92
3/29/2021 8:45:00 AM 7.84 46.112 0.567 6.95 82.81 10.14
3/29/2021 9:00:00 AM 7.82 46.076 0.565 6.94 82.89 10.02
3/29/2021 9:15:00 AM 7.8 46.04 0.564 6.95 83.26 10.08
3/29/2021 9:30:00 AM 7.79 46.022 0.562 6.94 83.45 10.02
3/29/2021 9:45:00 AM 7.78 46.004 0.558 6.94 83.6 9.84
3/29/2021 10:00:00 AM 7.78 46.004 0.556 6.94 83.74 9.9
3/29/2021 10:15:00 AM 7.78 46.004 0.554 6.94 83.71 9.97
3/29/2021 10:30:00 AM 7.77 45.986 0.55 6.94 83.66 9.93
3/29/2021 10:45:00 AM 7.76 45.968 0.543 6.94 83.44 9.94
3/29/2021 11:00:00 AM 7.76 45.968 0.539 6.94 83.71 10.11
3/29/2021 11:15:00 AM 7.78 46.004 0.534 6.94 83.86 9.52
3/29/2021 11:30:00 AM 7.8 46.04 0.53 6.95 83.98 9.56
3/29/2021 11:45:00 AM 7.82 46.076 0.524 6.95 83.57 8.9
3/29/2021 12:00:00 PM 7.82 46.076 0.517 6.95 83.88 9.9
3/29/2021 12:15:00 PM 7.81 46.058 0.516 6.96 81.89 10.07
3/29/2021 12:30:00 PM 7.82 46.076 0.529 6.96 82.18 10.49
3/29/2021 12:45:00 PM 7.84 46.112 0.529 6.95 82.15 10.31
3/29/2021 1:00:00 PM 7.87 46.166 0.525 6.95 82.31 10.6
3/29/2021 1:15:00 PM 7.92 46.256 0.528 6.95 82.57 10.59
3/29/2021 1:30:00 PM 7.98 46.364 0.522 6.95 82.62 10.71
3/29/2021 1:45:00 PM 8.05 46.49 0.52 6.95 82.77 10.66
3/29/2021 2:00:00 PM 8.11 46.598 0.516 6.95 83.04 10.63
3/29/2021 2:15:00 PM 8.18 46.724 0.514 6.95 83.03 10.78
3/29/2021 2:30:00 PM 8.25 46.85 0.51 6.96 83.43 10.74
3/29/2021 2:45:00 PM 8.33 46.994 0.506 6.96 83.34 10.5
3/29/2021 3:00:00 PM 8.39 47.102 0.501 6.96 83 10.47
3/29/2021 3:15:00 PM 8.44 47.192 0.496 6.96 83.37 10.67
3/29/2021 3:30:00 PM 8.49 47.282 0.491 6.96 83.44 10.66
3/29/2021 3:45:00 PM 8.52 47.336 0.488 6.96 83.54 10.6
3/29/2021 4:00:00 PM 8.55 47.39 0.48 6.95 83.55 10.67
3/29/2021 4:15:00 PM 8.57 47.426 0.472 6.95 83.72 10.72
3/29/2021 4:30:00 PM 8.58 47.444 0.476 6.96 82.17 10.66
3/29/2021 4:45:00 PM 8.59 47.462 0.481 6.95 82.4 10.82
3/29/2021 5:00:00 PM 8.59 47.462 0.482 6.95 82.71 10.84
3/29/2021 5:15:00 PM 8.58 47.444 0.479 6.95 82.97 11
3/29/2021 5:30:00 PM 8.55 47.39 0.475 6.95 83.09 11.13
3/29/2021 5:45:00 PM 8.52 47.336 0.471 6.95 83.27 11.12
3/29/2021 6:00:00 PM 8.49 47.282 0.468 6.95 83.28 11.11
3/29/2021 6:15:00 PM 8.45 47.21 0.466 6.95 83.19 11.14
3/29/2021 6:30:00 PM 8.4 47.12 0.462 6.95 83.27 11.08
3/29/2021 6:45:00 PM 8.35 47.03 0.459 6.95 83.3 11.14
3/29/2021 7:00:00 PM 8.3 46.94 0.457 6.95 83.31 11.1
3/29/2021 7:15:00 PM 8.25 46.85 0.455 6.95 83.39 11.09
3/29/2021 7:30:00 PM 8.2 46.76 0.451 6.95 83.67 11.12
3/29/2021 7:45:00 PM 8.16 46.688 0.447 6.95 83.38 11.1
3/29/2021 8:00:00 PM 8.12 46.616 0.443 6.95 83.54 11.1
3/29/2021 8:15:00 PM 8.08 46.544 0.439 6.95 83.71 11.01
3/29/2021 8:30:00 PM 8.05 46.49 0.434 6.95 83.93 11.08
3/29/2021 8:45:00 PM 8.03 46.454 0.439 6.96 81.44 11.05
3/29/2021 9:00:00 PM 8 46.4 0.446 6.95 81.86 11
3/29/2021 9:15:00 PM 7.98 46.364 0.446 6.94 82.07 11.09
3/29/2021 9:30:00 PM 7.96 46.328 0.444 6.94 82.5 11.04
3/29/2021 9:45:00 PM 7.95 46.31 0.442 6.95 82.43 11.19
3/29/2021 10:00:00 PM 7.93 46.274 0.438 6.95 82.35 11.15
3/29/2021 10:15:00 PM 7.91 46.238 0.434 6.95 82.55 11.16
3/29/2021 10:30:00 PM 7.89 46.202 0.429 6.96 83.12 11.06
3/29/2021 10:45:00 PM 7.88 46.184 0.424 6.95 83.21 11.1
3/29/2021 11:00:00 PM 7.86 46.148 0.418 6.97 83.52 11.12
3/29/2021 11:15:00 PM 7.84 46.112 0.413 6.98 83.77 11.08
3/29/2021 11:30:00 PM 7.83 46.094 0.417 6.99 81.99 11.11
3/29/2021 11:45:00 PM 7.81 46.058 0.423 6.98 82.23 11.09
3/30/2021 12:00:00 AM 7.78 46.004 0.422 6.99 82.44 11.13
3/30/2021 12:15:00 AM 7.76 45.968 0.42 6.99 82.67 11.01
3/30/2021 12:30:00 AM 7.74 45.932 0.416 6.99 82.73 11.08
3/30/2021 12:45:00 AM 7.72 45.896 0.413 6.99 82.99 11.04
3/30/2021 1:00:00 AM 7.69 45.842 0.41 6.99 83 10.89
3/30/2021 1:15:00 AM 7.66 45.788 0.402 6.99 82.76 10.92
3/30/2021 1:30:00 AM 7.63 45.734 0.396 6.99 83.07 10.82
3/30/2021 1:45:00 AM 7.59 45.662 0.392 6.99 83.06 10.91
3/30/2021 2:00:00 AM 7.56 45.608 0.388 6.99 82 10.72
3/30/2021 2:15:00 AM 7.52 45.536 0.391 6.98 82.17 10.91
3/30/2021 2:30:00 AM 7.48 45.464 0.391 6.98 82.43 11.15
3/30/2021 2:45:00 AM 7.44 45.392 0.391 6.98 82.71 11.01
3/30/2021 3:00:00 AM 7.4 45.32 0.387 6.98 82.92 11.07
3/30/2021 3:15:00 AM 7.36 45.248 0.385 6.98 82.91 10.93
3/30/2021 3:30:00 AM 7.32 45.176 0.383 6.97 83.05 10.99
3/30/2021 3:45:00 AM 7.28 45.104 0.383 6.98 83.9 11.08
3/30/2021 4:00:00 AM 7.25 45.05 0.381 6.97 83.66 11.03
3/30/2021 4:15:00 AM 7.21 44.978 0.38 6.98 83.67 11.15
3/30/2021 4:30:00 AM 7.18 44.924 0.378 6.98 83.52 11.08
3/30/2021 4:45:00 AM 7.15 44.87 0.375 6.98 83.64 11.14
3/30/2021 5:00:00 AM 7.11 44.798 0.371 6.98 83.54 11.18
3/30/2021 5:15:00 AM 7.08 44.744 0.368 6.98 83.68 11.16
3/30/2021 5:30:00 AM 7.05 44.69 0.366 6.99 83.96 11.19
3/30/2021 5:45:00 AM 7.02 44.636 0.362 6.99 84.11 11.27
3/30/2021 6:00:00 AM 7 44.6 0.365 6.97 82.21 11.24
3/30/2021 6:15:00 AM 6.97 44.546 0.371 6.97 82.47 11.29
3/30/2021 6:30:00 AM 6.94 44.492 0.373 6.97 82.78 11.3
3/30/2021 6:45:00 AM 6.92 44.456 0.374 6.96 83.06 11.29
3/30/2021 7:00:00 AM 6.9 44.42 0.371 6.96 83.45 11.26
3/30/2021 7:15:00 AM 6.88 44.384 0.371 6.96 83.67 11.31
3/30/2021 7:30:00 AM 6.86 44.348 0.371 6.95 83.61 11.29
3/30/2021 7:45:00 AM 6.85 44.33 0.367 6.95 83.97 11.26
3/30/2021 8:00:00 AM 6.84 44.312 0.366 6.95 83.99 11.32
3/30/2021 8:15:00 AM 6.83 44.294 0.364 6.95 84.25 11.28
3/30/2021 8:30:00 AM 6.83 44.294 0.36 6.94 84.25 11.33
3/30/2021 8:45:00 AM 6.84 44.312 0.358 6.94 84.35 11.34
3/30/2021 9:00:00 AM 6.87 44.366 0.351 6.93 82.71 11.24
3/30/2021 9:15:00 AM 6.89 44.402 0.352 6.93 83.16 11.26
3/30/2021 9:30:00 AM 6.92 44.456 0.353 6.92 83.6 11.28
3/30/2021 9:45:00 AM 6.95 44.51 0.352 6.92 84 11.31
3/30/2021 10:00:00 AM 6.99 44.582 0.35 6.92 84.26 11.35
3/30/2021 10:15:00 AM 7.04 44.672 0.347 6.93 84.38 11.35
3/30/2021 10:30:00 AM 7.09 44.762 0.346 6.93 84.3 11.36
3/30/2021 10:45:00 AM 7.15 44.87 0.344 6.94 84.19 11.34
3/30/2021 11:00:00 AM 7.21 44.978 0.343 6.94 84.62 11.37
3/30/2021 11:15:00 AM 7.28 45.104 0.34 6.93 84.96 11.42
3/30/2021 11:30:00 AM 7.35 45.23 0.336 6.93 85.1 11.38
3/30/2021 11:45:00 AM 7.43 45.374 0.337 6.94 82.85 11.18
3/30/2021 12:00:00 PM 7.51 45.518 0.345 6.93 82.96 11.41
3/30/2021 12:15:00 PM 7.6 45.68 0.345 6.93 83.32 11.47
3/30/2021 12:30:00 PM 7.68 45.824 0.344 6.93 83.31 11.49
3/30/2021 12:45:00 PM 7.75 45.95 0.343 6.92 83.59 11.47
3/30/2021 1:00:00 PM 7.83 46.094 0.339 6.92 83.64 11.48
3/30/2021 1:15:00 PM 7.92 46.256 0.333 6.92 82.62 11.34
3/30/2021 1:30:00 PM 7.99 46.382 0.34 6.93 82.81 11.46
3/30/2021 1:45:00 PM 8.07 46.526 0.34 6.92 82.88 11.41
3/30/2021 2:00:00 PM 8.14 46.652 0.342 6.92 82.71 11.51
3/30/2021 2:15:00 PM 8.21 46.778 0.341 6.91 83.34 11.46
3/30/2021 2:30:00 PM 8.28 46.904 0.327 6.93 82.53 11.26
3/30/2021 2:45:00 PM 8.34 47.012 0.334 6.93 82.39 11.54
3/30/2021 3:00:00 PM 8.39 47.102 0.336 6.91 82.72 11.54
3/30/2021 3:15:00 PM 8.44 47.192 0.337 6.92 82.88 11.51
3/30/2021 3:30:00 PM 8.48 47.264 0.336 6.92 82.83 11.52
3/30/2021 3:45:00 PM 8.51 47.318 0.336 6.91 83.09 11.53
3/30/2021 4:00:00 PM 8.54 47.372 0.334 6.91 83.3 11.49
3/30/2021 4:15:00 PM 8.55 47.39 0.334 6.91 83.2 11.46
3/30/2021 4:30:00 PM 8.56 47.408 0.331 6.91 83.49 11.48
3/30/2021 4:45:00 PM 8.57 47.426 0.32 6.93 81.35 11.18
3/30/2021 5:00:00 PM 8.57 47.426 0.324 6.94 81.28 11.23
3/30/2021 5:15:00 PM 8.56 47.408 0.325 6.93 81.27 11.32
3/30/2021 5:30:00 PM 8.54 47.372 0.326 6.93 81.31 11.48
3/30/2021 5:45:00 PM 8.51 47.318 0.325 6.92 81.46 11.24
3/30/2021 6:00:00 PM 8.49 47.282 0.323 6.92 81.76 11.42
3/30/2021 6:15:00 PM 8.46 47.228 0.321 6.92 81.92 11.37
3/30/2021 6:30:00 PM 8.43 47.174 0.318 6.92 81.92 11.48
3/30/2021 6:45:00 PM 8.4 47.12 0.314 6.92 82.14 11.42
3/30/2021 7:00:00 PM 8.36 47.048 0.311 6.92 82.29 11.47
3/30/2021 7:15:00 PM 8.32 46.976 0.303 6.92 81.94 11.35
3/30/2021 7:30:00 PM 8.28 46.904 0.31 6.92 82.08 11.31
3/30/2021 7:45:00 PM 8.25 46.85 0.313 6.93 82.32 11.45
3/30/2021 8:00:00 PM 8.22 46.796 0.312 6.93 82.58 11.36
3/30/2021 8:15:00 PM 8.2 46.76 0.311 6.93 82.93 11.34
3/30/2021 8:30:00 PM 8.18 46.724 0.31 6.93 83.19 11.31
3/30/2021 8:45:00 PM 8.16 46.688 0.307 6.93 83.4 11.22
3/30/2021 9:00:00 PM 8.15 46.67 0.304 6.93 83.44 11.4
3/30/2021 9:15:00 PM 8.14 46.652 0.298 6.94 83.92 11.36
3/30/2021 9:30:00 PM 8.14 46.652 0.292 6.95 83.2 11.37
3/30/2021 9:45:00 PM 8.13 46.634 0.297 6.95 83.45 11.4
3/30/2021 10:00:00 PM 8.12 46.616 0.294 6.95 83.24 11.4
3/30/2021 10:15:00 PM 8.12 46.616 0.294 6.95 83.68 11.32
3/30/2021 10:30:00 PM 8.11 46.598 0.29 6.95 84.08 11.43
3/30/2021 10:45:00 PM 8.11 46.598 0.288 6.94 82.4 11.21
3/30/2021 11:00:00 PM 8.1 46.58 0.293 6.94 82.82 11.46
3/30/2021 11:15:00 PM 8.09 46.562 0.295 6.94 82.82 11.46
3/30/2021 11:30:00 PM 8.08 46.544 0.292 6.94 82.89 11.41
3/30/2021 11:45:00 PM 8.07 46.526 0.288 6.94 83.36 11.38
3/31/2021 12:00:00 AM 8.06 46.508 0.275 6.94 83.57 11.29
3/31/2021 12:15:00 AM 8.05 46.49 0.282 6.95 81.34 11.34
3/31/2021 12:30:00 AM 8.04 46.472 0.287 6.95 81.72 11.43
3/31/2021 12:45:00 AM 8.02 46.436 0.285 6.95 82.07 11.44
3/31/2021 1:00:00 AM 8 46.4 0.286 6.95 82.55 11.46
3/31/2021 1:15:00 AM 7.98 46.364 0.287 6.95 82.6 11.46
3/31/2021 1:30:00 AM 7.96 46.328 0.284 6.95 83.1 11.43
3/31/2021 1:45:00 AM 7.94 46.292 0.273 6.95 82.04 11.35
3/31/2021 2:00:00 AM 7.92 46.256 0.274 6.96 81.1 11.31
3/31/2021 2:15:00 AM 7.89 46.202 0.28 6.96 81.16 11.36
3/31/2021 2:30:00 AM 7.87 46.166 0.267 6.97 80.96 11.36
3/31/2021 2:45:00 AM 7.85 46.13 0.272 6.96 81.31 11.4
3/31/2021 3:00:00 AM 7.82 46.076 0.27 6.97 81.43 11.41
3/31/2021 3:15:00 AM 7.8 46.04 0.261 6.97 80.95 11.38
3/31/2021 3:30:00 AM 7.78 46.004 0.253 6.98 80.88 11.25
3/31/2021 3:45:00 AM 7.76 45.968 0.257 6.9 80.16 11.3
3/31/2021 4:00:00 AM 7.74 45.932 0.258 6.91 80 11.26
3/31/2021 4:15:00 AM 7.72 45.896 0.258 6.88 79.73 11.34
3/31/2021 4:30:00 AM 7.71 45.878 0.256 6.89 79.98 11.33
3/31/2021 4:45:00 AM 7.69 45.842 0.256 6.89 79.72 11.34
3/31/2021 5:00:00 AM 7.68 45.824 0.256 6.86 79.15 11.33
3/31/2021 5:15:00 AM 7.68 45.824 0.26 6.87 78.8 11.19
3/31/2021 5:30:00 AM 7.67 45.806 0.258 6.89 78.51 11.32
3/31/2021 5:45:00 AM 7.67 45.806 0.257 6.92 77.91 11.27
3/31/2021 6:00:00 AM 7.67 45.806 0.262 6.93 77.77 11.33
3/31/2021 6:15:00 AM 7.68 45.824 0.277 6.95 77.38 11.24
3/31/2021 6:30:00 AM 7.68 45.824 0.28 6.91 77.71 11.27
3/31/2021 6:45:00 AM 7.69 45.842 0.284 6.9 78.38 11.26
3/31/2021 7:00:00 AM 7.7 45.86 0.286 6.89 78.67 11.26
3/31/2021 7:15:00 AM 7.72 45.896 0.288 6.89 78.87 11.27
3/31/2021 7:30:00 AM 7.73 45.914 0.289 6.89 79.23 11.29
3/31/2021 7:45:00 AM 7.75 45.95 0.29 6.89 79.45 11.28
3/31/2021 8:00:00 AM 7.78 46.004 0.291 6.89 79.42 11.29
3/31/2021 8:15:00 AM 7.8 46.04 0.291 6.9 79.83 11.29
3/31/2021 8:30:00 AM 7.83 46.094 0.293 6.9 80.19 11.27
3/31/2021 8:45:00 AM 7.86 46.148 0.295 6.91 80.24 11.25
3/31/2021 9:00:00 AM 7.89 46.202 0.296 6.92 79.85 10.99
3/31/2021 9:15:00 AM 7.93 46.274 0.297 6.91 80.13 11.27
3/31/2021 9:30:00 AM 7.96 46.328 0.298 6.91 80.15 11.29
3/31/2021 9:45:00 AM 7.99 46.382 0.298 6.92 80.22 11.28
3/31/2021 10:00:00 AM 8.02 46.436 0.298 6.93 80.24 11.3
3/31/2021 10:15:00 AM 8.06 46.508 0.299 6.95 80.66 11.29
3/31/2021 10:30:00 AM 8.1 46.58 0.299 6.96 80.63 11.3
3/31/2021 10:45:00 AM 8.13 46.634 0.298 6.97 80.74 11.32
3/31/2021 11:00:00 AM 8.17 46.706 0.296 6.97 80.46 11.3
3/31/2021 11:15:00 AM 8.19 46.742 0.293 6.98 80.77 11.3
3/31/2021 11:30:00 AM 8.22 46.796 0.285 6.99 81.45 10.92
3/31/2021 11:45:00 AM 8.25 46.85 0.292 7 79.47 11.25
3/31/2021 12:00:00 PM 8.27 46.886 0.301 7.02 79.63 11.29
3/31/2021 12:15:00 PM -99999.99 -179968 -99999.99 -99999.99 -99999.99 -99999.99
3/31/2021 12:30:00 PM -99999.99 -179968 -99999.99 -99999.99 -99999.99 -99999.99
3/31/2021 12:45:00 PM -99999.99 -179968 -99999.99 -99999.99 -99999.99 -99999.99
3/31/2021 1:00:00 PM -99999.99 -179968 -99999.99 -99999.99 -99999.99 -99999.99
3/31/2021 1:15:00 PM -99999.99 -179968 -99999.99 -99999.99 -99999.99 -99999.99
3/31/2021 1:30:00 PM -99999.99 -179968 -99999.99 -99999.99 -99999.99 -99999.99
3/31/2021 1:45:00 PM -99999.99 -179968 -99999.99 -99999.99 -99999.99 -99999.99
3/31/2021 2:00:00 PM -99999.99 -179968 -99999.99 -99999.99 -99999.99 -99999.99
3/31/2021 2:15:00 PM -99999.99 -179968 -99999.99 -99999.99 -99999.99 -99999.99
3/31/2021 2:30:00 PM -99999.99 -179968 -99999.99 -99999.99 -99999.99 -99999.99
3/31/2021 2:45:00 PM -99999.99 -179968 -99999.99 -99999.99 -99999.99 -99999.99
3/31/2021 3:00:00 PM -99999.99 -179968 -99999.99 -99999.99 -99999.99 -99999.99
3/31/2021 3:15:00 PM -99999.99 -179968 -99999.99 -99999.99 -99999.99 -99999.99
3/31/2021 3:30:00 PM -99999.99 -179968 -99999.99 -99999.99 -99999.99 -99999.99
3/31/2021 3:45:00 PM -99999.99 -179968 -99999.99 -99999.99 -99999.99 -99999.99
3/31/2021 4:00:00 PM -99999.99 -179968 -99999.99 -99999.99 -99999.99 -99999.99
3/31/2021 4:15:00 PM -99999.99 -179968 -99999.99 -99999.99 -99999.99 -99999.99
4/1/2021 7:00:00 AM 7.12 44.816 0.203 6.93 79.1 10.7
4/1/2021 7:15:00 AM 7.1 44.78 0.206 6.92 79.13 10.9
4/1/2021 7:30:00 AM 7.09 44.762 0.205 6.93 79.2 10.86
4/1/2021 7:45:00 AM 7.08 44.744 0.204 6.93 79.44 10.95
4/1/2021 8:00:00 AM 7.08 44.744 0.203 6.94 79.34 10.94
4/1/2021 8:15:00 AM 7.09 44.762 0.202 6.96 79.34 10.8
4/1/2021 8:30:00 AM 7.1 44.78 0.199 6.95 79.9 10.92
4/1/2021 8:45:00 AM 7.11 44.798 0.215 6.96 78.45 11.09
4/1/2021 9:00:00 AM 7.12 44.816 0.219 6.97 78.92 11.2
4/1/2021 9:15:00 AM 7.14 44.852 0.221 6.96 79.07 11.24
4/1/2021 9:30:00 AM 7.15 44.87 0.223 6.97 79.23 11.22
4/1/2021 9:45:00 AM 7.17 44.906 0.226 6.99 79.51 11.25
4/1/2021 10:00:00 AM 7.19 44.942 0.226 6.99 79.6 11.21
4/1/2021 10:15:00 AM 7.21 44.978 0.227 7 79.67 11.15
4/1/2021 10:30:00 AM 7.24 45.032 0.227 7.01 79.78 11.27
4/1/2021 10:45:00 AM 7.28 45.104 0.226 7.01 79.98 11.28
4/1/2021 11:00:00 AM 7.34 45.212 0.244 7 78.47 11.19
4/1/2021 11:15:00 AM 7.39 45.302 0.26 7 79.03 11.12
4/1/2021 11:30:00 AM 7.45 45.41 0.263 7 79.46 11
4/1/2021 11:45:00 AM 7.53 45.554 0.258 7 79.88 11.04
4/1/2021 12:00:00 PM 7.61 45.698 0.254 7 79.67 11.13
4/1/2021 12:15:00 PM 7.68 45.824 0.249 7 79.73 11.16
4/1/2021 12:30:00 PM 7.74 45.932 0.245 7.02 80.03 11.24
4/1/2021 12:45:00 PM 7.82 46.076 0.241 7.03 79.94 11.35
4/1/2021 1:00:00 PM 7.88 46.184 0.238 7.03 80.03 11.19
4/1/2021 1:15:00 PM 7.93 46.274 0.247 7.01 79.18 11.22
4/1/2021 1:30:00 PM 7.99 46.382 0.26 7.01 79.56 11.33
4/1/2021 1:45:00 PM 8.03 46.454 0.262 7 79.81 11.38
4/1/2021 2:00:00 PM 8.05 46.49 0.261 7.02 80.22 11.11
4/1/2021 2:15:00 PM 8.05 46.49 0.253 7.01 80.17 11.28
4/1/2021 2:30:00 PM 8.05 46.49 0.258 7 80.14 11.15
4/1/2021 2:45:00 PM 8.04 46.472 0.252 7.01 79.64 11.09
4/1/2021 3:00:00 PM 8.05 46.49 0.256 7.02 80.15 11.4
4/1/2021 3:15:00 PM 8.04 46.472 0.254 6.99 80.47 11.42
4/1/2021 3:30:00 PM 8.02 46.436 0.239 6.99 80.31 11.27
4/1/2021 3:45:00 PM 7.98 46.364 0.243 7 79.42 11.37
4/1/2021 4:00:00 PM 7.94 46.292 0.246 6.98 79.68 11.42
4/1/2021 4:15:00 PM 7.91 46.238 0.245 6.97 79.66 11.42
4/1/2021 4:30:00 PM 7.88 46.184 0.243 6.99 79.81 11.42
4/1/2021 4:45:00 PM 7.85 46.13 0.235 7.02 79.43 11.34
4/1/2021 5:00:00 PM 7.8 46.04 0.237 7 79.45 11.44
4/1/2021 5:15:00 PM 7.75 45.95 0.238 6.98 79.03 11.46
4/1/2021 5:30:00 PM 7.69 45.842 0.237 6.97 79.09 11.46
4/1/2021 5:45:00 PM 7.64 45.752 0.237 6.96 79.08 11.46
4/1/2021 6:00:00 PM 7.59 45.662 0.235 6.97 79.34 11.46
4/1/2021 6:15:00 PM 7.54 45.572 0.234 6.96 79.54 11.47
4/1/2021 6:30:00 PM 7.51 45.518 0.234 6.95 79.47 11.47
4/1/2021 6:45:00 PM 7.47 45.446 0.233 6.96 79.76 11.47
4/1/2021 7:00:00 PM 7.44 45.392 0.235 6.96 78.91 11.39
4/1/2021 7:15:00 PM 7.4 45.32 0.24 6.92 78.78 11.49
4/1/2021 7:30:00 PM 7.36 45.248 0.239 6.94 78.95 11.47
4/1/2021 7:45:00 PM 7.32 45.176 0.237 6.93 79.18 11.43
4/1/2021 8:00:00 PM 7.27 45.086 0.234 6.94 79.02 11.29
4/1/2021 8:15:00 PM 7.23 45.014 0.229 6.94 79.56 11.38
4/1/2021 8:30:00 PM 7.18 44.924 0.224 6.95 79.79 11.47
4/1/2021 8:45:00 PM 7.14 44.852 0.222 6.94 79.82 11.45
4/1/2021 9:00:00 PM 7.11 44.798 0.22 6.96 78.89 11.28
4/1/2021 9:15:00 PM 7.09 44.762 0.224 6.96 79 11.44
4/1/2021 9:30:00 PM 7.06 44.708 0.225 6.95 79.09 11.43
4/1/2021 9:45:00 PM 7.04 44.672 0.224 6.93 79.26 11.39
4/1/2021 10:00:00 PM 7.01 44.618 0.222 6.91 79.64 11.5
4/1/2021 10:15:00 PM 6.99 44.582 0.221 6.91 79.77 11.5
4/1/2021 10:30:00 PM 6.96 44.528 0.22 6.91 80.04 11.51
4/1/2021 10:45:00 PM 6.94 44.492 0.231 6.9 78.69 10.81
4/1/2021 11:00:00 PM 6.92 44.456 0.243 6.93 78.67 11.45
4/1/2021 11:15:00 PM 6.88 44.384 0.244 6.94 79.47 11.45
4/1/2021 11:30:00 PM 6.85 44.33 0.243 6.95 79.62 11.45
4/1/2021 11:45:00 PM 6.83 44.294 0.242 6.96 79.82 11.49
4/2/2021 12:00:00 AM 6.78 44.204 0.24 6.97 79.68 11.42
4/2/2021 12:15:00 AM 6.75 44.15 0.237 6.98 79.76 11.4
4/2/2021 12:30:00 AM 6.72 44.096 0.237 6.98 79.89 11.42
4/2/2021 12:45:00 AM 6.69 44.042 0.234 6.98 80.04 11.41
4/2/2021 1:00:00 AM 6.65 43.97 0.232 7 79.92 11.47
4/2/2021 1:15:00 AM 6.62 43.916 0.229 7.01 79.99 11.51
4/2/2021 1:30:00 AM 6.6 43.88 0.226 7.03 80.37 11.48
4/2/2021 1:45:00 AM 6.57 43.826 0.222 7.03 80.46 11.41
4/2/2021 2:00:00 AM 6.52 43.736 0.218 7.03 80.37 11.47
4/2/2021 2:15:00 AM 6.47 43.646 0.214 7.04 80.3 11.51
4/2/2021 2:30:00 AM 6.42 43.556 0.212 7.03 80.55 11.47
4/2/2021 2:45:00 AM 6.37 43.466 0.207 7.05 80.62 11.47
4/2/2021 3:00:00 AM 6.31 43.358 0.205 7.04 81.01 11.5
4/2/2021 3:15:00 AM 6.26 43.268 0.203 7.04 81.2 11.48
4/2/2021 3:30:00 AM 6.21 43.178 0.222 7.01 79.06 11.27
4/2/2021 3:45:00 AM 6.17 43.106 0.228 7.04 78.85 11.36
4/2/2021 4:00:00 AM 6.13 43.034 0.23 7.02 79.05 11.39
4/2/2021 4:15:00 AM 6.09 42.962 0.228 7.01 79.29 11.44
4/2/2021 4:30:00 AM 6.06 42.908 0.225 7 79.52 11.52
4/2/2021 4:45:00 AM 6.04 42.872 0.22 6.98 79.64 11.48
4/2/2021 5:00:00 AM 6.01 42.818 0.219 6.97 80.03 11.5
4/2/2021 5:15:00 AM 5.99 42.782 0.216 6.97 80.21 11.52
4/2/2021 5:30:00 AM 5.96 42.728 0.212 6.98 80.43 11.49
4/2/2021 5:45:00 AM 5.93 42.674 0.211 6.97 80.55 11.3
4/2/2021 6:00:00 AM 5.91 42.638 0.216 6.98 79.96 11.44
4/2/2021 6:15:00 AM 5.89 42.602 0.225 7.01 80.09 11.51
4/2/2021 6:30:00 AM 5.87 42.566 0.224 7.01 80.05 11.46
4/2/2021 6:45:00 AM 5.85 42.53 0.218 7.01 79.67 11.5
4/2/2021 7:00:00 AM 5.83 42.494 0.213 7.01 79.72 11.52
4/2/2021 7:15:00 AM 5.81 42.458 0.208 7.02 79.57 11.55
4/2/2021 7:30:00 AM 5.8 42.44 0.207 7.04 79.66 11.55
4/2/2021 7:45:00 AM 5.79 42.422 0.204 7.03 79.55 11.55
4/2/2021 8:00:00 AM 5.78 42.404 0.198 7.03 79.87 11.56
4/2/2021 8:15:00 AM 5.77 42.386 0.206 7.04 79.53 11.5
4/2/2021 8:30:00 AM 5.75 42.35 0.208 7.06 79.54 11.52
4/2/2021 8:45:00 AM 5.74 42.332 0.208 7.06 79.85 11.55
4/2/2021 9:00:00 AM 5.73 42.314 0.206 7.07 80.28 11.55
4/2/2021 9:15:00 AM 5.73 42.314 0.206 7.06 80.51 11.59
4/2/2021 9:30:00 AM 5.73 42.314 0.204 7.06 80.41 11.6
4/2/2021 9:45:00 AM 5.75 42.35 0.214 7.06 79.41 11.64
4/2/2021 10:00:00 AM 5.76 42.368 0.218 7.07 79.87 11.67
4/2/2021 10:15:00 AM 5.77 42.386 0.218 7.07 80.02 11.68
4/2/2021 10:30:00 AM 5.8 42.44 0.216 7.07 79.85 11.71
4/2/2021 10:45:00 AM 5.84 42.512 0.214 7.06 79.91 11.72
4/2/2021 11:00:00 AM 5.88 42.584 0.21 7.04 80.49 11.72
4/2/2021 11:15:00 AM 5.9 42.62 0.212 7.05 79.45 11.67
4/2/2021 11:30:00 AM 5.93 42.674 0.215 7.04 79.32 11.74
4/2/2021 11:45:00 AM 5.99 42.782 0.214 7.04 79.64 11.71
4/2/2021 12:00:00 PM 6.08 42.944 0.209 7.04 79.85 11.77
4/2/2021 12:15:00 PM 6.17 43.106 0.212 7.04 80.53 11.71
4/2/2021 12:30:00 PM 6.25 43.25 0.211 7.05 80.67 11.78
4/2/2021 12:45:00 PM 6.33 43.394 0.208 7.01 80.57 11.82
4/2/2021 1:00:00 PM 6.4 43.52 0.206 6.98 80.64 11.68
4/2/2021 1:15:00 PM 6.48 43.664 0.203 6.99 80.77 11.73
4/2/2021 1:30:00 PM 6.55 43.79 0.21 7 79.11 11.73
4/2/2021 1:45:00 PM 6.63 43.934 0.213 7 79.51 11.73
4/2/2021 2:00:00 PM 6.7 44.06 0.215 6.99 79.66 11.82
4/2/2021 2:15:00 PM 6.76 44.168 0.215 7 79.61 11.8
4/2/2021 2:30:00 PM 6.83 44.294 0.214 6.99 79.85 11.85
4/2/2021 2:45:00 PM 6.89 44.402 0.211 7.02 79.96 11.8
4/2/2021 3:00:00 PM 6.94 44.492 0.208 7.01 79.98 11.81
4/2/2021 3:15:00 PM 6.99 44.582 0.208 7.03 79.46 11.68
4/2/2021 3:30:00 PM 7.03 44.654 0.211 7.02 79.4 11.76
4/2/2021 3:45:00 PM 7.05 44.69 0.211 7.02 79.42 11.65
4/2/2021 4:00:00 PM 7.07 44.726 0.208 7.02 79.5 11.76
4/2/2021 4:15:00 PM 7.07 44.726 0.213 7 79.42 11.79
4/2/2021 4:30:00 PM 7.07 44.726 0.212 6.99 79.45 11.82
4/2/2021 4:45:00 PM 7.08 44.744 0.212 7 78.87 11.79
4/2/2021 5:00:00 PM 7.07 44.726 0.215 7 78.9 11.82
4/2/2021 5:15:00 PM 7.06 44.708 0.213 7 79.34 11.8
4/2/2021 5:30:00 PM 7.05 44.69 0.204 6.99 78.9 11.83
4/2/2021 5:45:00 PM 7.02 44.636 0.205 6.99 78.94 11.8
4/2/2021 6:00:00 PM 6.97 44.546 0.206 6.99 78.72 11.82
4/2/2021 6:15:00 PM 6.9 44.42 0.209 7.01 78.77 11.79
4/2/2021 6:30:00 PM 6.82 44.276 0.208 7.01 78.62 11.67
4/2/2021 6:45:00 PM 6.75 44.15 0.207 7.02 78.91 11.75
4/2/2021 7:00:00 PM 6.68 44.024 0.204 7.01 78.97 11.79
4/2/2021 7:15:00 PM 6.61 43.898 0.199 7.01 79.01 11.8
4/2/2021 7:30:00 PM 6.53 43.754 0.197 7 78.87 11.76
4/2/2021 7:45:00 PM 6.46 43.628 0.195 7 78.88 11.72
4/2/2021 8:00:00 PM 6.4 43.52 0.194 7 79.04 11.6
4/2/2021 8:15:00 PM 6.35 43.43 0.191 7.01 79.38 11.8
4/2/2021 8:30:00 PM 6.29 43.322 0.195 7.06 79.73 11.72
4/2/2021 8:45:00 PM 6.24 43.232 0.188 6.88 79.71 11.77
4/2/2021 9:00:00 PM 6.21 43.178 0.186 6.85 79.79 11.79
4/2/2021 9:15:00 PM 6.18 43.124 0.184 6.84 79.8 11.82
4/2/2021 9:30:00 PM 6.16 43.088 0.199 6.91 78.34 11.84
4/2/2021 9:45:00 PM 6.13 43.034 0.198 6.91 77.12 11.83
4/2/2021 10:00:00 PM 6.12 43.016 0.189 6.93 78.58 11.75
4/2/2021 10:15:00 PM 6.09 42.962 0.19 6.88 79.47 11.75
4/2/2021 10:30:00 PM 6.07 42.926 0.191 6.9 79.93 11.81
4/2/2021 10:45:00 PM 6.04 42.872 0.189 6.92 80.37 11.86
4/2/2021 11:00:00 PM 6.02 42.836 0.188 6.95 80.49 11.83
4/2/2021 11:15:00 PM 6 42.8 0.186 6.96 80.65 11.82
4/2/2021 11:30:00 PM 5.98 42.764 0.186 6.96 80.82 11.7
4/2/2021 11:45:00 PM 5.95 42.71 0.186 6.97 80.46 11.85
4/3/2021 12:00:00 AM 5.93 42.674 0.185 6.97 81.12 11.79
4/3/2021 12:15:00 AM 5.9 42.62 0.186 6.98 81.5 11.84
4/3/2021 12:30:00 AM 5.88 42.584 0.186 6.99 81.34 11.87
4/3/2021 12:45:00 AM 5.85 42.53 0.186 6.99 81.05 11.87
4/3/2021 1:00:00 AM 5.82 42.476 0.187 6.99 81.39 11.89
4/3/2021 1:15:00 AM 5.79 42.422 0.186 6.99 81.57 11.87
4/3/2021 1:30:00 AM 5.76 42.368 0.187 6.99 81.67 11.84
4/3/2021 1:45:00 AM 5.73 42.314 0.187 6.98 81.25 11.85
4/3/2021 2:00:00 AM 5.7 42.26 0.187 6.99 81.52 11.67
4/3/2021 2:15:00 AM 5.67 42.206 0.186 6.99 81.42 11.89
4/3/2021 2:30:00 AM 5.63 42.134 0.187 7 81.54 11.87
4/3/2021 2:45:00 AM 5.6 42.08 0.186 7 81.58 11.81
4/3/2021 3:00:00 AM 5.56 42.008 0.185 7 81.69 11.87
4/3/2021 3:15:00 AM 5.52 41.936 0.185 7.01 81.79 11.86
4/3/2021 3:30:00 AM 5.48 41.864 0.186 7.02 82.09 11.86
4/3/2021 3:45:00 AM 5.44 41.792 0.185 7.02 81.88 11.85
4/3/2021 4:00:00 AM 5.4 41.72 0.185 7.02 82.4 11.8
4/3/2021 4:15:00 AM 5.36 41.648 0.183 7.03 82.44 11.83
4/3/2021 4:30:00 AM 5.31 41.558 0.184 7.03 82.54 11.83
4/3/2021 4:45:00 AM 5.27 41.486 0.183 7.03 82.46 11.81
4/3/2021 5:00:00 AM 5.23 41.414 0.182 7.05 82.25 11.84
4/3/2021 5:15:00 AM 5.19 41.342 0.183 7.05 82.57 11.82
4/3/2021 5:30:00 AM 5.15 41.27 0.183 7.06 82.55 11.85
4/3/2021 5:45:00 AM 5.12 41.216 0.184 7.05 82.77 11.8
4/3/2021 6:00:00 AM 5.08 41.144 0.182 7.07 82.75 11.8
4/3/2021 6:15:00 AM 5.05 41.09 0.182 7.06 82.44 11.78
4/3/2021 6:30:00 AM 5.02 41.036 0.182 7.05 82.41 11.86
4/3/2021 6:45:00 AM 4.99 40.982 0.183 7.05 82.19 11.82
4/3/2021 7:00:00 AM 4.96 40.928 0.181 7.06 82.55 11.9
4/3/2021 7:15:00 AM 4.94 40.892 0.182 7.06 82.48 11.87
4/3/2021 7:30:00 AM 4.92 40.856 0.184 7.06 82.44 11.82
4/3/2021 7:45:00 AM 4.9 40.82 0.18 7.05 82.85 11.65
4/3/2021 8:00:00 AM 4.89 40.802 0.181 7.05 82.38 11.58
4/3/2021 8:15:00 AM 4.89 40.802 0.18 7.05 82.45 11.74
4/3/2021 8:30:00 AM 4.89 40.802 0.181 7.06 82.55 11.81
4/3/2021 8:45:00 AM 4.91 40.838 0.18 7.08 82.55 11.73
4/3/2021 9:00:00 AM 4.94 40.892 0.18 7.08 82.61 11.85
4/3/2021 9:15:00 AM 4.98 40.964 0.18 7.09 82.83 11.81
4/3/2021 9:30:00 AM 5.02 41.036 0.18 7.08 82.95 11.78
4/3/2021 9:45:00 AM 5.07 41.126 0.18 7.08 82.94 11.9
4/3/2021 10:00:00 AM 5.13 41.234 0.18 7.09 83.04 11.81
4/3/2021 10:15:00 AM 5.19 41.342 0.178 7.08 83.19 11.86
4/3/2021 10:30:00 AM 5.27 41.486 0.176 7.09 83.3 11.9
4/3/2021 10:45:00 AM 5.35 41.63 0.177 7.1 83.4 11.93
4/3/2021 11:00:00 AM 5.45 41.81 0.177 7.1 83.19 11.98
4/3/2021 11:15:00 AM 5.55 41.99 0.177 7.12 83.27 11.9
4/3/2021 11:30:00 AM 5.65 42.17 0.178 7.12 83.08 11.91
4/3/2021 11:45:00 AM 5.76 42.368 0.178 7.11 83.07 11.98
4/3/2021 12:00:00 PM 5.88 42.584 0.179 7.13 83.14 11.83
4/3/2021 12:15:00 PM 6 42.8 0.178 7.13 83.08 11.94
4/3/2021 12:30:00 PM 6.11 42.998 0.178 7.12 82.99 12.02
4/3/2021 12:45:00 PM 6.22 43.196 0.177 7.13 83.2 11.9
4/3/2021 1:00:00 PM 6.33 43.394 0.177 7.13 83.26 11.88
4/3/2021 1:15:00 PM 6.44 43.592 0.178 7.14 83.61 11.9
4/3/2021 1:30:00 PM 6.54 43.772 0.178 7.14 83.72 11.84
4/3/2021 1:45:00 PM 6.64 43.952 0.179 7.14 83.41 11.85
4/3/2021 2:00:00 PM 6.73 44.114 0.18 7.15 83.81 11.85
4/3/2021 2:15:00 PM 6.82 44.276 0.18 7.15 83.96 11.82
4/3/2021 2:30:00 PM 6.9 44.42 0.186 7.17 81.45 11.92
4/3/2021 2:45:00 PM 6.97 44.546 0.193 7.2 82.34 11.85
4/3/2021 3:00:00 PM 7.04 44.672 0.198 7.22 82.7 12.02
4/3/2021 3:15:00 PM 7.1 44.78 0.2 7.2 82.79 12.06
4/3/2021 3:30:00 PM 7.15 44.87 0.202 7.18 82.84 12.03
4/3/2021 3:45:00 PM 7.17 44.906 0.204 7.19 82.85 12.08
4/3/2021 4:00:00 PM 7.17 44.906 0.206 7.19 82.99 12.07
4/3/2021 4:15:00 PM 7.18 44.924 0.208 7.18 83.07 12.04
4/3/2021 4:30:00 PM 7.18 44.924 0.207 7.18 82.89 12.11
4/3/2021 4:45:00 PM 7.17 44.906 0.208 7.18 82.96 12.03
4/3/2021 5:00:00 PM 7.13 44.834 0.208 7.19 83.18 12.05
4/3/2021 5:15:00 PM 7.1 44.78 0.208 7.18 83.68 12.08
4/3/2021 5:30:00 PM 7.08 44.744 0.209 7.16 83.42 12.06
4/3/2021 5:45:00 PM 7.03 44.654 0.208 7.15 83.62 12.06
4/3/2021 6:00:00 PM 6.98 44.564 0.209 7.14 83.61 12.13
4/3/2021 6:15:00 PM 6.93 44.474 0.209 7.13 83.84 12.12
4/3/2021 6:30:00 PM 6.88 44.384 0.21 7.13 83.94 12.04
4/3/2021 6:45:00 PM 6.84 44.312 0.211 7.13 84.13 12.1
4/3/2021 7:00:00 PM 6.8 44.24 0.213 7.11 84.33 12.09
4/3/2021 7:15:00 PM 6.76 44.168 0.217 7.16 82.7 12.02
4/3/2021 7:30:00 PM 6.71 44.078 0.221 7.12 82.69 12.01
4/3/2021 7:45:00 PM 6.67 44.006 0.222 7.12 83.12 11.81
4/3/2021 8:00:00 PM 6.62 43.916 0.222 7.09 83 11.97
4/3/2021 8:15:00 PM 6.57 43.826 0.221 7.07 82.78 11.98
4/3/2021 8:30:00 PM 6.53 43.754 0.221 7.07 83.3 11.96
4/3/2021 8:45:00 PM 6.5 43.7 0.222 7.06 82.88 12.01
4/3/2021 9:00:00 PM 6.46 43.628 0.221 7.07 83 12.04
4/3/2021 9:15:00 PM 6.43 43.574 0.22 7.08 83.28 11.81
4/3/2021 9:30:00 PM 6.41 43.538 0.22 7.07 83.36 12.03
4/3/2021 9:45:00 PM 6.39 43.502 0.221 7.08 83.73 11.81
4/3/2021 10:00:00 PM 6.37 43.466 0.224 7.06 80.86 12.02
4/3/2021 10:15:00 PM 6.34 43.412 0.223 7.03 81.65 12.06
4/3/2021 10:30:00 PM 6.33 43.394 0.226 7.08 82.12 12.05
4/3/2021 10:45:00 PM 6.31 43.358 0.226 7.08 82.64 12.11
4/3/2021 11:00:00 PM 6.29 43.322 0.227 7.08 82.76 12.12
4/3/2021 11:15:00 PM 6.27 43.286 0.225 7.07 82.71 12.08
4/3/2021 11:30:00 PM 6.26 43.268 0.227 7.08 82.91 12.09
4/3/2021 11:45:00 PM 6.24 43.232 0.225 7.09 82.95 12.1
4/4/2021 12:00:00 AM 6.23 43.214 0.224 7.04 83.25 12.1
4/4/2021 12:15:00 AM 6.22 43.196 0.237 7.03 82.11 12
4/4/2021 12:30:00 AM 6.2 43.16 0.24 7.02 82.09 12.04
4/4/2021 12:45:00 AM 6.19 43.142 0.243 7.05 82.38 12.06
4/4/2021 1:00:00 AM 6.17 43.106 0.242 7.05 82.78 12.07
4/4/2021 1:15:00 AM 6.16 43.088 0.239 7.09 82.13 12.02
4/4/2021 1:30:00 AM 6.14 43.052 0.237 7.07 82.59 12.05
4/4/2021 1:45:00 AM 6.12 43.016 0.234 7.07 82.6 12.05
4/4/2021 2:00:00 AM 6.09 42.962 0.223 7.07 81.87 11.94
4/4/2021 2:15:00 AM 6.07 42.926 0.223 7.08 82.12 12.06
4/4/2021 2:30:00 AM 6.03 42.854 0.209 7.16 81.06 12
4/4/2021 2:45:00 AM 6.01 42.818 0.207 7.02 80.44 11.96
4/4/2021 3:00:00 AM 5.98 42.764 0.205 7.01 80.38 11.95
4/4/2021 3:15:00 AM 5.95 42.71 0.202 6.99 80.07 11.96
4/4/2021 3:30:00 AM 5.92 42.656 0.201 7.05 79.74 11.96
4/4/2021 3:45:00 AM 5.88 42.584 0.198 6.99 79.73 12.03
4/4/2021 4:00:00 AM 5.85 42.53 0.197 6.97 79.64 12.01
4/4/2021 4:15:00 AM 5.82 42.476 0.195 6.97 79.58 12.02
4/4/2021 4:30:00 AM 5.79 42.422 0.193 7.01 79.8 12.02
4/4/2021 4:45:00 AM 5.76 42.368 0.197 7.01 79.73 11.97
4/4/2021 5:00:00 AM 5.73 42.314 0.196 7.1 81.25 11.99
4/4/2021 5:15:00 AM 5.7 42.26 0.201 7.01 79.84 11.99
4/4/2021 5:30:00 AM 5.67 42.206 0.199 6.95 79.49 11.96
4/4/2021 5:45:00 AM 5.64 42.152 0.203 6.97 79.26 11.95
4/4/2021 6:00:00 AM 5.61 42.098 0.196 6.97 78.16 11.95
4/4/2021 6:15:00 AM 5.58 42.044 0.193 6.97 78.12 11.97
4/4/2021 6:30:00 AM 5.55 41.99 0.192 6.97 78.21 11.96
4/4/2021 6:45:00 AM 5.53 41.954 0.193 6.96 77.93 11.96
4/4/2021 7:00:00 AM 5.5 41.9 0.193 6.94 77.65 11.96
4/4/2021 7:15:00 AM 5.48 41.864 0.194 6.95 77.51 11.96
4/4/2021 7:30:00 AM 5.46 41.828 0.203 6.96 77.12 11.95
4/4/2021 7:45:00 AM 5.44 41.792 0.206 6.97 77.01 11.98
4/4/2021 8:00:00 AM 5.43 41.774 0.207 6.99 77.08 11.95
4/4/2021 8:15:00 AM 5.43 41.774 0.207 7 77.3 12
4/4/2021 8:30:00 AM 5.43 41.774 0.207 7 77.17 11.99
4/4/2021 8:45:00 AM 5.45 41.81 0.208 7 77.12 11.99
4/4/2021 9:00:00 AM 5.49 41.882 0.207 7 77 12.02
4/4/2021 9:15:00 AM 5.53 41.954 0.209 7.01 77.2 12.05
4/4/2021 9:30:00 AM 5.59 42.062 0.208 7.01 77.28 12.07
4/4/2021 9:45:00 AM 5.66 42.188 0.207 7.02 77.51 12.06
4/4/2021 10:00:00 AM 5.72 42.296 0.204 7.03 77.5 12.08
4/4/2021 10:15:00 AM 5.8 42.44 0.2 7.02 77.34 12.05
4/4/2021 10:30:00 AM 5.89 42.602 0.197 7.02 77.41 12.11
4/4/2021 10:45:00 AM 6 42.8 0.196 7.01 77.15 12.15
4/4/2021 11:00:00 AM 6.12 43.016 0.195 7.02 77.03 12.14
4/4/2021 11:15:00 AM 6.23 43.214 0.195 7.03 76.8 12.14
4/4/2021 11:30:00 AM 6.36 43.448 0.195 7.03 76.96 12.15
4/4/2021 11:45:00 AM 6.49 43.682 0.193 7.04 76.88 12.14
4/4/2021 12:00:00 PM 6.63 43.934 0.191 7.05 76.95 12.16
4/4/2021 12:15:00 PM 6.77 44.186 0.197 7.04 76.96 12.01
4/4/2021 12:30:00 PM 6.91 44.438 0.2 7.03 76.95 12
4/4/2021 12:45:00 PM 7.06 44.708 0.2 7.01 77.16 11.44
4/4/2021 1:00:00 PM 7.18 44.924 0.198 7.02 77.28 11.96
4/4/2021 1:15:00 PM 7.32 45.176 0.197 7.03 77.37 11.61
4/4/2021 1:30:00 PM 7.46 45.428 0.197 7.01 77.47 11.8
4/4/2021 1:45:00 PM 7.61 45.698 0.194 7.02 77.32 11.55
4/4/2021 2:00:00 PM 7.74 45.932 0.194 7.01 77.79 11.55
4/4/2021 2:15:00 PM 7.85 46.13 0.193 7.01 78.13 11.86
4/4/2021 2:30:00 PM 7.93 46.274 0.191 7 78.4 11.71
4/4/2021 2:45:00 PM 8 46.4 0.192 7 78.69 11.89
4/4/2021 3:00:00 PM 8.06 46.508 0.191 7.01 78.92 11.85
4/4/2021 3:15:00 PM 8.14 46.652 0.192 7.01 79.09 11.95
4/4/2021 3:30:00 PM 8.17 46.706 0.189 7.01 79.24 11.87
4/4/2021 3:45:00 PM 8.21 46.778 0.188 7.01 79.38 11.81
4/4/2021 4:00:00 PM 8.25 46.85 0.187 7.03 79.59 11.91
4/4/2021 4:15:00 PM 8.3 46.94 0.187 7.02 79.63 11.97
4/4/2021 4:30:00 PM 8.34 47.012 0.186 7.02 79.86 12
4/4/2021 4:45:00 PM 8.35 47.03 0.185 7.02 79.94 11.97
4/4/2021 5:00:00 PM 8.35 47.03 0.185 7.03 80.03 11.9
4/4/2021 5:15:00 PM 8.34 47.012 0.184 7.03 80.25 11.94
4/4/2021 5:30:00 PM 8.3 46.94 0.184 7.02 80.21 11.73
4/4/2021 5:45:00 PM 8.27 46.886 0.184 7.03 80.36 11.65
4/4/2021 6:00:00 PM 8.23 46.814 0.184 7.04 80.4 11.84
4/4/2021 6:15:00 PM 8.18 46.724 0.182 7.05 80.43 11.85
4/4/2021 6:30:00 PM 8.11 46.598 0.182 7.05 80.73 11.82
4/4/2021 6:45:00 PM 8.02 46.436 0.182 7.06 80.54 11.89
4/4/2021 7:00:00 PM 7.93 46.274 0.182 7.07 80.63 11.79
4/4/2021 7:15:00 PM 7.84 46.112 0.181 7.05 80.98 11.82
4/4/2021 7:30:00 PM 7.75 45.95 0.181 7.05 81.07 11.76
4/4/2021 7:45:00 PM 7.68 45.824 0.181 7.06 81.1 11.57
4/4/2021 8:00:00 PM 7.6 45.68 0.181 7.08 81.11 11.74
4/4/2021 8:15:00 PM 7.54 45.572 0.181 7.06 81.07 11.84
4/4/2021 8:30:00 PM 7.49 45.482 0.18 7.07 81.13 11.75
4/4/2021 8:45:00 PM 7.45 45.41 0.179 7.07 81.38 11.78
4/4/2021 9:00:00 PM 7.41 45.338 0.178 7.06 81.52 11.82
4/4/2021 9:15:00 PM 7.37 45.266 0.178 7.07 81.41 11.68
4/4/2021 9:30:00 PM 7.34 45.212 0.177 7.07 81.56 11.8
4/4/2021 9:45:00 PM 7.3 45.14 0.176 7.07 81.52 11.8
4/4/2021 10:00:00 PM 7.27 45.086 0.176 7.09 81.84 11.8
4/4/2021 10:15:00 PM 7.23 45.014 0.2 7.05 79.6 11.83
4/4/2021 10:30:00 PM 7.19 44.942 0.208 7.03 79.94 11.77
4/4/2021 10:45:00 PM 7.15 44.87 0.211 7.05 80.04 11.79
4/4/2021 11:00:00 PM 7.12 44.816 0.212 7.07 79.98 11.78
4/4/2021 11:15:00 PM 7.08 44.744 0.213 7.07 80.2 11.65
4/4/2021 11:30:00 PM 7.05 44.69 0.215 7.06 80.44 11.75
4/4/2021 11:45:00 PM 7.02 44.636 0.215 7.07 80.57 11.83
4/5/2021 12:00:00 AM 6.99 44.582 0.215 7.07 80.67 11.78
4/5/2021 12:15:00 AM 6.96 44.528 0.215 7.08 80.66 11.76
4/5/2021 12:30:00 AM 6.93 44.474 0.216 7.1 80.52 11.74
4/5/2021 12:45:00 AM 6.9 44.42 0.217 7.1 80.82 11.87
4/5/2021 1:00:00 AM 6.87 44.366 0.218 7.09 80.95 11.89
4/5/2021 1:15:00 AM 6.84 44.312 0.219 7.09 81.04 11.84
4/5/2021 1:30:00 AM 6.81 44.258 0.219 7.1 81.01 11.78
4/5/2021 1:45:00 AM 6.78 44.204 0.219 7.11 81.07 11.76
4/5/2021 2:00:00 AM 6.75 44.15 0.219 7.12 81.11 11.85
4/5/2021 2:15:00 AM 6.71 44.078 0.219 7.13 81.04 11.85
4/5/2021 2:30:00 AM 6.68 44.024 0.219 7.13 80.88 11.87
4/5/2021 2:45:00 AM 6.64 43.952 0.219 7.12 80.95 11.76
4/5/2021 3:00:00 AM 6.61 43.898 0.219 7.11 81.07 11.85
4/5/2021 3:15:00 AM 6.57 43.826 0.218 7.1 81.31 11.83
4/5/2021 3:30:00 AM 6.52 43.736 0.218 7.11 81.39 11.84
4/5/2021 3:45:00 AM 6.48 43.664 0.219 7.1 81.35 11.84
4/5/2021 4:00:00 AM 6.43 43.574 0.218 7.1 81.65 11.83
4/5/2021 4:15:00 AM 6.38 43.484 0.217 7.11 81.65 11.75
4/5/2021 4:30:00 AM 6.33 43.394 0.216 7.13 81.87 11.74
4/5/2021 4:45:00 AM 6.28 43.304 0.236 7.16 80.29 11.79
4/5/2021 5:00:00 AM 6.22 43.196 0.244 7.12 80.81 11.69
4/5/2021 5:15:00 AM 6.17 43.106 0.244 7.13 81.05 11.3
4/5/2021 5:30:00 AM 6.12 43.016 0.24 7.14 81.25 11.47
4/5/2021 5:45:00 AM 6.07 42.926 0.242 7.15 81.31 11.63
4/5/2021 6:00:00 AM 6.02 42.836 0.241 7.16 81.84 11.74
4/5/2021 6:15:00 AM 5.97 42.746 0.243 7.17 82.11 11.67
4/5/2021 6:30:00 AM 5.93 42.674 0.244 7.18 82.1 11.71
4/5/2021 6:45:00 AM 5.89 42.602 0.243 7.19 82.32 11.71
4/5/2021 7:00:00 AM 5.84 42.512 0.241 7.19 82.45 11.56
4/5/2021 7:15:00 AM 5.81 42.458 0.239 7.2 82.68 11.75
4/5/2021 7:30:00 AM 5.78 42.404 0.237 7.2 82.74 11.38
4/5/2021 7:45:00 AM 5.75 42.35 0.233 7.21 82.92 11.75
4/5/2021 8:00:00 AM 5.73 42.314 0.232 7.21 82.9 11.77
4/5/2021 8:15:00 AM 5.72 42.296 0.231 7.21 82.84 11.72
4/5/2021 8:30:00 AM 5.73 42.314 0.23 7.21 83.03 11.8
4/5/2021 8:45:00 AM 5.74 42.332 0.227 7.22 83.1 11.79
4/5/2021 9:00:00 AM 5.76 42.368 0.224 7.21 83.39 11.78
4/5/2021 9:15:00 AM 5.8 42.44 0.223 7.22 82.93 11.79
4/5/2021 9:30:00 AM 5.84 42.512 0.221 7.24 83.42 11.82
4/5/2021 9:45:00 AM 5.9 42.62 0.221 7.24 83.57 11.8
4/5/2021 10:00:00 AM 5.96 42.728 0.22 7.24 83.58 11.73
4/5/2021 10:15:00 AM 6.03 42.854 0.219 7.24 83.51 11.84
4/5/2021 10:30:00 AM 6.12 43.016 0.217 7.24 83.62 11.92
4/5/2021 10:45:00 AM 6.22 43.196 0.221 7.23 81.58 11.75
4/5/2021 11:00:00 AM 6.33 43.394 0.226 7.21 82.06 11.99
4/5/2021 11:15:00 AM 6.45 43.61 0.227 7.21 82.23 12.02
4/5/2021 11:30:00 AM 6.58 43.844 0.228 7.22 82.92 12.05
4/5/2021 11:45:00 AM 6.72 44.096 0.227 7.22 82.85 12.07
4/5/2021 12:00:00 PM 6.87 44.366 0.227 7.22 82.93 12.05
4/5/2021 12:15:00 PM 7.02 44.636 0.225 7.22 83.12 12.06
4/5/2021 12:30:00 PM 7.17 44.906 0.226 7.22 83.13 12.07
4/5/2021 12:45:00 PM 7.31 45.158 0.22 7.22 83 12.05
4/5/2021 1:00:00 PM 7.46 45.428 0.211 7.22 82.87 12.09
4/5/2021 1:15:00 PM 7.61 45.698 0.211 7.23 82.85 12.07
4/5/2021 1:30:00 PM 7.77 45.986 0.206 7.22 82.78 12.07
4/5/2021 1:45:00 PM 7.91 46.238 0.205 7.23 82.56 12.07
4/5/2021 2:00:00 PM 8.05 46.49 0.202 7.22 82.67 12.06
4/5/2021 2:15:00 PM 8.18 46.724 0.202 7.24 82.54 12.04
4/5/2021 2:30:00 PM 8.3 46.94 0.2 7.23 83.01 12.02
4/5/2021 2:45:00 PM 8.42 47.156 0.199 7.23 82.92 12.03
4/5/2021 3:00:00 PM 8.53 47.354 0.196 7.23 82.96 12
4/5/2021 3:15:00 PM 8.62 47.516 0.195 7.22 83.03 12
4/5/2021 3:30:00 PM 8.7 47.66 0.193 7.23 82.83 11.98
4/5/2021 3:45:00 PM 8.77 47.786 0.192 7.22 82.92 11.96
4/5/2021 4:00:00 PM 8.84 47.912 0.187 7.23 82.98 11.86
4/5/2021 4:15:00 PM 8.89 48.002 0.185 7.23 83.14 11.91
4/5/2021 4:30:00 PM 8.93 48.074 0.185 7.24 82.92 11.88
4/5/2021 4:45:00 PM 8.95 48.11 0.183 7.23 83.26 11.89
4/5/2021 5:00:00 PM 8.96 48.128 0.183 7.24 83.05 11.92
4/5/2021 5:15:00 PM 8.96 48.128 0.181 7.22 83.17 11.93
4/5/2021 5:30:00 PM 8.95 48.11 0.178 7.21 83.38 11.9
4/5/2021 5:45:00 PM 8.91 48.038 0.178 7.22 83.28 11.86
4/5/2021 6:00:00 PM 8.87 47.966 0.177 7.22 83.25 11.88
4/5/2021 6:15:00 PM 8.82 47.876 0.174 7.22 83.57 11.88
4/5/2021 6:30:00 PM 8.76 47.768 0.174 7.24 83.77 11.84
4/5/2021 6:45:00 PM 8.71 47.678 0.171 7.24 83.81 11.84
4/5/2021 7:00:00 PM 8.66 47.588 0.172 7.25 83.73 11.81
4/5/2021 7:15:00 PM 8.6 47.48 0.17 7.26 83.94 11.8
4/5/2021 7:30:00 PM 8.54 47.372 0.178 7.25 81.12 11.74
4/5/2021 7:45:00 PM 8.49 47.282 0.18 7.24 82.07 11.77
4/5/2021 8:00:00 PM 8.44 47.192 0.184 7.24 82.9 11.75
4/5/2021 8:15:00 PM 8.39 47.102 0.186 7.24 83.21 11.73
4/5/2021 8:30:00 PM 8.35 47.03 0.191 7.23 83.37 11.58
4/5/2021 8:45:00 PM 8.31 46.958 0.184 7.24 83.49 11.65
4/5/2021 9:00:00 PM 8.28 46.904 0.186 7.23 83.32 11.64
4/5/2021 9:15:00 PM 8.26 46.868 0.186 7.2 83.12 11.62
4/5/2021 9:30:00 PM 8.23 46.814 0.188 7.19 83.08 11.64
4/5/2021 9:45:00 PM 8.21 46.778 0.187 7.19 83.31 11.6
4/5/2021 10:00:00 PM 8.19 46.742 0.187 7.19 83.18 11.6
4/5/2021 10:15:00 PM 8.17 46.706 0.188 7.2 83.14 11.6
4/5/2021 10:30:00 PM 8.15 46.67 0.19 7.21 82.93 11.6
4/5/2021 10:45:00 PM 8.13 46.634 0.189 7.21 82.86 11.58
4/5/2021 11:00:00 PM 8.1 46.58 0.191 7.2 82.91 11.58
4/5/2021 11:15:00 PM 8.08 46.544 0.19 7.21 82.87 11.52
4/5/2021 11:30:00 PM 8.05 46.49 0.191 7.21 82.88 11.52
4/5/2021 11:45:00 PM 8.02 46.436 0.188 7.22 82.59 11.55
4/6/2021 12:00:00 AM 7.98 46.364 0.187 7.22 82.58 11.54
4/6/2021 12:15:00 AM 7.95 46.31 0.187 7.21 82.77 11.56
4/6/2021 12:30:00 AM 7.91 46.238 0.185 7.21 82.65 11.54
4/6/2021 12:45:00 AM 7.88 46.184 0.185 7.21 82.71 11.56
4/6/2021 1:00:00 AM 7.84 46.112 0.182 7.21 82.68 11.56
4/6/2021 1:15:00 AM 7.8 46.04 0.178 7.21 83.01 11.55
4/6/2021 1:30:00 AM 7.76 45.968 0.174 7.21 83.11 11.58
4/6/2021 1:45:00 AM 7.71 45.878 0.173 7.21 82.85 11.57
4/6/2021 2:00:00 AM 7.66 45.788 0.171 7.21 82.66 11.57
4/6/2021 2:15:00 AM 7.61 45.698 0.169 7.21 82.74 11.59
4/6/2021 2:30:00 AM 7.56 45.608 0.167 7.23 83.06 11.58
4/6/2021 2:45:00 AM 7.5 45.5 0.165 7.23 82.84 11.59
4/6/2021 3:00:00 AM 7.45 45.41 0.163 7.23 82.97 11.52
4/6/2021 3:15:00 AM 7.39 45.302 0.161 7.22 82.75 11.59
4/6/2021 3:30:00 AM 7.33 45.194 0.161 7.22 82.82 11.6
4/6/2021 3:45:00 AM 7.27 45.086 0.159 7.22 82.89 11.46
4/6/2021 4:00:00 AM 7.21 44.978 0.157 7.22 83.05 11.59
4/6/2021 4:15:00 AM 7.15 44.87 0.158 7.22 83.37 11.6
4/6/2021 4:30:00 AM 7.1 44.78 0.159 7.21 83.5 11.58
4/6/2021 4:45:00 AM 7.03 44.654 0.157 7.22 83.84 11.58
4/6/2021 5:00:00 AM 6.97 44.546 0.156 7.21 83.86 11.55
4/6/2021 5:15:00 AM 6.9 44.42 0.165 7.26 80.21 11.57
4/6/2021 5:30:00 AM 6.85 44.33 0.18 7.32 80.94 11.56
4/6/2021 5:45:00 AM 6.78 44.204 0.183 7.27 81.56 11.28
4/6/2021 6:00:00 AM 6.71 44.078 0.19 7.2 81.95 11.51
4/6/2021 6:15:00 AM 6.65 43.97 0.186 7.23 82.49 11.45
4/6/2021 6:30:00 AM 6.59 43.862 0.185 7.22 82.23 11.57
4/6/2021 6:45:00 AM 6.54 43.772 0.186 7.22 82.35 11.55
4/6/2021 7:00:00 AM 6.48 43.664 0.183 7.22 82.67 11.56
4/6/2021 7:15:00 AM 6.43 43.574 0.181 7.22 82.74 11.56
4/6/2021 7:30:00 AM 6.39 43.502 0.182 7.22 82.69 11.55
4/6/2021 7:45:00 AM 6.36 43.448 0.178 7.23 82.97 11.54
4/6/2021 8:00:00 AM 6.32 43.376 0.175 7.25 83.04 11.56
4/6/2021 8:15:00 AM 6.3 43.34 0.174 7.25 83.61 11.58
4/6/2021 8:30:00 AM 6.29 43.322 0.197 7.3 82.25 11.55
4/6/2021 8:45:00 AM 6.29 43.322 0.202 7.3 82.5 11.56
4/6/2021 9:00:00 AM 6.3 43.34 0.203 7.29 82.73 11.6
4/6/2021 9:15:00 AM 6.32 43.376 0.205 7.3 82.94 11.66
4/6/2021 9:30:00 AM 6.36 43.448 0.204 7.3 83.12 11.54
4/6/2021 9:45:00 AM 6.41 43.538 0.206 7.3 83.1 11.64
4/6/2021 10:00:00 AM 6.48 43.664 0.205 7.3 83.11 11.71
4/6/2021 10:15:00 AM 6.55 43.79 0.202 7.3 83.04 11.7
4/6/2021 10:30:00 AM 6.64 43.952 0.204 7.3 83.06 11.77
4/6/2021 10:45:00 AM 6.74 44.132 0.201 7.29 83.11 11.78
4/6/2021 11:00:00 AM 6.85 44.33 0.2 7.3 82.75 11.8
4/6/2021 11:15:00 AM 6.97 44.546 0.201 7.3 83 11.83
4/6/2021 11:30:00 AM 7.1 44.78 0.197 7.29 83.1 11.84
4/6/2021 11:45:00 AM 7.24 45.032 0.193 7.3 83.45 11.86
4/6/2021 12:00:00 PM 7.39 45.302 0.207 7.32 82.03 11.83
4/6/2021 12:15:00 PM 7.55 45.59 0.208 7.31 82.32 11.86
4/6/2021 12:30:00 PM 7.71 45.878 0.208 7.3 82.42 11.86
4/6/2021 12:45:00 PM 7.87 46.166 0.206 7.31 82.48 11.93
4/6/2021 1:00:00 PM 8.04 46.472 0.204 7.3 82.7 11.9
4/6/2021 1:15:00 PM 8.18 46.724 0.202 7.3 82.81 11.91
4/6/2021 1:30:00 PM 8.34 47.012 0.198 7.3 82.66 11.9
4/6/2021 1:45:00 PM 8.48 47.264 0.193 7.3 82.88 11.88
4/6/2021 2:00:00 PM 8.61 47.498 0.204 7.3 82.12 11.83
4/6/2021 2:15:00 PM 8.77 47.786 0.198 7.31 82.63 11.9
4/6/2021 2:30:00 PM 8.89 48.002 0.191 7.3 82.79 11.88
4/6/2021 2:45:00 PM 9.01 48.218 0.183 7.31 82.96 11.88
4/6/2021 3:00:00 PM 9.1 48.38 0.179 7.31 83.03 11.86
4/6/2021 3:15:00 PM 9.2 48.56 0.193 7.3 83.21 11.62
4/6/2021 3:30:00 PM 9.29 48.722 0.194 7.31 83.05 11.69
4/6/2021 3:45:00 PM 9.36 48.848 0.19 7.31 83.08 11.75
4/6/2021 4:00:00 PM 9.44 48.992 0.207 7.32 82.49 11.74
4/6/2021 4:15:00 PM 9.52 49.136 0.198 7.31 82.76 11.78
4/6/2021 4:30:00 PM 9.57 49.226 0.196 7.31 83.24 11.85
4/6/2021 4:45:00 PM 9.61 49.298 0.197 7.31 83.25 11.84
4/6/2021 5:00:00 PM 9.63 49.334 0.194 7.31 83.08 11.85
4/6/2021 5:15:00 PM 9.65 49.37 0.189 7.31 83.34 11.74
4/6/2021 5:30:00 PM 9.65 49.37 0.188 7.31 83.35 11.83
4/6/2021 5:45:00 PM 9.66 49.388 0.186 7.32 83.11 11.82
4/6/2021 6:00:00 PM 9.66 49.388 0.182 7.32 83.41 11.77
4/6/2021 6:15:00 PM 9.64 49.352 0.187 7.32 82.65 11.6
4/6/2021 6:30:00 PM 9.6 49.28 0.189 7.33 82.72 11.64
4/6/2021 6:45:00 PM 9.55 49.19 0.195 7.32 82.48 11.64
4/6/2021 7:00:00 PM 9.5 49.1 0.194 7.32 82.62 11.55
4/6/2021 7:15:00 PM 9.44 48.992 0.194 7.34 82.71 11.59
4/6/2021 7:30:00 PM 9.39 48.902 0.198 7.34 81.71 11.48
4/6/2021 7:45:00 PM 9.34 48.812 0.188 7.36 82.14 11.45
4/6/2021 8:00:00 PM 9.3 48.74 0.182 7.35 81.62 11.39
4/6/2021 8:15:00 PM 9.26 48.668 0.179 7.31 81.54 11.44
4/6/2021 8:30:00 PM 9.23 48.614 0.181 7.33 82.02 11.46
4/6/2021 8:45:00 PM 9.21 48.578 0.175 7.31 82.04 11.35
4/6/2021 9:00:00 PM 9.19 48.542 0.179 7.29 80.84 11.26
4/6/2021 9:15:00 PM 9.17 48.506 0.175 7.35 82.36 11.36
4/6/2021 9:30:00 PM 9.16 48.488 0.166 7.4 81.93 11.17
4/6/2021 9:45:00 PM 9.15 48.47 0.163 7.26 81.96 10.75
4/6/2021 10:00:00 PM 9.14 48.452 0.161 7.3 81.54 10.83
4/6/2021 10:15:00 PM 9.14 48.452 0.16 7.27 80.97 10.84
4/6/2021 10:30:00 PM 9.14 48.452 0.162 7.31 80.62 10.96
4/6/2021 10:45:00 PM 9.14 48.452 0.161 7.39 79.23 10.83
4/6/2021 11:00:00 PM 9.13 48.434 0.164 7.27 80.76 11.1
4/6/2021 11:15:00 PM 9.14 48.452 0.16 7.19 78.91 10.91
4/6/2021 11:30:00 PM 9.14 48.452 0.158 7.17 78.09 10.65
4/6/2021 11:45:00 PM 9.13 48.434 0.155 7.2 77.79 10.92
4/7/2021 12:00:00 AM 9.13 48.434 0.152 7.25 77.73 10.78
4/7/2021 12:15:00 AM 9.12 48.416 0.151 7.23 77.38 10.56
4/7/2021 12:30:00 AM 9.1 48.38 0.152 7.36 77.31 10.84
4/7/2021 12:45:00 AM 9.09 48.362 0.156 7.12 78.62 10.9
4/7/2021 1:00:00 AM 9.07 48.326 0.161 7.23 78.73 10.91
4/7/2021 1:15:00 AM 9.05 48.29 0.166 7.3 79.01 10.48
4/7/2021 1:30:00 AM 9.02 48.236 0.164 7.33 80.68 11.04
4/7/2021 1:45:00 AM 8.99 48.182 0.165 7.46 80.53 10.93
4/7/2021 2:00:00 AM 8.96 48.128 0.167 7.44 79.06 11.08
4/7/2021 2:15:00 AM 8.92 48.056 0.195 7.49 78.3 11.01
4/7/2021 2:30:00 AM 8.88 47.984 0.172 7.37 78.7 11.14
4/7/2021 2:45:00 AM 8.83 47.894 0.17 7.57 78.82 10.88
4/7/2021 3:00:00 AM 8.79 47.822 0.171 7.52 78.28 10.9
4/7/2021 3:15:00 AM 8.74 47.732 0.171 7.66 77.81 11.14
4/7/2021 3:30:00 AM 8.69 47.642 0.174 7.66 77.18 11.08
4/7/2021 3:45:00 AM 8.63 47.534 0.177 7.7 76.55 10.59
4/7/2021 4:00:00 AM 8.57 47.426 0.183 7.73 76.09 11.13
4/7/2021 4:15:00 AM 8.52 47.336 0.185 7.71 75.61 11.06
4/7/2021 4:30:00 AM 8.45 47.21 0.179 7.44 77.73 11.16
4/7/2021 4:45:00 AM 8.4 47.12 0.174 7.49 78.88 11.12
4/7/2021 5:00:00 AM 8.34 47.012 0.185 7.31 79.36 10.87
4/7/2021 5:15:00 AM 8.28 46.904 0.191 7.28 80.27 10.78
4/7/2021 5:30:00 AM 8.22 46.796 0.169 7.2 80.87 10.77
4/7/2021 5:45:00 AM 8.16 46.688 0.162 7.54 81.02 10.81
4/7/2021 6:00:00 AM 8.1 46.58 0.166 7.41 81.36 11.07
4/7/2021 6:15:00 AM 8.04 46.472 0.169 7.65 81.25 10.85
4/7/2021 6:30:00 AM 7.98 46.364 0.174 7.58 81.24 11.12
4/7/2021 6:45:00 AM 7.92 46.256 0.179 7.54 81.09 10.9
4/7/2021 7:00:00 AM 7.86 46.148 0.183 7.54 81.38 11.07
4/7/2021 7:15:00 AM 7.81 46.058 0.186 7.57 80.75 11.22
4/7/2021 7:30:00 AM 7.75 45.95 0.188 7.56 80.66 11.15
4/7/2021 7:45:00 AM 7.71 45.878 0.19 7.66 80.48 11.19
4/7/2021 8:00:00 AM 7.67 45.806 0.191 7.58 80.48 11.27
4/7/2021 8:15:00 AM 7.63 45.734 0.193 7.44 79.72 11.26
4/7/2021 8:30:00 AM 7.61 45.698 0.197 7.66 79.44 11.3
4/7/2021 8:45:00 AM 7.58 45.644 0.204 7.56 79.09 11.31
4/7/2021 9:00:00 AM 7.57 45.626 0.199 7.57 78.56 11.31
4/7/2021 9:15:00 AM 7.57 45.626 0.198 7.57 78.38 11.39
4/7/2021 9:30:00 AM 7.58 45.644 0.201 7.65 78.04 11.37
4/7/2021 9:45:00 AM 7.61 45.698 0.204 7.66 77.77 11.46
4/7/2021 10:00:00 AM 7.66 45.788 0.204 7.67 77.37 11.5
4/7/2021 10:15:00 AM 7.72 45.896 0.203 7.65 77 11.58
4/7/2021 10:30:00 AM 7.78 46.004 0.207 7.62 77.14 11.57
4/7/2021 10:45:00 AM 7.84 46.112 0.199 7.58 76.89 11.54
4/7/2021 11:00:00 AM 7.9 46.22 0.196 7.59 77.14 11.62
4/7/2021 11:15:00 AM 8.01 46.418 0.181 7.55 80.05 11.56
4/7/2021 11:30:00 AM 8.09 46.562 0.208 7.67 77.65 11.65
4/7/2021 11:45:00 AM 8.21 46.778 0.213 7.81 78.02 11.71
4/7/2021 12:00:00 PM 8.32 46.976 0.208 7.87 77.92 11.77
4/7/2021 12:15:00 PM 8.45 47.21 0.215 7.93 77.75 11.8
4/7/2021 12:30:00 PM 8.6 47.48 0.219 7.98 77.56 11.83
4/7/2021 12:45:00 PM 8.73 47.714 0.228 7.69 77.59 11.84
4/7/2021 1:00:00 PM 8.91 48.038 0.235 7.69 77.07 11.86
4/7/2021 1:15:00 PM 9.09 48.362 0.237 7.74 76.98 11.86
4/7/2021 1:30:00 PM 9.29 48.722 0.23 7.64 77.17 11.69
4/7/2021 1:45:00 PM 9.48 49.064 0.23 7.57 77.06 11.84
4/7/2021 2:00:00 PM 9.64 49.352 0.229 7.6 76.89 11.82
4/7/2021 2:15:00 PM 9.81 49.658 0.227 7.54 77.07 11.86
4/7/2021 2:30:00 PM 9.96 49.928 0.227 7.55 77.37 11.87
4/7/2021 2:45:00 PM 10.07 50.126 0.229 7.64 77.54 11.86
4/7/2021 3:00:00 PM 10.18 50.324 0.233 7.58 77.21 11.86
4/7/2021 3:15:00 PM 10.3 50.54 0.235 7.41 77.55 11.86
4/7/2021 3:30:00 PM 10.41 50.738 0.236 7.48 77.18 11.87
4/7/2021 3:45:00 PM 10.52 50.936 0.24 7.4 77.3 11.85
4/7/2021 4:00:00 PM 10.63 51.134 0.241 7.47 77.35 11.86
4/7/2021 4:15:00 PM 10.73 51.314 0.237 7.42 77.55 11.72
4/7/2021 4:30:00 PM 10.81 51.458 0.237 7.31 77.35 11.68
4/7/2021 4:45:00 PM 10.88 51.584 0.228 7.4 76.79 11.83
4/7/2021 5:00:00 PM 10.93 51.674 0.195 7.64 77.99 11.7
4/7/2021 5:15:00 PM 10.98 51.764 0.218 7.36 76.04 11.65
4/7/2021 5:30:00 PM 11.02 51.836 0.216 7.84 76.72 11.79
4/7/2021 5:45:00 PM 11.03 51.854 0.223 7.9 76.93 11.77
4/7/2021 6:00:00 PM 11.04 51.872 0.228 7.89 77.01 11.78
4/7/2021 6:15:00 PM 11.03 51.854 0.232 7.88 77.21 11.77
4/7/2021 6:30:00 PM 11.02 51.836 0.231 7.98 77.39 11.76
4/7/2021 6:45:00 PM 10.99 51.782 0.229 7.93 77.55 11.71
4/7/2021 7:00:00 PM 10.95 51.71 0.231 7.76 77.94 11.69
4/7/2021 7:15:00 PM 10.91 51.638 0.219 7.74 77.83 11.28
4/7/2021 7:30:00 PM 10.86 51.548 0.193 7.53 77.8 11.45
4/7/2021 7:45:00 PM 10.81 51.458 0.197 7.7 77.47 11.32
4/7/2021 8:00:00 PM 10.76 51.368 0.198 7.65 77.51 11.41
4/7/2021 8:15:00 PM 10.72 51.296 0.202 7.72 77.45 11.26
4/7/2021 8:30:00 PM 10.68 51.224 0.206 7.85 77.12 11.24
4/7/2021 8:45:00 PM 10.65 51.17 0.214 7.79 77.15 11.29
4/7/2021 9:00:00 PM 10.62 51.116 0.221 7.65 76.97 11.25
4/7/2021 9:15:00 PM 10.6 51.08 0.23 7.69 77.27 11.23
4/7/2021 9:30:00 PM 10.58 51.044 0.236 7.75 76.97 11.19
4/7/2021 9:45:00 PM 10.56 51.008 0.245 7.67 77.04 11.07
4/7/2021 10:00:00 PM 10.54 50.972 0.253 7.74 76.8 11
4/7/2021 10:15:00 PM 10.53 50.954 0.264 8.08 76.96 10.99
4/7/2021 10:30:00 PM 10.53 50.954 0.269 7.33 77.12 11.04
4/7/2021 10:45:00 PM 10.52 50.936 0.279 7.62 77.08 11.02
4/7/2021 11:00:00 PM 10.52 50.936 0.286 7.61 77.29 11.03
4/7/2021 11:15:00 PM 10.52 50.936 0.293 7.74 77.41 11.04
4/7/2021 11:30:00 PM 10.52 50.936 0.3 7.73 77.44 10.84
4/7/2021 11:45:00 PM 10.52 50.936 0.309 7.74 76.99 10.89
4/8/2021 12:00:00 AM 10.52 50.936 0.317 7.72 77.29 10.9
4/8/2021 12:15:00 AM 10.52 50.936 0.325 7.75 77.31 10.96
4/8/2021 12:30:00 AM 10.52 50.936 0.332 7.55 77.13 10.75
4/8/2021 12:45:00 AM 10.51 50.918 0.332 7.72 76.58 10.91
4/8/2021 1:00:00 AM 10.49 50.882 0.346 7.74 76.66 10.96
4/8/2021 1:15:00 AM 10.48 50.864 0.355 7.73 76.53 10.93
4/8/2021 1:30:00 AM 10.46 50.828 0.359 7.73 76.48 10.81
4/8/2021 1:45:00 AM 10.44 50.792 0.363 7.74 76.36 10.84
4/8/2021 2:00:00 AM 10.41 50.738 0.373 7.74 76.57 10.84
4/8/2021 2:15:00 AM 10.38 50.684 0.254 7.67 74.58 10.85
4/8/2021 2:30:00 AM 10.34 50.612 0.25 7.72 75.97 10.82
4/8/2021 2:45:00 AM 10.3 50.54 0.232 7.77 77.27 10.94
4/8/2021 3:00:00 AM 10.25 50.45 0.225 7.76 77.85 10.85
4/8/2021 3:15:00 AM 10.19 50.342 0.219 7.75 77.65 10.64
4/8/2021 3:30:00 AM 10.14 50.252 0.216 7.76 78.4 10.9
4/8/2021 3:45:00 AM 10.08 50.144 0.218 7.74 79.01 10.89
4/8/2021 4:00:00 AM 10.01 50.018 0.215 7.76 78.78 10.9
4/8/2021 4:15:00 AM 9.95 49.91 0.211 7.75 79.44 10.92
4/8/2021 4:30:00 AM 9.88 49.784 0.213 7.75 79.51 10.88
4/8/2021 4:45:00 AM 9.81 49.658 0.21 7.74 80.13 10.87
4/8/2021 5:00:00 AM 9.74 49.532 0.209 7.75 80.52 10.93
4/8/2021 5:15:00 AM 9.67 49.406 0.208 7.76 81.16 10.91
4/8/2021 5:30:00 AM 9.59 49.262 0.206 7.74 80.74 10.91
4/8/2021 5:45:00 AM 9.51 49.118 0.206 7.74 81.08 10.89
4/8/2021 6:00:00 AM 9.43 48.974 0.203 7.74 82.14 10.92
4/8/2021 6:15:00 AM 9.34 48.812 0.202 7.74 82.25 10.92
4/8/2021 6:30:00 AM 9.26 48.668 0.209 7.73 83.73 10.92
4/8/2021 6:45:00 AM 9.18 48.524 0.202 7.71 78.35 10.91
4/8/2021 7:00:00 AM 9.11 48.398 0.2 7.73 79.45 10.82
4/8/2021 7:15:00 AM 9.02 48.236 0.204 7.72 82.05 10.81
4/8/2021 7:30:00 AM 8.94 48.092 0.207 7.68 79.69 10.83
4/8/2021 7:45:00 AM 8.87 47.966 0.195 7.69 67.86 10.88
4/8/2021 8:00:00 AM 8.81 47.858 0.196 7.7 65.23 10.81
4/8/2021 8:15:00 AM 8.76 47.768 0.204 7.7 64.03 10.7
4/8/2021 8:30:00 AM 8.72 47.696 0.195 7.71 62.97 10.96
4/8/2021 8:45:00 AM 8.69 47.642 0.192 7.71 63.37 10.69
4/8/2021 9:00:00 AM 8.68 47.624 0.188 7.71 66.98 10.94
4/8/2021 9:15:00 AM 8.69 47.642 0.186 7.72 80.92 11
4/8/2021 9:30:00 AM 8.71 47.678 0.185 7.72 62.8 10.91
4/8/2021 9:45:00 AM 8.74 47.732 0.184 7.74 70.75 10.92
4/8/2021 10:00:00 AM 8.79 47.822 0.182 7.74 107.04 11.11
4/8/2021 10:15:00 AM 8.84 47.912 0.183 7.74 84.29 11.08
4/8/2021 10:30:00 AM 8.91 48.038 0.18 7.72 122.28 11.24
4/8/2021 10:45:00 AM 9 48.2 0.177 7.72 160.6 11.16
4/8/2021 11:00:00 AM 9.09 48.362 0.177 7.74 168.57 11.29
4/8/2021 11:15:00 AM 9.2 48.56 0.178 7.77 186.66 11.23
4/8/2021 11:30:00 AM 9.31 48.758 0.177 7.76 160.83 11.26
4/8/2021 11:45:00 AM 9.44 48.992 0.174 7.8 145.66 11.27
4/8/2021 12:00:00 PM 9.58 49.244 0.175 7.81 145.35 11.37
4/8/2021 12:15:00 PM 9.73 49.514 0.172 7.81 105.29 11.43
4/8/2021 12:30:00 PM 9.87 49.766 0.173 7.83 93.48 11.39
4/8/2021 12:45:00 PM 10.04 50.072 0.172 7.82 139.56 11.57
4/8/2021 1:00:00 PM 10.2 50.36 0.172 7.84 137.67 11.56
4/8/2021 1:15:00 PM 10.35 50.63 0.171 7.85 143.64 11.55
4/8/2021 1:30:00 PM 10.5 50.9 0.175 7.86 107 11.33
4/8/2021 1:45:00 PM 10.65 51.17 0.185 7.9 164.73 11.55
4/8/2021 2:00:00 PM 10.81 51.458 0.179 7.96 168.37 11.61
4/8/2021 2:15:00 PM 10.95 51.71 0.176 7.93 168.88 11.61
4/8/2021 2:30:00 PM 11.09 51.962 0.174 7.94 168.31 11.64
4/8/2021 2:45:00 PM 11.23 52.214 0.174 7.94 159.58 11.58
4/8/2021 3:00:00 PM 11.34 52.412 0.176 7.94 119.46 11.54
4/8/2021 3:15:00 PM 11.45 52.61 0.176 7.94 144.36 11.47
4/8/2021 3:30:00 PM 11.55 52.79 0.175 7.95 148.45 11.61
4/8/2021 3:45:00 PM 11.66 52.988 0.175 7.97 144.3 11.56
4/8/2021 4:00:00 PM 11.74 53.132 0.173 7.97 116.16 11.54
4/8/2021 4:15:00 PM 11.81 53.258 0.176 7.99 137.39 11.51
4/8/2021 4:30:00 PM 11.87 53.366 0.175 7.99 104.4 11.5
4/8/2021 4:45:00 PM 12.01 53.618 0.189 8.11 5.48 11.88
4/8/2021 5:00:00 PM 12.02 53.636 0.19 8.13 5.7 11.96
4/8/2021 5:15:00 PM 12.04 53.672 0.19 8.14 5.53 11.97
4/8/2021 5:30:00 PM 12.06 53.708 0.19 8.14 5.1 11.96
4/8/2021 5:45:00 PM 12.06 53.708 0.19 8.15 5.12 11.96
4/8/2021 6:00:00 PM 12.04 53.672 0.19 8.15 5.43 11.96
4/8/2021 6:15:00 PM 12.01 53.618 0.19 8.16 5.79 11.94
4/8/2021 6:30:00 PM 11.97 53.546 0.19 8.16 5.16 11.92
4/8/2021 6:45:00 PM 11.92 53.456 0.19 8.15 4.93 11.88
4/8/2021 7:00:00 PM 11.87 53.366 0.19 8.15 5.22 11.85
4/8/2021 7:15:00 PM 11.82 53.276 0.19 8.14 5.44 11.79
4/8/2021 7:30:00 PM 11.76 53.168 0.19 8.12 5.09 11.73
4/8/2021 7:45:00 PM 11.71 53.078 0.19 8.1 5.17 11.67
4/8/2021 8:00:00 PM 11.66 52.988 0.19 8.09 6.06 11.6
4/8/2021 8:15:00 PM 11.62 52.916 0.19 8.07 6.29 11.54
4/8/2021 8:30:00 PM 11.58 52.844 0.19 8.05 6.12 11.48
4/8/2021 8:45:00 PM 11.56 52.808 0.19 8.04 6.16 11.43
4/8/2021 9:00:00 PM 11.54 52.772 0.19 8.03 5.9 11.38
4/8/2021 9:15:00 PM 11.53 52.754 0.19 8.01 6.47 11.33
4/8/2021 9:30:00 PM 11.52 52.736 0.19 8 7.35 11.28
4/8/2021 9:45:00 PM 11.53 52.754 0.19 7.99 7.24 11.25
4/8/2021 10:00:00 PM 11.53 52.754 0.19 7.98 6.36 11.2
4/8/2021 10:15:00 PM 11.54 52.772 0.19 7.97 6.28 11.16
4/8/2021 10:30:00 PM 11.55 52.79 0.19 7.96 6.63 11.1
4/8/2021 10:45:00 PM 11.57 52.826 0.191 7.95 5.77 11.08
4/8/2021 11:00:00 PM 11.6 52.88 0.19 7.95 6.34 11.05
4/8/2021 11:15:00 PM 11.62 52.916 0.191 7.94 6.56 11.01
4/8/2021 11:30:00 PM 11.65 52.97 0.191 7.93 6.43 10.99
4/8/2021 11:45:00 PM 11.68 53.024 0.191 7.93 6.85 10.96
4/9/2021 12:00:00 AM 11.71 53.078 0.191 7.93 6.63 10.94
4/9/2021 12:15:00 AM 11.74 53.132 0.191 7.92 7.93 10.93
4/9/2021 12:30:00 AM 11.77 53.186 0.191 7.93 7.19 10.92
4/9/2021 12:45:00 AM 11.79 53.222 0.191 7.93 6.79 10.91
4/9/2021 1:00:00 AM 11.81 53.258 0.191 7.93 6.21 10.9
4/9/2021 1:15:00 AM 11.84 53.312 0.191 7.93 5.97 10.89
4/9/2021 1:30:00 AM 11.84 53.312 0.191 7.93 6.4 10.87
4/9/2021 1:45:00 AM 11.86 53.348 0.191 7.93 6.69 10.86
4/9/2021 2:00:00 AM 11.87 53.366 0.191 7.93 7.16 10.84
4/9/2021 2:15:00 AM 11.87 53.366 0.191 7.93 7.43 10.82
4/9/2021 2:30:00 AM 11.87 53.366 0.191 7.93 6.46 10.81
4/9/2021 2:45:00 AM 11.87 53.366 0.191 7.92 6.35 10.79
4/9/2021 3:00:00 AM 11.87 53.366 0.191 7.92 7.14 10.77
4/9/2021 3:15:00 AM 11.85 53.33 0.191 7.92 6.77 10.76
4/9/2021 3:30:00 AM 11.84 53.312 0.191 7.92 6.34 10.74
4/9/2021 3:45:00 AM 11.82 53.276 0.191 7.91 6.19 10.72
4/9/2021 4:00:00 AM 11.79 53.222 0.191 7.91 6.95 10.71
4/9/2021 4:15:00 AM 11.77 53.186 0.191 7.91 7.38 10.69
4/9/2021 4:30:00 AM 11.73 53.114 0.191 7.9 6.85 10.68
4/9/2021 4:45:00 AM 11.7 53.06 0.191 7.9 7.19 10.68
4/9/2021 5:00:00 AM 11.65 52.97 0.191 7.9 6.92 10.67
4/9/2021 5:15:00 AM 11.61 52.898 0.191 7.89 7.23 10.66
4/9/2021 5:30:00 AM 11.55 52.79 0.191 7.89 6.33 10.65
4/9/2021 5:45:00 AM 11.5 52.7 0.191 7.89 7.07 10.64
4/9/2021 6:00:00 AM 11.44 52.592 0.191 7.88 6.39 10.63
4/9/2021 6:15:00 AM 11.37 52.466 0.191 7.88 6.16 10.62
4/9/2021 6:30:00 AM 11.3 52.34 0.191 7.87 6.52 10.61
4/9/2021 6:45:00 AM 11.23 52.214 0.192 7.87 6.26 10.6
4/9/2021 7:00:00 AM 11.16 52.088 0.192 7.86 6.07 10.6
4/9/2021 7:15:00 AM 11.09 51.962 0.192 7.86 6.81 10.59
4/9/2021 7:30:00 AM 11.02 51.836 0.192 7.86 7.24 10.6
4/9/2021 7:45:00 AM 10.95 51.71 0.192 7.86 5.92 10.62
4/9/2021 8:00:00 AM 10.88 51.584 0.192 7.85 6.69 10.64
4/9/2021 8:15:00 AM 10.82 51.476 0.192 7.86 7.22 10.66
4/9/2021 8:30:00 AM 10.76 51.368 0.192 7.86 5.52 10.71
4/9/2021 8:45:00 AM 10.72 51.296 0.192 7.87 5.38 10.78
4/9/2021 9:00:00 AM 10.7 51.26 0.192 7.88 7.06 10.84
4/9/2021 9:15:00 AM 10.69 51.242 0.192 7.89 5.51 10.9
4/9/2021 9:30:00 AM 10.7 51.26 0.192 7.9 11.8 10.96
4/9/2021 9:45:00 AM 10.71 51.278 0.192 7.91 5.83 11.01
4/9/2021 10:00:00 AM 10.72 51.296 0.192 7.92 6.28 11.07
4/9/2021 10:15:00 AM 10.75 51.35 0.192 7.93 6.27 11.12
4/9/2021 10:30:00 AM 10.73 51.314 0.192 7.94 6.36 11.17
4/9/2021 10:45:00 AM 10.72 51.296 0.192 7.95 6.05 11.21
4/9/2021 11:00:00 AM 10.68 51.224 0.192 7.96 5.17 11.24
4/9/2021 11:15:00 AM 10.63 51.134 0.192 7.97 5.1 11.26
4/9/2021 11:30:00 AM 10.6 51.08 0.192 7.97 4.95 11.29
4/9/2021 11:45:00 AM 10.58 51.044 0.192 7.98 5.24 11.33
4/9/2021 12:00:00 PM 10.57 51.026 0.192 7.99 5.32 11.37
4/9/2021 12:15:00 PM 10.56 51.008 0.192 8 5.87 11.41
4/9/2021 12:30:00 PM 10.56 51.008 0.192 8.01 4.78 11.44
4/9/2021 12:45:00 PM 10.56 51.008 0.192 8.02 4.96 11.47
4/9/2021 1:00:00 PM 10.58 51.044 0.192 8.03 5.71 11.5
4/9/2021 1:15:00 PM 10.59 51.062 0.192 8.04 5.48 11.53
4/9/2021 1:30:00 PM 10.59 51.062 0.192 8.04 5.33 11.56
4/9/2021 1:45:00 PM 10.63 51.134 0.192 8.05 5.15 11.58
4/9/2021 2:00:00 PM 10.66 51.188 0.192 8.06 5.09 11.6
4/9/2021 2:15:00 PM 10.71 51.278 0.192 8.07 5.3 11.61
4/9/2021 2:30:00 PM 10.75 51.35 0.192 8.08 5.26 11.64
4/9/2021 2:45:00 PM 10.77 51.386 0.192 8.08 5.13 11.66
4/9/2021 3:00:00 PM 10.78 51.404 0.193 8.09 5.07 11.66
4/9/2021 3:15:00 PM 10.8 51.44 0.193 8.1 5.19 11.67
4/9/2021 3:30:00 PM 10.81 51.458 0.193 8.11 5.64 11.68
4/9/2021 3:45:00 PM 10.83 51.494 0.193 8.11 5.14 11.68
4/9/2021 4:00:00 PM 10.85 51.53 0.193 8.12 5.1 11.69
4/9/2021 4:15:00 PM 10.87 51.566 0.193 8.13 5.01 11.7
4/9/2021 4:30:00 PM 10.91 51.638 0.193 8.14 4.96 11.7
4/9/2021 4:45:00 PM 10.95 51.71 0.193 8.14 4.64 11.71
4/9/2021 5:00:00 PM 11 51.8 0.193 8.15 4.79 11.72
4/9/2021 5:15:00 PM 11.05 51.89 0.193 8.16 4.98 11.73
4/9/2021 5:30:00 PM 11.11 51.998 0.193 8.17 4.94 11.74
4/9/2021 5:45:00 PM 11.19 52.142 0.193 8.18 4.68 11.75
4/9/2021 6:00:00 PM 11.24 52.232 0.193 8.19 4.7 11.76
4/9/2021 6:15:00 PM 11.29 52.322 0.193 8.2 4.76 11.76
4/9/2021 6:30:00 PM 11.3 52.34 0.193 8.2 5.42 11.74
4/9/2021 6:45:00 PM 11.31 52.358 0.193 8.19 5.05 11.71
4/9/2021 7:00:00 PM 11.31 52.358 0.193 8.19 4.8 11.65
4/9/2021 7:15:00 PM 11.3 52.34 0.193 8.17 5.69 11.61
4/9/2021 7:30:00 PM 11.3 52.34 0.193 8.16 5.07 11.55
4/9/2021 7:45:00 PM 11.29 52.322 0.193 8.14 4.97 11.49
4/9/2021 8:00:00 PM 11.28 52.304 0.193 8.12 10.9 11.41
4/9/2021 8:15:00 PM 11.27 52.286 0.193 8.1 6.04 11.32
4/9/2021 8:30:00 PM 11.27 52.286 0.193 8.08 5.86 11.27
4/9/2021 8:45:00 PM 11.27 52.286 0.193 8.07 5.72 11.22
4/9/2021 9:00:00 PM 11.27 52.286 0.193 8.05 5.57 11.16
4/9/2021 9:15:00 PM 11.28 52.304 0.193 8.04 5.72 11.12
4/9/2021 9:30:00 PM 11.29 52.322 0.193 8.03 9.38 11.08
4/9/2021 9:45:00 PM 11.3 52.34 0.193 8.02 5.51 11.04
4/9/2021 10:00:00 PM 11.3 52.34 0.193 8.01 5.36 10.99
4/9/2021 10:15:00 PM 11.3 52.34 0.193 7.99 6.03 10.96
4/9/2021 10:30:00 PM 11.31 52.358 0.193 7.99 5.25 10.92
4/9/2021 10:45:00 PM 11.32 52.376 0.193 7.98 6.48 10.89
4/9/2021 11:00:00 PM 11.34 52.412 0.193 7.97 6.43 10.86
4/9/2021 11:15:00 PM 11.36 52.448 0.193 7.96 7.13 10.83
4/9/2021 11:30:00 PM 11.37 52.466 0.193 7.94 5.64 10.79
4/9/2021 11:45:00 PM 11.39 52.502 0.193 7.94 5.61 10.78
4/10/2021 12:00:00 AM 11.41 52.538 0.193 7.93 5.96 10.76
4/10/2021 12:15:00 AM 11.44 52.592 0.193 7.94 8.88 10.74
4/10/2021 12:30:00 AM 11.47 52.646 0.193 7.93 5.06 10.72
4/10/2021 12:45:00 AM 11.51 52.718 0.193 7.93 9.14 10.71
4/10/2021 1:00:00 AM 11.54 52.772 0.193 7.94 7.46 10.7
4/10/2021 1:15:00 AM 11.57 52.826 0.193 7.93 6.05 10.69
4/10/2021 1:30:00 AM 11.61 52.898 0.193 7.94 6.58 10.68
4/10/2021 1:45:00 AM 11.64 52.952 0.193 7.93 6.15 10.67
4/10/2021 2:00:00 AM 11.67 53.006 0.193 7.93 7.13 10.66
4/10/2021 2:15:00 AM 11.69 53.042 0.193 7.93 8.28 10.64
4/10/2021 2:30:00 AM 11.71 53.078 0.193 7.93 5.87 10.63
4/10/2021 2:45:00 AM 11.74 53.132 0.193 7.93 7.1 10.61
4/10/2021 3:00:00 AM 11.76 53.168 0.193 7.93 5.78 10.59
4/10/2021 3:15:00 AM 11.77 53.186 0.193 7.92 7.31 10.57
4/10/2021 3:30:00 AM 11.78 53.204 0.194 7.92 6.39 10.55
4/10/2021 3:45:00 AM 11.8 53.24 0.194 7.92 7.39 10.53
4/10/2021 4:00:00 AM 11.8 53.24 0.194 7.91 9.4 10.5
4/10/2021 4:15:00 AM 11.81 53.258 0.194 7.91 6.91 10.48
4/10/2021 4:30:00 AM 11.81 53.258 0.194 7.91 9.99 10.46
4/10/2021 4:45:00 AM 11.81 53.258 0.194 7.9 6.96 10.44
4/10/2021 5:00:00 AM 11.8 53.24 0.194 7.9 7.8 10.42
4/10/2021 5:15:00 AM 11.79 53.222 0.194 7.89 7.85 10.4
4/10/2021 5:30:00 AM 11.78 53.204 0.194 7.89 6.83 10.37
4/10/2021 5:45:00 AM 11.77 53.186 0.194 7.88 7.53 10.36
4/10/2021 6:00:00 AM 11.76 53.168 0.195 7.87 6.6 10.33
4/10/2021 6:15:00 AM 11.74 53.132 0.195 7.86 6.75 10.31
4/10/2021 6:30:00 AM 11.72 53.096 0.195 7.86 7.61 10.3
4/10/2021 6:45:00 AM 11.7 53.06 0.195 7.85 7.15 10.29
4/10/2021 7:00:00 AM 11.68 53.024 0.195 7.85 6.22 10.28
4/10/2021 7:15:00 AM 11.65 52.97 0.195 7.85 6.39 10.27
4/10/2021 7:30:00 AM 11.63 52.934 0.195 7.85 5.83 10.27
4/10/2021 7:45:00 AM 11.61 52.898 0.196 7.85 6.09 10.27
4/10/2021 8:00:00 AM 11.59 52.862 0.196 7.85 5.89 10.28
4/10/2021 8:15:00 AM 11.58 52.844 0.196 7.85 61.84 10.3
4/10/2021 8:30:00 AM 11.56 52.808 0.196 7.85 6.46 10.33
4/10/2021 8:45:00 AM 11.55 52.79 0.196 7.85 7.42 10.37
4/10/2021 9:00:00 AM 11.54 52.772 0.196 7.86 6.13 10.41
4/10/2021 9:15:00 AM 11.53 52.754 0.196 7.87 6.41 10.46
4/10/2021 9:30:00 AM 11.52 52.736 0.196 7.88 6.21 10.5
4/10/2021 9:45:00 AM 11.52 52.736 0.196 7.89 5.32 10.57
4/10/2021 10:00:00 AM 11.53 52.754 0.196 7.9 6.96 10.63
4/10/2021 10:15:00 AM 11.53 52.754 0.196 7.92 10.69 10.7
4/10/2021 10:30:00 AM 11.56 52.808 0.196 7.93 6.08 10.77
4/10/2021 10:45:00 AM 11.6 52.88 0.196 7.95 5.94 10.85
4/10/2021 11:00:00 AM 11.66 52.988 0.196 7.97 5.38 10.94
4/10/2021 11:15:00 AM 11.72 53.096 0.196 7.99 6.79 11.02
4/10/2021 11:30:00 AM 11.85 53.33 0.196 8.01 5.96 11.1
4/10/2021 11:45:00 AM 12.01 53.618 0.196 8.04 4.89 11.16
4/10/2021 12:00:00 PM 12.2 53.96 0.196 8.05 8.28 11.23
4/10/2021 12:15:00 PM 12.35 54.23 0.196 8.08 5.93 11.3
4/10/2021 12:30:00 PM 12.5 54.5 0.196 8.1 6.25 11.37
4/10/2021 12:45:00 PM 12.64 54.752 0.196 8.12 7.04 11.42
4/10/2021 1:00:00 PM 12.79 55.022 0.196 8.14 5.52 11.48
4/10/2021 1:15:00 PM 12.93 55.274 0.196 8.16 7.27 11.53
4/10/2021 1:30:00 PM 13.05 55.49 0.196 8.18 5.91 11.56
4/10/2021 1:45:00 PM 13.15 55.67 0.196 8.2 5.04 11.61
4/10/2021 2:00:00 PM 13.28 55.904 0.196 8.22 4.89 11.64
4/10/2021 2:15:00 PM 13.38 56.084 0.196 8.24 5.4 11.68
4/10/2021 2:30:00 PM 13.47 56.246 0.196 8.26 8.67 11.71
4/10/2021 2:45:00 PM 13.57 56.426 0.196 8.27 5.41 11.74
4/10/2021 3:00:00 PM 13.66 56.588 0.196 8.29 5.83 11.77
4/10/2021 3:15:00 PM 13.71 56.678 0.196 8.3 6.73 11.8
4/10/2021 3:30:00 PM 13.75 56.75 0.196 8.32 4.82 11.82
4/10/2021 3:45:00 PM 13.77 56.786 0.196 8.33 4.9 11.84
4/10/2021 4:00:00 PM 13.78 56.804 0.196 8.35 4.65 11.86
4/10/2021 4:15:00 PM 13.81 56.858 0.196 8.35 6.05 11.88
4/10/2021 4:30:00 PM 13.81 56.858 0.196 8.37 6.58 11.89
4/10/2021 4:45:00 PM 13.8 56.84 0.196 8.38 5.11 11.91
4/10/2021 5:00:00 PM 13.78 56.804 0.196 8.39 5.09 11.91
4/10/2021 5:15:00 PM 13.74 56.732 0.196 8.4 5.39 11.91
4/10/2021 5:30:00 PM 13.68 56.624 0.196 8.4 5.8 11.9
4/10/2021 5:45:00 PM 13.62 56.516 0.196 8.41 4.61 11.89
4/10/2021 6:00:00 PM 13.58 56.444 0.196 8.41 4.69 11.88
4/10/2021 6:15:00 PM 13.52 56.336 0.196 8.4 4.76 11.85
4/10/2021 6:30:00 PM 13.46 56.228 0.196 8.37 5.97 11.8
4/10/2021 6:45:00 PM 13.4 56.12 0.196 8.36 4.6 11.75
4/10/2021 7:00:00 PM 13.34 56.012 0.196 8.35 4.66 11.7
4/10/2021 7:15:00 PM 13.28 55.904 0.196 8.33 5.12 11.63
4/10/2021 7:30:00 PM 13.23 55.814 0.196 8.31 4.77 11.55
4/10/2021 7:45:00 PM 13.18 55.724 0.196 8.28 4.73 11.47
4/10/2021 8:00:00 PM 13.13 55.634 0.196 8.25 4.84 11.37
4/10/2021 8:15:00 PM 13.1 55.58 0.196 8.22 6.11 11.3
4/10/2021 8:30:00 PM 13.06 55.508 0.196 8.2 5.4 11.22
4/10/2021 8:45:00 PM 13.03 55.454 0.196 8.17 7 11.15
4/10/2021 9:00:00 PM 13.01 55.418 0.196 8.15 5.6 11.09
4/10/2021 9:15:00 PM 12.98 55.364 0.196 8.13 6.91 11.03
4/10/2021 9:30:00 PM 12.96 55.328 0.196 8.1 5.88 10.97
4/10/2021 9:45:00 PM 12.95 55.31 0.196 8.08 6.43 10.91
4/10/2021 10:00:00 PM 12.93 55.274 0.196 8.06 6.83 10.85
4/10/2021 10:15:00 PM 12.91 55.238 0.196 8.05 6.9 10.8
4/10/2021 10:30:00 PM 12.9 55.22 0.196 8.03 5.95 10.75
4/10/2021 10:45:00 PM 12.89 55.202 0.196 8.02 6.71 10.7
4/10/2021 11:00:00 PM 12.88 55.184 0.196 8 7.13 10.66
4/10/2021 11:15:00 PM 12.87 55.166 0.196 8 5.48 10.62
4/10/2021 11:30:00 PM 12.87 55.166 0.196 7.99 8.52 10.6
4/10/2021 11:45:00 PM 12.87 55.166 0.196 7.98 5.6 10.57
4/11/2021 12:00:00 AM 12.88 55.184 0.196 7.97 5.99 10.55
4/11/2021 12:15:00 AM 12.88 55.184 0.196 7.97 7.39 10.54
4/11/2021 12:30:00 AM 12.89 55.202 0.196 7.97 5.96 10.52
4/11/2021 12:45:00 AM 12.91 55.238 0.196 7.96 6.13 10.5
4/11/2021 1:00:00 AM 12.92 55.256 0.196 7.96 6.85 10.5
4/11/2021 1:15:00 AM 12.94 55.292 0.196 7.96 10.79 10.49
4/11/2021 1:30:00 AM 12.95 55.31 0.196 7.96 5.65 10.48
4/11/2021 1:45:00 AM 12.97 55.346 0.196 7.96 6 10.46
4/11/2021 2:00:00 AM 13 55.4 0.196 7.96 6.4 10.46
4/11/2021 2:15:00 AM 13.02 55.436 0.196 7.96 5.39 10.44
4/11/2021 2:30:00 AM 13.03 55.454 0.196 7.96 6.41 10.43
4/11/2021 2:45:00 AM 13.05 55.49 0.196 7.96 5.98 10.41
4/11/2021 3:00:00 AM 13.07 55.526 0.196 7.96 5.83 10.39
4/11/2021 3:15:00 AM 13.09 55.562 0.196 7.96 10.14 10.38
4/11/2021 3:30:00 AM 13.09 55.562 0.196 7.96 5.84 10.36
4/11/2021 3:45:00 AM 13.11 55.598 0.197 7.96 5.83 10.33
4/11/2021 4:00:00 AM 13.12 55.616 0.197 7.96 5.16 10.32
4/11/2021 4:15:00 AM 13.14 55.652 0.197 7.95 5.89 10.3
4/11/2021 4:30:00 AM 13.14 55.652 0.197 7.95 6.04 10.28
4/11/2021 4:45:00 AM 13.15 55.67 0.197 7.95 5.17 10.26
4/11/2021 5:00:00 AM 13.16 55.688 0.197 7.95 5.47 10.24
4/11/2021 5:15:00 AM 13.16 55.688 0.197 7.94 5.81 10.22
4/11/2021 5:30:00 AM 13.16 55.688 0.197 7.94 6.49 10.2
4/11/2021 5:45:00 AM 13.16 55.688 0.197 7.94 5.85 10.18
4/11/2021 6:00:00 AM 13.16 55.688 0.197 7.94 6.05 10.16
4/11/2021 6:15:00 AM 13.15 55.67 0.197 7.93 6.28 10.14
4/11/2021 6:30:00 AM 13.14 55.652 0.197 7.93 5.46 10.12
4/11/2021 6:45:00 AM 13.14 55.652 0.197 7.93 5.34 10.1
4/11/2021 7:00:00 AM 13.13 55.634 0.197 7.92 6.35 10.08
4/11/2021 7:15:00 AM 13.11 55.598 0.197 7.92 5.53 10.07
4/11/2021 7:30:00 AM 13.1 55.58 0.197 7.92 5.61 10.06
4/11/2021 7:45:00 AM 13.1 55.58 0.198 7.91 5.98 10.07
4/11/2021 8:00:00 AM 13.09 55.562 0.198 7.92 5.01 10.09
4/11/2021 8:15:00 AM 13.1 55.58 0.198 7.93 4.6 10.13
4/11/2021 8:30:00 AM 13.11 55.598 0.198 7.95 4.56 10.2
4/11/2021 8:45:00 AM 13.12 55.616 0.198 7.96 4.67 10.28
4/11/2021 9:00:00 AM 13.14 55.652 0.198 7.98 4.33 10.36
4/11/2021 9:15:00 AM 13.16 55.688 0.198 8 5.42 10.43
4/11/2021 9:30:00 AM 13.16 55.688 0.198 8.02 5.04 10.48
4/11/2021 9:45:00 AM 13.16 55.688 0.198 8.02 5.49 10.53
4/11/2021 10:00:00 AM 13.15 55.67 0.198 8.04 5.31 10.56
4/11/2021 10:15:00 AM 13.14 55.652 0.198 8.05 4.56 10.58
4/11/2021 10:30:00 AM 13.13 55.634 0.198 8.05 5.33 10.62
4/11/2021 10:45:00 AM 13.11 55.598 0.198 8.07 6.02 10.66
4/11/2021 11:00:00 AM 13.1 55.58 0.198 8.08 7.15 10.71
4/11/2021 11:15:00 AM 13.09 55.562 0.198 8.09 4.48 10.75
4/11/2021 11:30:00 AM 13.07 55.526 0.198 8.11 4.75 10.8
4/11/2021 11:45:00 AM 13.05 55.49 0.199 8.12 5.09 10.84
4/11/2021 12:00:00 PM 13.04 55.472 0.201 8.13 4.39 10.87
4/11/2021 12:15:00 PM 13.02 55.436 0.201 8.13 5.51 10.91
4/11/2021 12:30:00 PM 13 55.4 0.203 8.14 4.45 10.93
4/11/2021 12:45:00 PM 13.01 55.418 0.203 8.15 4.17 10.96
4/11/2021 1:00:00 PM 12.98 55.364 0.202 8.16 5.16 10.98
4/11/2021 1:15:00 PM 12.98 55.364 0.201 8.17 4.36 11.01
4/11/2021 1:30:00 PM 12.98 55.364 0.201 8.18 4.57 11.04
4/11/2021 1:45:00 PM 12.96 55.328 0.201 8.18 5.75 11.06
4/11/2021 2:00:00 PM 12.95 55.31 0.201 8.19 4.39 11.08
4/11/2021 2:15:00 PM 12.93 55.274 0.2 8.2 4.17 11.11
4/11/2021 2:30:00 PM 12.92 55.256 0.199 8.2 4.45 11.13
4/11/2021 2:45:00 PM 12.93 55.274 0.199 8.21 4.21 11.16
4/11/2021 3:00:00 PM 12.94 55.292 0.199 8.19 4.97 11.19
4/11/2021 3:15:00 PM 12.94 55.292 0.199 8.2 4.23 11.23
4/11/2021 3:30:00 PM 12.93 55.274 0.199 8.2 4.46 11.25
4/11/2021 3:45:00 PM 12.93 55.274 0.138 8.23 4.64 11.25
4/11/2021 4:00:00 PM 12.92 55.256 0.199 8.23 4.17 11.27
4/11/2021 4:15:00 PM 12.91 55.238 0.199 8.24 4.49 11.27
4/11/2021 4:30:00 PM 12.89 55.202 0.199 8.24 4.06 11.26
4/11/2021 4:45:00 PM 12.88 55.184 0.199 8.24 4.17 11.28
4/11/2021 5:00:00 PM 12.87 55.166 0.199 8.25 4.79 11.27
4/11/2021 5:15:00 PM 12.86 55.148 0.199 8.24 4.92 11.25
4/11/2021 5:30:00 PM 12.85 55.13 0.199 8.23 4.97 11.23
4/11/2021 5:45:00 PM 12.84 55.112 0.199 8.22 4.52 11.2
4/11/2021 6:00:00 PM 12.83 55.094 0.199 8.22 4.28 11.17
4/11/2021 6:15:00 PM 12.82 55.076 0.2 8.2 5.32 11.13
4/11/2021 6:30:00 PM 12.82 55.076 0.2 8.19 4.88 11.09
4/11/2021 6:45:00 PM 12.81 55.058 0.199 8.18 5.01 11.06
4/11/2021 7:00:00 PM 12.8 55.04 0.199 8.16 6.21 11
4/11/2021 7:15:00 PM 12.79 55.022 0.199 8.14 5.14 10.93
4/11/2021 7:30:00 PM 12.78 55.004 0.199 8.12 4.8 10.89
4/11/2021 7:45:00 PM 12.77 54.986 0.199 8.1 4.86 10.82
4/11/2021 8:00:00 PM 12.76 54.968 0.199 8.08 5.54 10.75
4/11/2021 8:15:00 PM 12.75 54.95 0.199 8.05 9.57 10.68
4/11/2021 8:30:00 PM 12.75 54.95 0.199 8.03 6.29 10.63
4/11/2021 8:45:00 PM 12.75 54.95 0.199 8.01 6.55 10.56
4/11/2021 9:00:00 PM 12.75 54.95 0.199 8 6.65 10.51
4/11/2021 9:15:00 PM 12.75 54.95 0.199 7.98 5.42 10.46
4/11/2021 9:30:00 PM 12.76 54.968 0.199 7.97 6.28 10.42
4/11/2021 9:45:00 PM 12.76 54.968 0.199 7.95 5.89 10.37
4/11/2021 10:00:00 PM 12.77 54.986 0.2 7.95 5.35 10.34
4/11/2021 10:15:00 PM 12.78 55.004 0.2 7.94 4.82 10.31
4/11/2021 10:30:00 PM 12.78 55.004 0.2 7.93 6.71 10.28
4/11/2021 10:45:00 PM 12.79 55.022 0.2 7.92 8.21 10.26
4/11/2021 11:00:00 PM 12.79 55.022 0.2 7.92 5.13 10.24
4/11/2021 11:15:00 PM 12.79 55.022 0.2 7.92 4.76 10.23
4/11/2021 11:30:00 PM 12.8 55.04 0.199 7.91 7.01 10.22
4/11/2021 11:45:00 PM 12.8 55.04 0.199 7.91 8.56 10.2
4/12/2021 12:00:00 AM 12.8 55.04 0.199 7.91 7.16 10.19
4/12/2021 12:15:00 AM 12.8 55.04 0.199 7.91 6.7 10.19
4/12/2021 12:30:00 AM 12.8 55.04 0.199 7.91 5.63 10.19
4/12/2021 12:45:00 AM 12.79 55.022 0.199 7.91 5.6 10.18
4/12/2021 1:00:00 AM 12.79 55.022 0.199 7.92 4.69 10.18
4/12/2021 1:15:00 AM 12.79 55.022 0.199 7.92 6.34 10.18
4/12/2021 1:30:00 AM 12.79 55.022 0.199 7.92 6.78 10.18
4/12/2021 1:45:00 AM 12.78 55.004 0.199 7.92 5.12 10.18
4/12/2021 2:00:00 AM 12.77 54.986 0.199 7.92 5.1 10.17
4/12/2021 2:15:00 AM 12.77 54.986 0.199 7.93 5.81 10.17
4/12/2021 2:30:00 AM 12.76 54.968 0.199 7.93 5.97 10.16
4/12/2021 2:45:00 AM 12.75 54.95 0.199 7.93 5.97 10.14
4/12/2021 3:00:00 AM 12.74 54.932 0.198 7.93 5.99 10.14
4/12/2021 3:15:00 AM 12.73 54.914 0.198 7.93 7.6 10.13
4/12/2021 3:30:00 AM 12.72 54.896 0.198 7.93 6.63 10.13
4/12/2021 3:45:00 AM 12.7 54.86 0.198 7.93 5.48 10.1
4/12/2021 4:00:00 AM 12.7 54.86 0.198 7.92 6.65 10.11
4/12/2021 4:15:00 AM 12.7 54.86 0.198 7.92 6.06 10.09
4/12/2021 4:30:00 AM 12.69 54.842 0.197 7.92 6.11 10.07
4/12/2021 4:45:00 AM 12.67 54.806 0.197 7.92 7.31 10.07
4/12/2021 5:00:00 AM 12.67 54.806 0.197 7.92 5.4 10.05
4/12/2021 5:15:00 AM 12.66 54.788 0.197 7.92 5.81 10.03
4/12/2021 5:30:00 AM 12.65 54.77 0.197 7.91 5.74 10.02
4/12/2021 5:45:00 AM 12.64 54.752 0.197 7.91 7.26 10.01
4/12/2021 6:00:00 AM 12.63 54.734 0.197 7.9 7.06 9.99
4/12/2021 6:15:00 AM 12.61 54.698 0.197 7.9 6.81 9.97
4/12/2021 6:30:00 AM 12.6 54.68 0.197 7.9 6.52 9.96
4/12/2021 6:45:00 AM 12.58 54.644 0.197 7.89 5.77 9.94
4/12/2021 7:00:00 AM 12.56 54.608 0.197 7.89 6.22 9.93
4/12/2021 7:15:00 AM 12.53 54.554 0.197 7.88 6.05 9.91
4/12/2021 7:30:00 AM 12.51 54.518 0.197 7.88 5.08 9.89
4/12/2021 7:45:00 AM 12.47 54.446 0.197 7.87 5.25 9.89
4/12/2021 8:00:00 AM 12.45 54.41 0.197 7.87 5.87 9.88
4/12/2021 8:15:00 AM 12.43 54.374 0.197 7.87 5.47 9.88
4/12/2021 8:30:00 AM 12.39 54.302 0.197 7.87 4.96 9.89
4/12/2021 8:45:00 AM 12.36 54.248 0.197 7.87 4.97 9.91
4/12/2021 9:00:00 AM 12.33 54.194 0.197 7.87 5.04 9.92
4/12/2021 9:15:00 AM 12.3 54.14 0.197 7.87 5.18 9.93
4/12/2021 9:30:00 AM 12.27 54.086 0.197 7.88 5.19 9.95
4/12/2021 9:45:00 AM 12.25 54.05 0.197 7.88 4.71 9.99
4/12/2021 10:00:00 AM 12.22 53.996 0.197 7.89 4.57 10.05
4/12/2021 10:15:00 AM 12.19 53.942 0.197 7.9 4.5 10.1
4/12/2021 10:30:00 AM 12.16 53.888 0.197 7.91 5.99 10.15
4/12/2021 10:45:00 AM 12.13 53.834 0.197 7.92 6.39 10.18
4/12/2021 11:00:00 AM 12.1 53.78 0.197 7.92 5.33 10.23
4/12/2021 11:15:00 AM 12.07 53.726 0.197 7.93 5.71 10.26
4/12/2021 11:30:00 AM 12.04 53.672 0.197 7.94 4.82 10.3
4/12/2021 11:45:00 AM 12.01 53.618 0.197 7.95 4.87 10.35
4/12/2021 12:00:00 PM 11.99 53.582 0.197 7.96 4.99 10.39
4/12/2021 12:15:00 PM 11.97 53.546 0.197 7.97 4.84 10.44
4/12/2021 12:30:00 PM 11.95 53.51 0.197 7.99 4.85 10.49
4/12/2021 12:45:00 PM 11.93 53.474 0.197 8 4.57 10.55
4/12/2021 1:00:00 PM 11.92 53.456 0.197 8.01 4.71 10.6
4/12/2021 1:15:00 PM 11.92 53.456 0.197 8.03 4.38 10.67
4/12/2021 1:30:00 PM 11.92 53.456 0.196 8.05 4.47 10.74
4/12/2021 1:45:00 PM 11.91 53.438 0.196 8.06 4.55 10.8
4/12/2021 2:00:00 PM 11.91 53.438 0.196 8.08 5.29 10.85
4/12/2021 2:15:00 PM 11.89 53.402 0.196 8.09 5.56 10.89
4/12/2021 2:30:00 PM 11.87 53.366 0.196 8.1 5.23 10.92
4/12/2021 2:45:00 PM 11.85 53.33 0.196 8.12 4.54 10.95
4/12/2021 3:00:00 PM 11.82 53.276 0.196 8.12 4.68 10.97
4/12/2021 3:15:00 PM 11.79 53.222 0.196 8.13 5.74 10.96
4/12/2021 3:30:00 PM 11.78 53.204 0.196 8.13 4.86 10.99
4/12/2021 3:45:00 PM 11.77 53.186 0.196 8.14 4.74 11.03
4/12/2021 4:00:00 PM 11.77 53.186 0.196 8.16 4.23 11.08
4/12/2021 4:15:00 PM 11.76 53.168 0.196 8.17 5.38 11.11
4/12/2021 4:30:00 PM 11.75 53.15 0.196 8.17 4.47 11.11
4/12/2021 4:45:00 PM 11.73 53.114 0.197 8.17 4.35 11.11
4/12/2021 5:00:00 PM 11.71 53.078 0.196 8.17 4 11.08
4/12/2021 5:15:00 PM 11.68 53.024 0.196 8.16 4.28 11.07
4/12/2021 5:30:00 PM 11.66 52.988 0.196 8.15 4.22 11.04
4/12/2021 5:45:00 PM 11.64 52.952 0.195 8.14 4.07 11.02
4/12/2021 6:00:00 PM 11.62 52.916 0.195 8.13 4.35 10.99
4/12/2021 6:15:00 PM 11.6 52.88 0.194 8.12 4.21 10.97
4/12/2021 6:30:00 PM 11.59 52.862 0.194 8.11 5.33 10.94
4/12/2021 6:45:00 PM 11.57 52.826 0.194 8.1 4.15 10.91
4/12/2021 7:00:00 PM 11.56 52.808 0.195 8.08 4.05 10.88
4/12/2021 7:15:00 PM 11.55 52.79 0.194 8.07 4 10.84
4/12/2021 7:30:00 PM 11.53 52.754 0.194 8.05 4.4 10.8
4/12/2021 7:45:00 PM 11.51 52.718 0.194 8.04 4.62 10.75
4/12/2021 8:00:00 PM 11.5 52.7 0.193 8.02 5.33 10.7
4/12/2021 8:15:00 PM 11.49 52.682 0.193 8.01 5.13 10.67
4/12/2021 8:30:00 PM 11.48 52.664 0.192 7.99 5.89 10.63
4/12/2021 8:45:00 PM 11.46 52.628 0.192 7.98 4.51 10.59
4/12/2021 9:00:00 PM 11.45 52.61 0.191 7.96 35.83 10.55
4/12/2021 9:15:00 PM 11.44 52.592 0.191 7.95 5.96 10.54
4/12/2021 9:30:00 PM 11.42 52.556 0.191 7.94 5.4 10.51
4/12/2021 9:45:00 PM 11.41 52.538 0.19 7.93 5 10.49
4/12/2021 10:00:00 PM 11.4 52.52 0.191 7.93 5.02 10.47
4/12/2021 10:15:00 PM 11.39 52.502 0.192 7.92 5.4 10.45
4/12/2021 10:30:00 PM 11.38 52.484 0.191 7.91 6.3 10.44
4/12/2021 10:45:00 PM 11.37 52.466 0.191 7.9 5.91 10.42
4/12/2021 11:00:00 PM 11.36 52.448 0.19 7.9 5.37 10.41
4/12/2021 11:15:00 PM 11.36 52.448 0.19 7.9 5.72 10.41
4/12/2021 11:30:00 PM 11.35 52.43 0.19 7.88 5.94 10.4
4/12/2021 11:45:00 PM 11.34 52.412 0.19 7.88 5.5 10.4
4/13/2021 12:00:00 AM 11.33 52.394 0.191 7.88 6.41 10.38
4/13/2021 12:15:00 AM 11.32 52.376 0.191 7.89 5.78 10.41
4/13/2021 12:30:00 AM 11.32 52.376 0.191 7.89 5.17 10.42
4/13/2021 12:45:00 AM 11.31 52.358 0.191 7.89 5.76 10.42
4/13/2021 1:00:00 AM 11.32 52.376 0.191 7.89 5.69 10.43
4/13/2021 1:15:00 AM 11.31 52.358 0.192 7.89 5.57 10.43
4/13/2021 1:30:00 AM 11.31 52.358 0.192 7.89 5.19 10.43
4/13/2021 1:45:00 AM 11.3 52.34 0.193 7.89 6.04 10.43
4/13/2021 2:00:00 AM 11.29 52.322 0.194 7.89 6.1 10.43
4/13/2021 2:15:00 AM -99999.99 -179968 -99999.99 -99999.99 -99999.99 -99999.99
4/13/2021 2:30:00 AM -99999.99 -179968 -99999.99 -99999.99 -99999.99 -99999.99
4/13/2021 2:45:00 AM -99999.99 -179968 -99999.99 -99999.99 -99999.99 -99999.99
4/13/2021 3:00:00 AM -99999.99 -179968 -99999.99 -99999.99 -99999.99 -99999.99
4/13/2021 3:15:00 AM -99999.99 -179968 -99999.99 -99999.99 -99999.99 -99999.99
4/13/2021 3:30:00 AM -99999.99 -179968 -99999.99 -99999.99 -99999.99 -99999.99
4/13/2021 3:45:00 AM -99999.99 -179968 -99999.99 -99999.99 -99999.99 -99999.99
4/13/2021 4:00:00 AM -99999.99 -179968 -99999.99 -99999.99 -99999.99 -99999.99
4/13/2021 4:15:00 AM -99999.99 -179968 -99999.99 -99999.99 -99999.99 -99999.99
4/13/2021 4:30:00 AM -99999.99 -179968 -99999.99 -99999.99 -99999.99 -99999.99
4/13/2021 4:45:00 AM -99999.99 -179968 -99999.99 -99999.99 -99999.99 -99999.99
4/13/2021 6:00:00 AM 11.03 51.854 0.197 7.87 10.26 10.29
4/13/2021 6:15:00 AM 11.01 51.818 0.197 7.87 6.17 10.29
4/13/2021 6:30:00 AM 11.01 51.818 0.197 7.86 6.32 10.28
4/13/2021 6:45:00 AM 11.01 51.818 0.197 7.86 7.29 10.26
4/13/2021 7:00:00 AM 11.01 51.818 0.197 7.85 6.21 10.24
4/13/2021 7:15:00 AM 11 51.8 0.197 7.85 5.54 10.23
4/13/2021 7:30:00 AM 10.99 51.782 0.196 7.85 6.08 10.22
4/13/2021 7:45:00 AM 10.99 51.782 0.196 7.84 7.07 10.23
4/13/2021 8:00:00 AM 10.99 51.782 0.196 7.85 6.03 10.24
4/13/2021 8:15:00 AM 10.99 51.782 0.196 7.86 10.07 10.28
4/13/2021 8:30:00 AM 11 51.8 0.196 7.86 5.77 10.31
4/13/2021 8:45:00 AM 11.02 51.836 0.196 7.87 9.53 10.36
4/13/2021 9:00:00 AM 11.05 51.89 0.195 7.88 8.85 10.41
4/13/2021 9:15:00 AM 11.08 51.944 0.195 7.89 7.86 10.47
4/13/2021 9:30:00 AM 11.14 52.052 0.195 7.9 7.51 10.54
4/13/2021 9:45:00 AM 11.18 52.124 0.195 7.92 5.77 10.59
4/13/2021 10:00:00 AM 11.24 52.232 0.195 7.94 6.74 10.65
4/13/2021 10:15:00 AM 11.33 52.394 0.195 7.96 5.07 10.72
4/13/2021 10:30:00 AM 11.44 52.592 0.194 7.98 4.95 10.79
4/13/2021 10:45:00 AM 11.54 52.772 0.194 8 5.4 10.85
4/13/2021 11:00:00 AM 11.66 52.988 0.194 8.02 5.13 10.91
4/13/2021 11:15:00 AM 11.77 53.186 0.194 8.04 5.14 10.98
4/13/2021 11:30:00 AM 11.88 53.384 0.194 8.06 5.34 11.04
4/13/2021 11:45:00 AM 12.01 53.618 0.194 8.08 4.97 11.09
4/13/2021 12:00:00 PM 12.13 53.834 0.194 8.1 4.94 11.16
4/13/2021 12:15:00 PM 12.26 54.068 0.194 8.13 5.02 11.22
4/13/2021 12:30:00 PM 12.39 54.302 0.194 8.15 4.58 11.28
4/13/2021 12:45:00 PM 12.52 54.536 0.194 8.18 5.03 11.34
4/13/2021 1:00:00 PM 12.66 54.788 0.194 8.2 4.83 11.39
4/13/2021 1:15:00 PM 12.81 55.058 0.194 8.21 4.55 11.43
4/13/2021 1:30:00 PM 12.94 55.292 0.194 8.23 4.41 11.47
4/13/2021 1:45:00 PM 13.05 55.49 0.193 8.25 5.99 11.51
4/13/2021 2:00:00 PM 13.17 55.706 0.193 8.27 4.59 11.54
4/13/2021 2:15:00 PM 13.29 55.922 0.193 8.29 5.19 11.57
4/13/2021 2:30:00 PM 13.38 56.084 0.193 8.3 4.98 11.6
4/13/2021 2:45:00 PM 13.47 56.246 0.193 8.32 4.76 11.63
4/13/2021 3:00:00 PM 13.56 56.408 0.193 8.33 4.72 11.67
4/13/2021 3:15:00 PM 13.62 56.516 0.193 8.35 4.49 11.7
4/13/2021 3:30:00 PM 13.68 56.624 0.193 8.36 4.35 11.73
4/13/2021 3:45:00 PM 13.75 56.75 0.193 8.38 4.31 11.75
4/13/2021 4:00:00 PM 13.76 56.768 0.193 8.39 4.6 11.79
4/13/2021 4:15:00 PM 13.78 56.804 0.193 8.41 4.74 11.81
4/13/2021 4:30:00 PM 13.79 56.822 0.193 8.42 4.54 11.83
4/13/2021 4:45:00 PM 13.79 56.822 0.193 8.43 4.84 11.84
4/13/2021 5:00:00 PM 13.78 56.804 0.193 8.44 4.56 11.86
4/13/2021 5:15:00 PM 13.74 56.732 0.193 8.45 4.53 11.89
4/13/2021 5:30:00 PM 13.7 56.66 0.193 8.46 4.57 11.89
4/13/2021 5:45:00 PM 13.66 56.588 0.193 8.47 5.89 11.89
4/13/2021 6:00:00 PM 13.61 56.498 0.193 8.47 4.67 11.9
4/13/2021 6:15:00 PM 13.54 56.372 0.193 8.47 4.12 11.89
4/13/2021 6:30:00 PM 13.46 56.228 0.193 8.47 5.23 11.88
4/13/2021 6:45:00 PM 13.38 56.084 0.193 8.47 4.3 11.85
4/13/2021 7:00:00 PM 13.31 55.958 0.193 8.45 5.8 11.81
4/13/2021 7:15:00 PM 13.23 55.814 0.193 8.44 4.89 11.76
4/13/2021 7:30:00 PM 13.15 55.67 0.193 8.41 4.4 11.7
4/13/2021 7:45:00 PM 13.07 55.526 0.193 8.39 4.73 11.63
4/13/2021 8:00:00 PM 13 55.4 0.193 8.36 4.36 11.56
4/13/2021 8:15:00 PM 12.93 55.274 0.193 8.33 4.86 11.49
4/13/2021 8:30:00 PM 12.87 55.166 0.193 8.3 4.29 11.42
4/13/2021 8:45:00 PM 12.82 55.076 0.193 8.27 4.56 11.36
4/13/2021 9:00:00 PM 12.79 55.022 0.193 8.25 6.1 11.31
4/13/2021 9:15:00 PM 12.75 54.95 0.193 8.23 4.29 11.26
4/13/2021 9:30:00 PM 12.73 54.914 0.193 8.2 5.76 11.2
4/13/2021 9:45:00 PM 12.71 54.878 0.193 8.18 6.09 11.15
4/13/2021 10:00:00 PM 12.69 54.842 0.193 8.16 5.73 11.1
4/13/2021 10:15:00 PM 12.68 54.824 0.193 8.14 6.11 11.06
4/13/2021 10:30:00 PM 12.67 54.806 0.193 8.13 6.33 11.02
4/13/2021 10:45:00 PM 12.67 54.806 0.193 8.11 7.03 10.98
4/13/2021 11:00:00 PM 12.66 54.788 0.192 8.1 6.91 10.95
4/13/2021 11:15:00 PM 12.67 54.806 0.192 8.1 5.66 10.93
4/13/2021 11:30:00 PM 12.67 54.806 0.192 8.08 7.01 10.91
4/13/2021 11:45:00 PM 12.67 54.806 0.192 8.08 7.07 10.9
4/14/2021 12:00:00 AM 12.68 54.824 0.192 8.08 6.79 10.89
4/14/2021 12:15:00 AM 12.67 54.806 0.192 8.07 6.44 10.88
4/14/2021 12:30:00 AM 12.68 54.824 0.192 8.08 5.11 10.88
4/14/2021 12:45:00 AM 12.68 54.824 0.192 8.08 6.14 10.87
4/14/2021 1:00:00 AM 12.68 54.824 0.192 8.08 5.68 10.87
4/14/2021 1:15:00 AM 12.68 54.824 0.192 8.08 5.26 10.85
4/14/2021 1:30:00 AM 12.67 54.806 0.192 8.09 5.32 10.84
4/14/2021 1:45:00 AM 12.67 54.806 0.192 8.08 5.21 10.82
4/14/2021 2:00:00 AM 12.66 54.788 0.192 8.08 5.26 10.8
4/14/2021 2:15:00 AM 12.65 54.77 0.192 8.08 5.24 10.78
4/14/2021 2:30:00 AM 12.64 54.752 0.192 8.07 5.52 10.75
4/14/2021 2:45:00 AM 12.62 54.716 0.192 8.06 4.98 10.72
4/14/2021 3:00:00 AM 12.6 54.68 0.192 8.06 6.81 10.7
4/14/2021 3:15:00 AM 12.58 54.644 0.192 8.06 4.91 10.67
4/14/2021 3:30:00 AM 12.56 54.608 0.193 8.05 5.09 10.65
4/14/2021 3:45:00 AM 12.53 54.554 0.193 8.04 7.31 10.63
4/14/2021 4:00:00 AM 12.5 54.5 0.193 8.04 6.5 10.6
4/14/2021 4:15:00 AM 12.47 54.446 0.193 8.02 7.36 10.57
4/14/2021 4:30:00 AM 12.44 54.392 0.193 8.02 5.38 10.55
4/14/2021 4:45:00 AM 12.4 54.32 0.193 8.01 5.45 10.52
4/14/2021 5:00:00 AM 12.37 54.266 0.194 8 6.47 10.5
4/14/2021 5:15:00 AM 12.33 54.194 0.194 8 5.68 10.47
4/14/2021 5:30:00 AM 12.3 54.14 0.194 7.99 5.39 10.43
4/14/2021 5:45:00 AM 12.25 54.05 0.194 7.98 5.55 10.4
4/14/2021 6:00:00 AM 12.21 53.978 0.194 7.95 8.53 10.37
4/14/2021 6:15:00 AM 12.17 53.906 0.195 7.95 5.34 10.34
4/14/2021 6:30:00 AM 12.12 53.816 0.195 7.94 4.93 10.3
4/14/2021 6:45:00 AM 12.06 53.708 0.195 7.93 4.87 10.28
4/14/2021 7:00:00 AM 12.02 53.636 0.195 7.91 4.77 10.24
4/14/2021 7:15:00 AM 11.97 53.546 0.195 7.91 5.35 10.23
4/14/2021 7:30:00 AM 11.93 53.474 0.195 7.9 4.91 10.23
4/14/2021 7:45:00 AM 11.89 53.402 0.196 7.9 4.86 10.23
4/14/2021 8:00:00 AM 11.85 53.33 0.196 7.9 4.57 10.25
4/14/2021 8:15:00 AM 11.82 53.276 0.196 7.9 5.33 10.27
4/14/2021 8:30:00 AM 11.8 53.24 0.196 7.9 5.69 10.3
4/14/2021 8:45:00 AM 11.79 53.222 0.196 7.91 5.57 10.35
4/14/2021 9:00:00 AM 11.78 53.204 0.196 7.92 4.98 10.41
4/14/2021 9:15:00 AM 11.78 53.204 0.196 7.92 4.99 10.45
4/14/2021 9:30:00 AM 11.77 53.186 0.196 7.94 4.75 10.5
4/14/2021 9:45:00 AM 11.75 53.15 0.196 7.95 4.57 10.56
4/14/2021 10:00:00 AM 11.77 53.186 0.196 7.96 4.6 10.61
4/14/2021 10:15:00 AM 11.82 53.276 0.196 7.97 4.66 10.68
4/14/2021 10:30:00 AM 11.9 53.42 0.196 7.99 4.37 10.75
4/14/2021 10:45:00 AM 12 53.6 0.196 8.02 4.26 10.83
4/14/2021 11:00:00 AM 12.08 53.744 0.196 8.04 5.23 10.91
4/14/2021 11:15:00 AM 12.13 53.834 0.196 8.06 4.79 10.97
4/14/2021 11:30:00 AM 12.18 53.924 0.196 8.08 5.71 11.05
4/14/2021 11:45:00 AM 12.27 54.086 0.196 8.11 3.98 11.12
4/14/2021 12:00:00 PM 12.3 54.14 0.196 8.13 4.2 11.18
4/14/2021 12:15:00 PM 12.35 54.23 0.196 8.15 4.08 11.23
4/14/2021 12:30:00 PM 12.39 54.302 0.196 8.17 3.93 11.26
4/14/2021 12:45:00 PM 12.39 54.302 0.196 8.18 4.39 11.3
4/14/2021 1:00:00 PM 12.4 54.32 0.196 8.19 3.91 11.31
4/14/2021 1:15:00 PM 12.42 54.356 0.196 8.2 4.41 11.34
4/14/2021 1:30:00 PM 12.44 54.392 0.195 8.21 4.16 11.36
4/14/2021 1:45:00 PM 12.42 54.356 0.195 8.22 3.87 11.36
4/14/2021 2:00:00 PM 12.39 54.302 0.195 8.22 3.98 11.35
4/14/2021 2:15:00 PM 12.37 54.266 0.195 8.21 3.99 11.31
4/14/2021 2:30:00 PM 12.34 54.212 0.195 8.19 4.74 11.26
4/14/2021 2:45:00 PM 12.33 54.194 0.195 8.18 4.03 11.23
4/14/2021 3:00:00 PM 12.31 54.158 0.195 8.18 4.12 11.22
4/14/2021 3:15:00 PM 12.29 54.122 0.195 8.17 3.88 11.2
4/14/2021 3:30:00 PM 12.27 54.086 0.195 8.16 4.23 11.16
4/14/2021 3:45:00 PM 12.26 54.068 0.195 8.15 4.09 11.13
4/14/2021 4:00:00 PM 12.25 54.05 0.195 8.14 4.4 11.1
4/14/2021 4:15:00 PM 12.25 54.05 0.195 8.13 3.95 11.08
4/14/2021 4:30:00 PM 12.25 54.05 0.196 8.12 4.15 11.06
4/14/2021 4:45:00 PM 12.26 54.068 0.197 8.12 4.69 11.04
4/14/2021 5:00:00 PM 12.27 54.086 0.197 8.12 6.35 11.03
4/14/2021 5:15:00 PM 12.29 54.122 0.196 8.12 3.75 11.03
4/14/2021 5:30:00 PM 12.4 54.32 0.195 8.12 5.94 11.06
4/14/2021 5:45:00 PM 12.5 54.5 0.195 8.13 7.12 11.1
4/14/2021 6:00:00 PM 12.52 54.536 0.197 8.15 4.07 11.14
4/14/2021 6:15:00 PM 12.57 54.626 0.197 8.17 3.97 11.18
4/14/2021 6:30:00 PM 12.58 54.644 0.196 8.19 4.05 11.19
4/14/2021 6:45:00 PM 12.59 54.662 0.195 8.19 4.4 11.18
4/14/2021 7:00:00 PM 12.59 54.662 0.195 8.19 3.83 11.18
4/14/2021 7:15:00 PM 12.58 54.644 0.194 8.2 4.18 11.16
4/14/2021 7:30:00 PM 12.56 54.608 0.194 8.19 3.72 11.14
4/14/2021 7:45:00 PM 12.55 54.59 0.194 8.18 4.23 11.12
4/14/2021 8:00:00 PM 12.54 54.572 0.194 8.18 4.51 11.09
4/14/2021 8:15:00 PM 12.53 54.554 0.194 8.17 3.77 11.06
4/14/2021 8:30:00 PM 12.53 54.554 0.194 8.16 6.29 11.03
4/14/2021 8:45:00 PM 12.53 54.554 0.194 8.15 8.96 11.01
4/14/2021 9:00:00 PM 12.53 54.554 0.194 8.15 5.02 10.98
4/14/2021 9:15:00 PM 12.53 54.554 0.194 8.14 4.15 10.95
4/14/2021 9:30:00 PM 12.53 54.554 0.194 8.13 4.23 10.91
4/14/2021 9:45:00 PM 12.52 54.536 0.194 8.12 6.14 10.89
4/14/2021 10:00:00 PM 12.51 54.518 0.194 8.1 4.15 10.85
4/14/2021 10:15:00 PM 12.5 54.5 0.194 8.09 4.05 10.8
4/14/2021 10:30:00 PM 12.49 54.482 0.194 8.08 5.47 10.77
4/14/2021 10:45:00 PM 12.49 54.482 0.195 8.07 4.58 10.75
4/14/2021 11:00:00 PM 12.5 54.5 0.194 8.06 5.45 10.73
4/14/2021 11:15:00 PM 12.5 54.5 0.195 8.06 4.52 10.7
4/14/2021 11:30:00 PM 12.49 54.482 0.195 8.03 4.56 10.68
4/14/2021 11:45:00 PM 12.49 54.482 0.195 8.04 7.73 10.66
4/15/2021 12:00:00 AM 12.48 54.464 0.195 8.04 4.32 10.65
4/15/2021 12:15:00 AM 12.47 54.446 0.194 8.04 4.33 10.64
4/15/2021 12:30:00 AM 12.47 54.446 0.194 8.04 4.76 10.64
4/15/2021 12:45:00 AM 12.46 54.428 0.194 8.05 4.51 10.63
4/15/2021 1:00:00 AM 12.46 54.428 0.194 8.05 4.29 10.63
4/15/2021 1:15:00 AM 12.44 54.392 0.194 8.05 4.13 10.63
4/15/2021 1:30:00 AM 12.43 54.374 0.194 8.05 4.38 10.62
4/15/2021 1:45:00 AM 12.42 54.356 0.194 8.05 4.17 10.59
4/15/2021 2:00:00 AM 12.41 54.338 0.194 8.05 4.45 10.58
4/15/2021 2:15:00 AM 12.39 54.302 0.194 8.05 4.62 10.58
4/15/2021 2:30:00 AM 12.38 54.284 0.194 8.03 5.9 10.55
4/15/2021 2:45:00 AM 12.36 54.248 0.194 8.03 5.16 10.53
4/15/2021 3:00:00 AM 12.34 54.212 0.194 8.02 4.58 10.51
4/15/2021 3:15:00 AM 12.32 54.176 0.194 8.01 5.46 10.48
4/15/2021 3:30:00 AM 12.29 54.122 0.194 8 5.61 10.45
4/15/2021 3:45:00 AM 12.27 54.086 0.194 8 5.9 10.43
4/15/2021 4:00:00 AM 12.24 54.032 0.194 7.99 5.67 10.4
4/15/2021 4:15:00 AM 12.21 53.978 0.194 7.98 4.42 10.38
4/15/2021 4:30:00 AM 12.18 53.924 0.194 7.97 4.8 10.36
4/15/2021 4:45:00 AM 12.15 53.87 0.194 7.96 4.29 10.33
4/15/2021 5:00:00 AM 12.12 53.816 0.194 7.95 4.63 10.31
4/15/2021 5:15:00 AM 12.09 53.762 0.194 7.94 5.09 10.29
4/15/2021 5:30:00 AM 12.05 53.69 0.194 7.93 4.41 10.27
4/15/2021 5:45:00 AM 12.01 53.618 0.194 7.92 5.01 10.25
4/15/2021 6:00:00 AM 11.97 53.546 0.194 7.91 6.01 10.23
4/15/2021 6:15:00 AM 11.93 53.474 0.194 7.9 4.77 10.21
4/15/2021 6:30:00 AM 11.88 53.384 0.194 7.89 5.09 10.19
4/15/2021 6:45:00 AM 11.84 53.312 0.194 7.88 4.5 10.17
4/15/2021 7:00:00 AM 11.79 53.222 0.194 7.88 4.57 10.16
4/15/2021 7:15:00 AM 11.75 53.15 0.193 7.87 6.16 10.16
4/15/2021 7:30:00 AM 11.71 53.078 0.193 7.86 4.24 10.16
4/15/2021 7:45:00 AM 11.67 53.006 0.193 7.86 4.43 10.16
4/15/2021 8:00:00 AM 11.63 52.934 0.193 7.86 4.18 10.17
4/15/2021 8:15:00 AM 11.59 52.862 0.193 7.86 4.05 10.2
4/15/2021 8:30:00 AM 11.56 52.808 0.193 7.85 5 10.21
4/15/2021 8:45:00 AM 11.52 52.736 0.193 7.85 4.23 10.22
4/15/2021 9:00:00 AM 11.49 52.682 0.193 7.85 9.89 10.23
4/15/2021 9:15:00 AM 11.46 52.628 0.193 7.85 4.33 10.25
4/15/2021 9:30:00 AM 11.44 52.592 0.193 7.85 4.16 10.28
4/15/2021 9:45:00 AM 11.42 52.556 0.193 7.86 4.02 10.34
4/15/2021 10:00:00 AM 11.4 52.52 0.192 7.87 4.4 10.4
4/15/2021 10:15:00 AM 11.38 52.484 0.192 7.88 4.61 10.46
4/15/2021 10:30:00 AM 11.4 52.52 0.192 7.9 3.77 10.54
4/15/2021 10:45:00 AM 11.4 52.52 0.192 7.91 4.1 10.61
4/15/2021 11:00:00 AM 11.4 52.52 0.192 7.93 3.99 10.68
4/15/2021 11:15:00 AM 11.38 52.484 0.192 7.94 4.04 10.73
4/15/2021 11:30:00 AM 11.36 52.448 0.192 7.95 3.78 10.77
4/15/2021 11:45:00 AM 11.33 52.394 0.192 7.96 3.96 10.79
4/15/2021 12:00:00 PM 11.31 52.358 0.192 7.96 4.05 10.82
4/15/2021 12:15:00 PM 11.28 52.304 0.192 7.97 3.83 10.84
4/15/2021 12:30:00 PM 11.25 52.25 0.191 7.97 3.69 10.87
4/15/2021 12:45:00 PM 11.22 52.196 0.191 7.98 3.69 10.89
4/15/2021 1:00:00 PM 11.2 52.16 0.191 7.99 4.62 10.93
4/15/2021 1:15:00 PM 11.19 52.142 0.191 7.99 4.14 10.95
4/15/2021 1:30:00 PM 11.18 52.124 0.191 8.01 3.51 11
4/15/2021 1:45:00 PM 11.17 52.106 0.191 8.02 3.79 11.04
4/15/2021 2:00:00 PM 11.15 52.07 0.191 8.03 4 11.06
4/15/2021 2:15:00 PM 11.16 52.088 0.191 8.04 3.59 11.1
4/15/2021 2:30:00 PM 11.17 52.106 0.191 8.06 3.77 11.15
4/15/2021 2:45:00 PM 11.17 52.106 0.191 8.07 4.47 11.21
4/15/2021 3:00:00 PM 11.16 52.088 0.191 8.08 4.03 11.23
4/15/2021 3:15:00 PM 11.15 52.07 0.191 8.09 3.71 11.25
4/15/2021 3:30:00 PM 11.15 52.07 0.19 8.1 3.78 11.26
4/15/2021 3:45:00 PM 11.15 52.07 0.19 8.11 3.81 11.29
4/15/2021 4:00:00 PM 11.13 52.034 0.191 8.11 3.86 11.3
4/15/2021 4:15:00 PM 11.12 52.016 0.191 8.12 4.11 11.31
4/15/2021 4:30:00 PM 11.1 51.98 0.191 8.12 3.67 11.3
4/15/2021 4:45:00 PM 11.09 51.962 0.191 8.12 3.81 11.28
4/15/2021 5:00:00 PM 11.07 51.926 0.191 8.11 4.73 11.27
4/15/2021 5:15:00 PM 11.05 51.89 0.19 8.11 4.93 11.27
4/15/2021 5:30:00 PM 11.04 51.872 0.19 8.12 4.61 11.28
4/15/2021 5:45:00 PM 11.03 51.854 0.19 8.12 4.06 11.28
4/15/2021 6:00:00 PM 11.02 51.836 0.19 8.13 3.54 11.28
4/15/2021 6:15:00 PM 11.01 51.818 0.19 8.12 4.52 11.28
4/15/2021 6:30:00 PM 10.99 51.782 0.19 8.12 3.67 11.24
4/15/2021 6:45:00 PM 10.98 51.764 0.19 8.1 3.62 11.21
4/15/2021 7:00:00 PM 10.96 51.728 0.19 8.09 3.71 11.16
4/15/2021 7:15:00 PM 10.94 51.692 0.19 8.08 3.61 11.12
4/15/2021 7:30:00 PM 10.92 51.656 0.19 8.06 3.53 11.07
4/15/2021 7:45:00 PM 10.9 51.62 0.19 8.05 3.51 11.02
4/15/2021 8:00:00 PM 10.89 51.602 0.19 8.03 5.5 10.97
4/15/2021 8:15:00 PM 10.88 51.584 0.19 8.02 6.89 10.93
4/15/2021 8:30:00 PM 10.87 51.566 0.19 8 4.08 10.89
4/15/2021 8:45:00 PM 10.86 51.548 0.19 7.99 4.22 10.85
4/15/2021 9:00:00 PM 10.84 51.512 0.19 7.98 4.21 10.81
4/15/2021 9:15:00 PM 10.84 51.512 0.19 7.96 4.19 10.77
4/15/2021 9:30:00 PM 10.83 51.494 0.19 7.95 5.39 10.73
4/15/2021 9:45:00 PM 10.83 51.494 0.19 7.94 5.31 10.7
4/15/2021 10:00:00 PM 10.82 51.476 0.19 7.93 4.53 10.68
4/15/2021 10:15:00 PM 10.82 51.476 0.19 7.93 4.06 10.66
4/15/2021 10:30:00 PM 10.81 51.458 0.19 7.92 3.82 10.64
4/15/2021 10:45:00 PM 10.81 51.458 0.19 7.92 4.12 10.63
4/15/2021 11:00:00 PM 10.81 51.458 0.19 7.92 4.3 10.61
4/15/2021 11:15:00 PM 10.81 51.458 0.19 7.91 5.55 10.62
4/15/2021 11:30:00 PM -99999.99 -179968 -99999.99 -99999.99 -99999.99 -99999.99
4/15/2021 11:45:00 PM -99999.99 -179968 -99999.99 -99999.99 -99999.99 -99999.99
4/16/2021 12:00:00 AM -99999.99 -179968 -99999.99 -99999.99 -99999.99 -99999.99
4/16/2021 12:15:00 AM -99999.99 -179968 -99999.99 -99999.99 -99999.99 -99999.99
4/16/2021 12:30:00 AM -99999.99 -179968 -99999.99 -99999.99 -99999.99 -99999.99
4/16/2021 12:45:00 AM -99999.99 -179968 -99999.99 -99999.99 -99999.99 -99999.99
4/16/2021 1:00:00 AM -99999.99 -179968 -99999.99 -99999.99 -99999.99 -99999.99
4/16/2021 1:15:00 AM -99999.99 -179968 -99999.99 -99999.99 -99999.99 -99999.99
4/16/2021 1:30:00 AM -99999.99 -179968 -99999.99 -99999.99 -99999.99 -99999.99
4/16/2021 1:45:00 AM -99999.99 -179968 -99999.99 -99999.99 -99999.99 -99999.99
4/16/2021 2:00:00 AM -99999.99 -179968 -99999.99 -99999.99 -99999.99 -99999.99
4/16/2021 2:15:00 AM -99999.99 -179968 -99999.99 -99999.99 -99999.99 -99999.99
4/16/2021 2:30:00 AM -99999.99 -179968 -99999.99 -99999.99 -99999.99 -99999.99
4/16/2021 2:45:00 AM -99999.99 -179968 -99999.99 -99999.99 -99999.99 -99999.99
4/16/2021 3:00:00 AM -99999.99 -179968 -99999.99 -99999.99 -99999.99 -99999.99
4/16/2021 3:15:00 AM -99999.99 -179968 -99999.99 -99999.99 -99999.99 -99999.99
4/16/2021 3:30:00 AM -99999.99 -179968 -99999.99 -99999.99 -99999.99 -99999.99
4/16/2021 3:45:00 AM -99999.99 -179968 -99999.99 -99999.99 -99999.99 -99999.99
4/16/2021 4:00:00 AM -99999.99 -179968 -99999.99 -99999.99 -99999.99 -99999.99
4/16/2021 4:15:00 AM -99999.99 -179968 -99999.99 -99999.99 -99999.99 -99999.99
4/16/2021 4:30:00 AM 10.72 51.296 0.189 7.91 5.44 10.49
4/16/2021 4:45:00 AM 10.71 51.278 0.189 7.91 4.89 10.48
4/16/2021 5:00:00 AM 10.7 51.26 0.189 7.9 4.47 10.46
4/16/2021 5:15:00 AM 10.68 51.224 0.189 7.9 4.62 10.44
4/16/2021 5:30:00 AM 10.65 51.17 0.189 7.89 4.32 10.43
4/16/2021 5:45:00 AM 10.63 51.134 0.189 7.89 6.42 10.4
4/16/2021 6:00:00 AM 10.61 51.098 0.189 7.88 4.53 10.38
4/16/2021 6:15:00 AM 10.6 51.08 0.189 7.88 5.14 10.36
4/16/2021 6:30:00 AM 10.58 51.044 0.187 7.87 4.63 10.33
4/16/2021 6:45:00 AM 10.55 50.99 0.19 7.86 4.56 10.32
4/16/2021 7:00:00 AM 10.53 50.954 0.15 7.86 5.23 10.31
4/16/2021 7:15:00 AM 10.51 50.918 0.19 7.85 4.61 10.29
4/16/2021 7:30:00 AM 10.48 50.864 0.19 7.85 3.95 10.28
4/16/2021 7:45:00 AM 10.46 50.828 0.19 7.85 4.03 10.27
4/16/2021 8:00:00 AM 10.44 50.792 0.19 7.84 5.04 10.28
4/16/2021 8:15:00 AM 10.43 50.774 0.19 7.84 4.23 10.28
4/16/2021 8:30:00 AM 10.42 50.756 0.19 7.85 3.99 10.31
4/16/2021 8:45:00 AM 10.42 50.756 0.19 7.85 4.11 10.35
4/16/2021 9:00:00 AM 10.42 50.756 0.191 7.86 4.75 10.41
4/16/2021 9:15:00 AM 10.42 50.756 0.191 7.87 6.18 10.45
4/16/2021 9:30:00 AM 10.43 50.774 0.191 7.88 7.47 10.52
4/16/2021 9:45:00 AM 10.44 50.792 0.191 7.89 4.68 10.58
4/16/2021 10:00:00 AM 10.45 50.81 0.19 7.91 3.86 10.63
4/16/2021 10:15:00 AM 10.47 50.846 0.19 7.92 3.73 10.68
4/16/2021 10:30:00 AM 10.48 50.864 0.19 7.94 5.84 10.75
4/16/2021 10:45:00 AM 10.5 50.9 0.19 7.95 3.99 10.8
4/16/2021 11:00:00 AM 10.52 50.936 0.19 7.96 3.84 10.86
4/16/2021 11:15:00 AM 10.53 50.954 0.19 7.98 3.98 10.92
4/16/2021 11:30:00 AM 10.56 51.008 0.19 8 3.73 10.98
4/16/2021 11:45:00 AM 10.57 51.026 0.191 8.02 3.88 11.04
4/16/2021 12:00:00 PM 10.58 51.044 0.191 8.04 3.83 11.1
4/16/2021 12:15:00 PM 10.58 51.044 0.192 8.05 3.65 11.16
4/16/2021 12:30:00 PM 10.58 51.044 0.192 8.07 3.74 11.2
4/16/2021 12:45:00 PM 10.56 51.008 0.192 8.08 8.48 11.25
4/16/2021 1:00:00 PM 10.55 50.99 0.191 8.1 4.11 11.28
4/16/2021 1:15:00 PM 10.56 51.008 0.191 8.11 4.65 11.33
4/16/2021 1:30:00 PM 10.59 51.062 0.191 8.13 4.27 11.37
4/16/2021 1:45:00 PM 10.62 51.116 0.191 8.15 3.91 11.41
4/16/2021 2:00:00 PM 10.67 51.206 0.191 8.16 4 11.44
4/16/2021 2:15:00 PM 10.74 51.332 0.191 8.17 4.94 11.5
4/16/2021 2:30:00 PM 10.79 51.422 0.191 8.19 4.56 11.52
4/16/2021 2:45:00 PM 10.79 51.422 0.191 8.2 4.15 11.53
4/16/2021 3:00:00 PM 10.79 51.422 0.191 8.21 4.78 11.57
4/16/2021 3:15:00 PM 10.74 51.332 0.191 8.22 3.92 11.57
4/16/2021 3:30:00 PM 10.69 51.242 0.191 8.22 3.78 11.56
4/16/2021 3:45:00 PM 10.64 51.152 0.191 8.22 3.77 11.57
4/16/2021 4:00:00 PM 10.59 51.062 0.191 8.22 3.6 11.57
4/16/2021 4:15:00 PM 10.56 51.008 0.191 8.22 3.8 11.58
4/16/2021 4:30:00 PM 10.52 50.936 0.192 8.22 3.74 11.58
4/16/2021 4:45:00 PM 10.49 50.882 0.192 8.22 3.72 11.59
4/16/2021 5:00:00 PM 10.45 50.81 0.192 8.22 3.57 11.59
4/16/2021 5:15:00 PM 10.42 50.756 0.192 8.22 3.65 11.57
4/16/2021 5:30:00 PM 10.38 50.684 0.192 8.21 4.17 11.58
4/16/2021 5:45:00 PM 10.35 50.63 0.192 8.21 3.76 11.56
4/16/2021 6:00:00 PM 10.31 50.558 0.193 8.2 3.67 11.53
4/16/2021 6:15:00 PM 10.26 50.468 0.193 8.19 3.91 11.51
4/16/2021 6:30:00 PM 10.22 50.396 0.193 8.17 3.72 11.47
4/16/2021 6:45:00 PM 10.18 50.324 0.193 8.16 4.28 11.45
4/16/2021 7:00:00 PM 10.15 50.27 0.193 8.15 4.93 11.42
4/16/2021 7:15:00 PM 10.1 50.18 0.193 8.14 4.01 11.38
4/16/2021 7:30:00 PM 10.06 50.108 0.193 8.12 5.07 11.35
4/16/2021 7:45:00 PM 10.02 50.036 0.193 8.11 3.75 11.29
4/16/2021 8:00:00 PM 9.98 49.964 0.193 8.09 4.31 11.26
4/16/2021 8:15:00 PM 9.95 49.91 0.193 8.07 4.38 11.22
4/16/2021 8:30:00 PM 9.92 49.856 0.194 8.05 3.86 11.17
4/16/2021 8:45:00 PM 9.89 49.802 0.194 8.04 3.84 11.14
4/16/2021 9:00:00 PM 9.87 49.766 0.194 8.02 3.75 11.11
4/16/2021 9:15:00 PM 9.85 49.73 0.194 8.01 3.91 11.07
4/16/2021 9:30:00 PM 9.83 49.694 0.194 8 4.17 11.06
4/16/2021 9:45:00 PM 9.81 49.658 0.194 7.99 5.44 11.04
4/16/2021 10:00:00 PM 9.8 49.64 0.194 7.99 4.85 11.02
4/16/2021 10:15:00 PM 9.79 49.622 0.194 7.98 8.55 11.01
4/16/2021 10:30:00 PM 9.78 49.604 0.195 7.97 5.09 11
4/16/2021 10:45:00 PM 9.77 49.586 0.195 7.97 7.11 10.99
4/16/2021 11:00:00 PM 9.77 49.586 0.195 7.97 5.52 10.99
4/16/2021 11:15:00 PM 9.76 49.568 0.195 7.96 4.3 10.98
4/16/2021 11:30:00 PM 9.75 49.55 0.195 7.96 4.62 10.97
4/16/2021 11:45:00 PM 9.75 49.55 0.195 7.95 4.79 10.97
4/17/2021 12:00:00 AM 9.75 49.55 0.195 7.96 4.77 10.98
4/17/2021 12:15:00 AM 9.74 49.532 0.195 7.96 4.73 10.98
4/17/2021 12:30:00 AM 9.74 49.532 0.195 7.96 4.4 10.98
4/17/2021 12:45:00 AM